<?xml version="1.0" encoding="UTF-8" standalone="no" ?>
<gpx xmlns="http://www.topografix.com/GPX/1/1" xmlns:xsi="http://www.w3.org/2001/XMLSchema-instance" xsi:schemaLocation="http://www.topografix.com/GPX/1/1 http://www.topografix.com/GPX/1/1/gpx.xsd" version="1.1" creator="VisuGPX - https://www.visugpx.com">
  <metadata>
    <name>Autour de Biron</name>
    <desc><![CDATA[Autour de Biron]]></desc>
  </metadata>
  <trk>
    <name><![CDATA[14-DEC-14 12:09:23]]></name>
    <trkseg>
      <trkpt lat="44.63083" lon="0.87808">
        <ele>213.07</ele>
        <time>2014-12-14T08:07:32Z</time>
      </trkpt>
      <trkpt lat="44.63083" lon="0.87808">
        <ele>210.67</ele>
        <time>2014-12-14T08:07:50Z</time>
      </trkpt>
      <trkpt lat="44.63083" lon="0.87808">
        <ele>209.22</ele>
        <time>2014-12-14T08:07:58Z</time>
      </trkpt>
      <trkpt lat="44.6308" lon="0.87808">
        <ele>209.22</ele>
        <time>2014-12-14T08:08:15Z</time>
      </trkpt>
      <trkpt lat="44.63078" lon="0.87807">
        <ele>210.67</ele>
        <time>2014-12-14T08:08:40Z</time>
      </trkpt>
      <trkpt lat="44.63074" lon="0.87809">
        <ele>211.63</ele>
        <time>2014-12-14T08:08:44Z</time>
      </trkpt>
      <trkpt lat="44.63065" lon="0.87814">
        <ele>210.67</ele>
        <time>2014-12-14T08:08:52Z</time>
      </trkpt>
      <trkpt lat="44.63058" lon="0.8781">
        <ele>210.19</ele>
        <time>2014-12-14T08:08:57Z</time>
      </trkpt>
      <trkpt lat="44.63038" lon="0.87804">
        <ele>207.78</ele>
        <time>2014-12-14T08:09:08Z</time>
      </trkpt>
      <trkpt lat="44.63017" lon="0.8781">
        <ele>206.34</ele>
        <time>2014-12-14T08:09:20Z</time>
      </trkpt>
      <trkpt lat="44.62975" lon="0.87825">
        <ele>203.46</ele>
        <time>2014-12-14T08:09:33Z</time>
      </trkpt>
      <trkpt lat="44.62958" lon="0.8782">
        <ele>201.05</ele>
        <time>2014-12-14T08:09:40Z</time>
      </trkpt>
      <trkpt lat="44.62957" lon="0.87815">
        <ele>200.57</ele>
        <time>2014-12-14T08:09:41Z</time>
      </trkpt>
      <trkpt lat="44.62958" lon="0.87811">
        <ele>200.57</ele>
        <time>2014-12-14T08:09:42Z</time>
      </trkpt>
      <trkpt lat="44.62959" lon="0.87806">
        <ele>200.09</ele>
        <time>2014-12-14T08:09:43Z</time>
      </trkpt>
      <trkpt lat="44.6296" lon="0.87801">
        <ele>200.09</ele>
        <time>2014-12-14T08:09:44Z</time>
      </trkpt>
      <trkpt lat="44.6298" lon="0.87707">
        <ele>200.09</ele>
        <time>2014-12-14T08:10:03Z</time>
      </trkpt>
      <trkpt lat="44.62969" lon="0.87663">
        <ele>202.01</ele>
        <time>2014-12-14T08:10:16Z</time>
      </trkpt>
      <trkpt lat="44.62922" lon="0.87618">
        <ele>200.09</ele>
        <time>2014-12-14T08:10:29Z</time>
      </trkpt>
      <trkpt lat="44.62866" lon="0.87564">
        <ele>198.17</ele>
        <time>2014-12-14T08:10:43Z</time>
      </trkpt>
      <trkpt lat="44.62859" lon="0.87557">
        <ele>197.69</ele>
        <time>2014-12-14T08:10:45Z</time>
      </trkpt>
      <trkpt lat="44.62852" lon="0.87548">
        <ele>197.21</ele>
        <time>2014-12-14T08:10:47Z</time>
      </trkpt>
      <trkpt lat="44.62848" lon="0.87544">
        <ele>197.21</ele>
        <time>2014-12-14T08:10:48Z</time>
      </trkpt>
      <trkpt lat="44.62844" lon="0.8754">
        <ele>197.21</ele>
        <time>2014-12-14T08:10:49Z</time>
      </trkpt>
      <trkpt lat="44.62802" lon="0.87505">
        <ele>197.69</ele>
        <time>2014-12-14T08:10:59Z</time>
      </trkpt>
      <trkpt lat="44.62729" lon="0.87436">
        <ele>191.44</ele>
        <time>2014-12-14T08:11:11Z</time>
      </trkpt>
      <trkpt lat="44.62629" lon="0.87313">
        <ele>185.19</ele>
        <time>2014-12-14T08:11:26Z</time>
      </trkpt>
      <trkpt lat="44.62549" lon="0.8722">
        <ele>182.31</ele>
        <time>2014-12-14T08:11:40Z</time>
      </trkpt>
      <trkpt lat="44.62516" lon="0.87187">
        <ele>182.31</ele>
        <time>2014-12-14T08:11:47Z</time>
      </trkpt>
      <trkpt lat="44.62511" lon="0.87187">
        <ele>182.31</ele>
        <time>2014-12-14T08:11:48Z</time>
      </trkpt>
      <trkpt lat="44.62507" lon="0.87188">
        <ele>181.35</ele>
        <time>2014-12-14T08:11:49Z</time>
      </trkpt>
      <trkpt lat="44.62502" lon="0.87188">
        <ele>181.35</ele>
        <time>2014-12-14T08:11:50Z</time>
      </trkpt>
      <trkpt lat="44.62498" lon="0.87187">
        <ele>180.87</ele>
        <time>2014-12-14T08:11:51Z</time>
      </trkpt>
      <trkpt lat="44.62495" lon="0.87186">
        <ele>180.87</ele>
        <time>2014-12-14T08:11:52Z</time>
      </trkpt>
      <trkpt lat="44.62479" lon="0.87174">
        <ele>181.83</ele>
        <time>2014-12-14T08:11:57Z</time>
      </trkpt>
      <trkpt lat="44.62476" lon="0.87173">
        <ele>181.83</ele>
        <time>2014-12-14T08:11:58Z</time>
      </trkpt>
      <trkpt lat="44.62472" lon="0.87173">
        <ele>181.83</ele>
        <time>2014-12-14T08:11:59Z</time>
      </trkpt>
      <trkpt lat="44.62469" lon="0.87174">
        <ele>182.31</ele>
        <time>2014-12-14T08:12:00Z</time>
      </trkpt>
      <trkpt lat="44.62466" lon="0.87177">
        <ele>182.79</ele>
        <time>2014-12-14T08:12:01Z</time>
      </trkpt>
      <trkpt lat="44.62439" lon="0.87232">
        <ele>181.35</ele>
        <time>2014-12-14T08:12:13Z</time>
      </trkpt>
      <trkpt lat="44.62437" lon="0.87237">
        <ele>181.35</ele>
        <time>2014-12-14T08:12:14Z</time>
      </trkpt>
      <trkpt lat="44.62419" lon="0.87274">
        <ele>178.46</ele>
        <time>2014-12-14T08:12:21Z</time>
      </trkpt>
      <trkpt lat="44.62414" lon="0.87284">
        <ele>177.02</ele>
        <time>2014-12-14T08:12:23Z</time>
      </trkpt>
      <trkpt lat="44.624" lon="0.87303">
        <ele>174.62</ele>
        <time>2014-12-14T08:12:27Z</time>
      </trkpt>
      <trkpt lat="44.62388" lon="0.87325">
        <ele>172.69</ele>
        <time>2014-12-14T08:12:31Z</time>
      </trkpt>
      <trkpt lat="44.62374" lon="0.87353">
        <ele>171.73</ele>
        <time>2014-12-14T08:12:36Z</time>
      </trkpt>
      <trkpt lat="44.62368" lon="0.87364">
        <ele>171.25</ele>
        <time>2014-12-14T08:12:38Z</time>
      </trkpt>
      <trkpt lat="44.62355" lon="0.8739">
        <ele>170.29</ele>
        <time>2014-12-14T08:12:43Z</time>
      </trkpt>
      <trkpt lat="44.62349" lon="0.87399">
        <ele>169.81</ele>
        <time>2014-12-14T08:12:45Z</time>
      </trkpt>
      <trkpt lat="44.62341" lon="0.87426">
        <ele>168.85</ele>
        <time>2014-12-14T08:12:49Z</time>
      </trkpt>
      <trkpt lat="44.62334" lon="0.87446">
        <ele>168.85</ele>
        <time>2014-12-14T08:12:52Z</time>
      </trkpt>
      <trkpt lat="44.62318" lon="0.87464">
        <ele>168.37</ele>
        <time>2014-12-14T08:12:57Z</time>
      </trkpt>
      <trkpt lat="44.62288" lon="0.87454">
        <ele>166.93</ele>
        <time>2014-12-14T08:13:07Z</time>
      </trkpt>
      <trkpt lat="44.62251" lon="0.87443">
        <ele>169.33</ele>
        <time>2014-12-14T08:13:16Z</time>
      </trkpt>
      <trkpt lat="44.62207" lon="0.87429">
        <ele>172.69</ele>
        <time>2014-12-14T08:13:28Z</time>
      </trkpt>
      <trkpt lat="44.62171" lon="0.8743">
        <ele>173.17</ele>
        <time>2014-12-14T08:13:37Z</time>
      </trkpt>
      <trkpt lat="44.62163" lon="0.87429">
        <ele>174.14</ele>
        <time>2014-12-14T08:13:39Z</time>
      </trkpt>
      <trkpt lat="44.62131" lon="0.87426">
        <ele>179.9</ele>
        <time>2014-12-14T08:13:48Z</time>
      </trkpt>
      <trkpt lat="44.62096" lon="0.87435">
        <ele>183.27</ele>
        <time>2014-12-14T08:13:58Z</time>
      </trkpt>
      <trkpt lat="44.62082" lon="0.8743">
        <ele>183.75</ele>
        <time>2014-12-14T08:14:02Z</time>
      </trkpt>
      <trkpt lat="44.62041" lon="0.87422">
        <ele>187.59</ele>
        <time>2014-12-14T08:14:14Z</time>
      </trkpt>
      <trkpt lat="44.62004" lon="0.87412">
        <ele>190.48</ele>
        <time>2014-12-14T08:14:25Z</time>
      </trkpt>
      <trkpt lat="44.61958" lon="0.87391">
        <ele>192.4</ele>
        <time>2014-12-14T08:14:37Z</time>
      </trkpt>
      <trkpt lat="44.61955" lon="0.87388">
        <ele>192.4</ele>
        <time>2014-12-14T08:14:38Z</time>
      </trkpt>
      <trkpt lat="44.61935" lon="0.87381">
        <ele>191.92</ele>
        <time>2014-12-14T08:14:42Z</time>
      </trkpt>
      <trkpt lat="44.61917" lon="0.87385">
        <ele>191.44</ele>
        <time>2014-12-14T08:14:45Z</time>
      </trkpt>
      <trkpt lat="44.61838" lon="0.87439">
        <ele>190</ele>
        <time>2014-12-14T08:14:58Z</time>
      </trkpt>
      <trkpt lat="44.61819" lon="0.87454">
        <ele>189.52</ele>
        <time>2014-12-14T08:15:01Z</time>
      </trkpt>
      <trkpt lat="44.61797" lon="0.87458">
        <ele>188.08</ele>
        <time>2014-12-14T08:15:05Z</time>
      </trkpt>
      <trkpt lat="44.61758" lon="0.87458">
        <ele>182.79</ele>
        <time>2014-12-14T08:15:12Z</time>
      </trkpt>
      <trkpt lat="44.61743" lon="0.87456">
        <ele>181.35</ele>
        <time>2014-12-14T08:15:14Z</time>
      </trkpt>
      <trkpt lat="44.61698" lon="0.87432">
        <ele>177.02</ele>
        <time>2014-12-14T08:15:20Z</time>
      </trkpt>
      <trkpt lat="44.61636" lon="0.87391">
        <ele>173.17</ele>
        <time>2014-12-14T08:15:30Z</time>
      </trkpt>
      <trkpt lat="44.61603" lon="0.87366">
        <ele>175.58</ele>
        <time>2014-12-14T08:15:41Z</time>
      </trkpt>
      <trkpt lat="44.61604" lon="0.87366">
        <ele>174.62</ele>
        <time>2014-12-14T08:15:50Z</time>
      </trkpt>
      <trkpt lat="44.61604" lon="0.87365">
        <ele>174.14</ele>
        <time>2014-12-14T08:16:05Z</time>
      </trkpt>
      <trkpt lat="44.61599" lon="0.87364">
        <ele>174.14</ele>
        <time>2014-12-14T08:16:08Z</time>
      </trkpt>
      <trkpt lat="44.61593" lon="0.87364">
        <ele>174.14</ele>
        <time>2014-12-14T08:16:11Z</time>
      </trkpt>
      <trkpt lat="44.61592" lon="0.87365">
        <ele>174.14</ele>
        <time>2014-12-14T08:16:12Z</time>
      </trkpt>
      <trkpt lat="44.6159" lon="0.87364">
        <ele>174.62</ele>
        <time>2014-12-14T08:16:14Z</time>
      </trkpt>
      <trkpt lat="44.61588" lon="0.87363">
        <ele>174.62</ele>
        <time>2014-12-14T08:16:15Z</time>
      </trkpt>
      <trkpt lat="44.61586" lon="0.87363">
        <ele>174.14</ele>
        <time>2014-12-14T08:16:16Z</time>
      </trkpt>
      <trkpt lat="44.61555" lon="0.87346">
        <ele>171.73</ele>
        <time>2014-12-14T08:16:29Z</time>
      </trkpt>
      <trkpt lat="44.61519" lon="0.87324">
        <ele>172.21</ele>
        <time>2014-12-14T08:16:42Z</time>
      </trkpt>
      <trkpt lat="44.61471" lon="0.87303">
        <ele>171.25</ele>
        <time>2014-12-14T08:16:56Z</time>
      </trkpt>
      <trkpt lat="44.61436" lon="0.87297">
        <ele>170.77</ele>
        <time>2014-12-14T08:17:07Z</time>
      </trkpt>
      <trkpt lat="44.61394" lon="0.87282">
        <ele>171.25</ele>
        <time>2014-12-14T08:17:20Z</time>
      </trkpt>
      <trkpt lat="44.61367" lon="0.87269">
        <ele>169.81</ele>
        <time>2014-12-14T08:17:27Z</time>
      </trkpt>
      <trkpt lat="44.61348" lon="0.87266">
        <ele>168.85</ele>
        <time>2014-12-14T08:17:31Z</time>
      </trkpt>
      <trkpt lat="44.61339" lon="0.87267">
        <ele>169.33</ele>
        <time>2014-12-14T08:17:33Z</time>
      </trkpt>
      <trkpt lat="44.61278" lon="0.87284">
        <ele>173.17</ele>
        <time>2014-12-14T08:17:49Z</time>
      </trkpt>
      <trkpt lat="44.61245" lon="0.87276">
        <ele>173.66</ele>
        <time>2014-12-14T08:17:59Z</time>
      </trkpt>
      <trkpt lat="44.61204" lon="0.87243">
        <ele>171.25</ele>
        <time>2014-12-14T08:18:12Z</time>
      </trkpt>
      <trkpt lat="44.61197" lon="0.87237">
        <ele>171.25</ele>
        <time>2014-12-14T08:18:14Z</time>
      </trkpt>
      <trkpt lat="44.61162" lon="0.87215">
        <ele>172.69</ele>
        <time>2014-12-14T08:18:24Z</time>
      </trkpt>
      <trkpt lat="44.61142" lon="0.87201">
        <ele>174.14</ele>
        <time>2014-12-14T08:18:30Z</time>
      </trkpt>
      <trkpt lat="44.61137" lon="0.87199">
        <ele>173.66</ele>
        <time>2014-12-14T08:18:31Z</time>
      </trkpt>
      <trkpt lat="44.61132" lon="0.87197">
        <ele>173.66</ele>
        <time>2014-12-14T08:18:32Z</time>
      </trkpt>
      <trkpt lat="44.61118" lon="0.87189">
        <ele>172.69</ele>
        <time>2014-12-14T08:18:35Z</time>
      </trkpt>
      <trkpt lat="44.61094" lon="0.87176">
        <ele>170.29</ele>
        <time>2014-12-14T08:18:40Z</time>
      </trkpt>
      <trkpt lat="44.6104" lon="0.87145">
        <ele>163.08</ele>
        <time>2014-12-14T08:18:50Z</time>
      </trkpt>
      <trkpt lat="44.61033" lon="0.87137">
        <ele>165.96</ele>
        <time>2014-12-14T08:18:58Z</time>
      </trkpt>
      <trkpt lat="44.61033" lon="0.87136">
        <ele>166.45</ele>
        <time>2014-12-14T08:18:59Z</time>
      </trkpt>
      <trkpt lat="44.61034" lon="0.87112">
        <ele>169.33</ele>
        <time>2014-12-14T08:19:08Z</time>
      </trkpt>
      <trkpt lat="44.61033" lon="0.87096">
        <ele>170.77</ele>
        <time>2014-12-14T08:19:12Z</time>
      </trkpt>
      <trkpt lat="44.61029" lon="0.87045">
        <ele>168.85</ele>
        <time>2014-12-14T08:19:24Z</time>
      </trkpt>
      <trkpt lat="44.61041" lon="0.87013">
        <ele>165.96</ele>
        <time>2014-12-14T08:19:33Z</time>
      </trkpt>
      <trkpt lat="44.61043" lon="0.87008">
        <ele>165.96</ele>
        <time>2014-12-14T08:19:35Z</time>
      </trkpt>
      <trkpt lat="44.61051" lon="0.86953">
        <ele>163.08</ele>
        <time>2014-12-14T08:19:48Z</time>
      </trkpt>
      <trkpt lat="44.61066" lon="0.86915">
        <ele>165.96</ele>
        <time>2014-12-14T08:20:00Z</time>
      </trkpt>
      <trkpt lat="44.61079" lon="0.86874">
        <ele>170.29</ele>
        <time>2014-12-14T08:20:11Z</time>
      </trkpt>
      <trkpt lat="44.61089" lon="0.86832">
        <ele>171.73</ele>
        <time>2014-12-14T08:20:21Z</time>
      </trkpt>
      <trkpt lat="44.61102" lon="0.86786">
        <ele>174.14</ele>
        <time>2014-12-14T08:20:33Z</time>
      </trkpt>
      <trkpt lat="44.61113" lon="0.86735">
        <ele>176.06</ele>
        <time>2014-12-14T08:20:46Z</time>
      </trkpt>
      <trkpt lat="44.61124" lon="0.86697">
        <ele>176.06</ele>
        <time>2014-12-14T08:20:57Z</time>
      </trkpt>
      <trkpt lat="44.61135" lon="0.86651">
        <ele>177.5</ele>
        <time>2014-12-14T08:21:09Z</time>
      </trkpt>
      <trkpt lat="44.61144" lon="0.866">
        <ele>180.87</ele>
        <time>2014-12-14T08:21:22Z</time>
      </trkpt>
      <trkpt lat="44.61154" lon="0.86554">
        <ele>181.83</ele>
        <time>2014-12-14T08:21:36Z</time>
      </trkpt>
      <trkpt lat="44.61168" lon="0.86512">
        <ele>184.71</ele>
        <time>2014-12-14T08:21:50Z</time>
      </trkpt>
      <trkpt lat="44.61176" lon="0.865">
        <ele>186.15</ele>
        <time>2014-12-14T08:22:03Z</time>
      </trkpt>
      <trkpt lat="44.61174" lon="0.865">
        <ele>186.15</ele>
        <time>2014-12-14T08:22:21Z</time>
      </trkpt>
      <trkpt lat="44.61174" lon="0.86499">
        <ele>185.67</ele>
        <time>2014-12-14T08:22:42Z</time>
      </trkpt>
      <trkpt lat="44.61175" lon="0.86501">
        <ele>186.63</ele>
        <time>2014-12-14T08:23:02Z</time>
      </trkpt>
      <trkpt lat="44.61176" lon="0.86499">
        <ele>186.63</ele>
        <time>2014-12-14T08:23:27Z</time>
      </trkpt>
      <trkpt lat="44.61177" lon="0.865">
        <ele>186.63</ele>
        <time>2014-12-14T08:23:57Z</time>
      </trkpt>
      <trkpt lat="44.61174" lon="0.865">
        <ele>187.59</ele>
        <time>2014-12-14T08:24:28Z</time>
      </trkpt>
      <trkpt lat="44.6118" lon="0.86493">
        <ele>187.11</ele>
        <time>2014-12-14T08:24:51Z</time>
      </trkpt>
      <trkpt lat="44.61202" lon="0.8646">
        <ele>187.59</ele>
        <time>2014-12-14T08:25:05Z</time>
      </trkpt>
      <trkpt lat="44.61236" lon="0.86411">
        <ele>187.59</ele>
        <time>2014-12-14T08:25:21Z</time>
      </trkpt>
      <trkpt lat="44.61247" lon="0.86405">
        <ele>187.11</ele>
        <time>2014-12-14T08:25:25Z</time>
      </trkpt>
      <trkpt lat="44.6125" lon="0.86407">
        <ele>187.11</ele>
        <time>2014-12-14T08:25:26Z</time>
      </trkpt>
      <trkpt lat="44.61296" lon="0.86449">
        <ele>189.52</ele>
        <time>2014-12-14T08:25:45Z</time>
      </trkpt>
      <trkpt lat="44.61339" lon="0.86489">
        <ele>187.59</ele>
        <time>2014-12-14T08:26:00Z</time>
      </trkpt>
      <trkpt lat="44.61374" lon="0.86523">
        <ele>186.15</ele>
        <time>2014-12-14T08:26:12Z</time>
      </trkpt>
      <trkpt lat="44.61377" lon="0.86522">
        <ele>186.15</ele>
        <time>2014-12-14T08:26:13Z</time>
      </trkpt>
      <trkpt lat="44.6138" lon="0.86515">
        <ele>186.63</ele>
        <time>2014-12-14T08:26:15Z</time>
      </trkpt>
      <trkpt lat="44.61388" lon="0.86492">
        <ele>186.63</ele>
        <time>2014-12-14T08:26:19Z</time>
      </trkpt>
      <trkpt lat="44.61395" lon="0.86481">
        <ele>186.63</ele>
        <time>2014-12-14T08:26:21Z</time>
      </trkpt>
      <trkpt lat="44.61411" lon="0.86456">
        <ele>185.67</ele>
        <time>2014-12-14T08:26:25Z</time>
      </trkpt>
      <trkpt lat="44.6143" lon="0.8642">
        <ele>181.35</ele>
        <time>2014-12-14T08:26:31Z</time>
      </trkpt>
      <trkpt lat="44.61438" lon="0.86413">
        <ele>179.9</ele>
        <time>2014-12-14T08:26:40Z</time>
      </trkpt>
      <trkpt lat="44.61438" lon="0.86411">
        <ele>179.42</ele>
        <time>2014-12-14T08:26:49Z</time>
      </trkpt>
      <trkpt lat="44.61445" lon="0.86399">
        <ele>178.46</ele>
        <time>2014-12-14T08:26:54Z</time>
      </trkpt>
      <trkpt lat="44.61457" lon="0.86341">
        <ele>175.1</ele>
        <time>2014-12-14T08:27:03Z</time>
      </trkpt>
      <trkpt lat="44.61463" lon="0.86332">
        <ele>174.14</ele>
        <time>2014-12-14T08:27:05Z</time>
      </trkpt>
      <trkpt lat="44.61504" lon="0.86271">
        <ele>172.21</ele>
        <time>2014-12-14T08:27:14Z</time>
      </trkpt>
      <trkpt lat="44.61568" lon="0.86163">
        <ele>166.93</ele>
        <time>2014-12-14T08:27:26Z</time>
      </trkpt>
      <trkpt lat="44.61644" lon="0.86052">
        <ele>159.72</ele>
        <time>2014-12-14T08:27:39Z</time>
      </trkpt>
      <trkpt lat="44.61648" lon="0.86046">
        <ele>159.72</ele>
        <time>2014-12-14T08:27:40Z</time>
      </trkpt>
      <trkpt lat="44.61635" lon="0.86023">
        <ele>157.79</ele>
        <time>2014-12-14T08:27:47Z</time>
      </trkpt>
      <trkpt lat="44.61614" lon="0.86003">
        <ele>157.31</ele>
        <time>2014-12-14T08:27:54Z</time>
      </trkpt>
      <trkpt lat="44.61574" lon="0.85955">
        <ele>155.39</ele>
        <time>2014-12-14T08:28:07Z</time>
      </trkpt>
      <trkpt lat="44.61556" lon="0.85924">
        <ele>154.43</ele>
        <time>2014-12-14T08:28:14Z</time>
      </trkpt>
      <trkpt lat="44.61541" lon="0.85898">
        <ele>154.43</ele>
        <time>2014-12-14T08:28:20Z</time>
      </trkpt>
      <trkpt lat="44.61531" lon="0.85869">
        <ele>154.91</ele>
        <time>2014-12-14T08:28:28Z</time>
      </trkpt>
      <trkpt lat="44.6153" lon="0.85861">
        <ele>158.27</ele>
        <time>2014-12-14T08:28:41Z</time>
      </trkpt>
      <trkpt lat="44.61542" lon="0.85845">
        <ele>161.16</ele>
        <time>2014-12-14T08:28:56Z</time>
      </trkpt>
      <trkpt lat="44.61556" lon="0.85828">
        <ele>160.68</ele>
        <time>2014-12-14T08:29:01Z</time>
      </trkpt>
      <trkpt lat="44.61562" lon="0.85807">
        <ele>159.72</ele>
        <time>2014-12-14T08:29:04Z</time>
      </trkpt>
      <trkpt lat="44.6157" lon="0.85743">
        <ele>153.47</ele>
        <time>2014-12-14T08:29:13Z</time>
      </trkpt>
      <trkpt lat="44.61571" lon="0.85686">
        <ele>144.82</ele>
        <time>2014-12-14T08:29:21Z</time>
      </trkpt>
      <trkpt lat="44.61573" lon="0.85648">
        <ele>137.13</ele>
        <time>2014-12-14T08:29:26Z</time>
      </trkpt>
      <trkpt lat="44.61577" lon="0.85627">
        <ele>132.32</ele>
        <time>2014-12-14T08:29:29Z</time>
      </trkpt>
      <trkpt lat="44.6158" lon="0.85605">
        <ele>127.51</ele>
        <time>2014-12-14T08:29:32Z</time>
      </trkpt>
      <trkpt lat="44.61593" lon="0.85562">
        <ele>120.78</ele>
        <time>2014-12-14T08:29:39Z</time>
      </trkpt>
      <trkpt lat="44.61614" lon="0.85542">
        <ele>120.3</ele>
        <time>2014-12-14T08:29:44Z</time>
      </trkpt>
      <trkpt lat="44.6163" lon="0.85519">
        <ele>121.26</ele>
        <time>2014-12-14T08:29:48Z</time>
      </trkpt>
      <trkpt lat="44.61647" lon="0.85505">
        <ele>122.71</ele>
        <time>2014-12-14T08:29:52Z</time>
      </trkpt>
      <trkpt lat="44.61655" lon="0.85501">
        <ele>124.15</ele>
        <time>2014-12-14T08:29:54Z</time>
      </trkpt>
      <trkpt lat="44.61687" lon="0.85485">
        <ele>128.95</ele>
        <time>2014-12-14T08:30:02Z</time>
      </trkpt>
      <trkpt lat="44.61712" lon="0.8549">
        <ele>130.4</ele>
        <time>2014-12-14T08:30:07Z</time>
      </trkpt>
      <trkpt lat="44.61732" lon="0.85492">
        <ele>131.84</ele>
        <time>2014-12-14T08:30:11Z</time>
      </trkpt>
      <trkpt lat="44.61783" lon="0.85487">
        <ele>136.16</ele>
        <time>2014-12-14T08:30:22Z</time>
      </trkpt>
      <trkpt lat="44.61809" lon="0.85479">
        <ele>138.09</ele>
        <time>2014-12-14T08:30:28Z</time>
      </trkpt>
      <trkpt lat="44.61828" lon="0.85466">
        <ele>140.97</ele>
        <time>2014-12-14T08:30:33Z</time>
      </trkpt>
      <trkpt lat="44.61861" lon="0.85445">
        <ele>141.45</ele>
        <time>2014-12-14T08:30:41Z</time>
      </trkpt>
      <trkpt lat="44.61869" lon="0.85426">
        <ele>141.45</ele>
        <time>2014-12-14T08:30:44Z</time>
      </trkpt>
      <trkpt lat="44.61894" lon="0.85359">
        <ele>142.89</ele>
        <time>2014-12-14T08:30:56Z</time>
      </trkpt>
      <trkpt lat="44.61902" lon="0.85333">
        <ele>143.37</ele>
        <time>2014-12-14T08:31:00Z</time>
      </trkpt>
      <trkpt lat="44.61936" lon="0.85282">
        <ele>144.34</ele>
        <time>2014-12-14T08:31:10Z</time>
      </trkpt>
      <trkpt lat="44.6194" lon="0.85278">
        <ele>144.82</ele>
        <time>2014-12-14T08:31:11Z</time>
      </trkpt>
      <trkpt lat="44.61965" lon="0.85235">
        <ele>150.1</ele>
        <time>2014-12-14T08:31:23Z</time>
      </trkpt>
      <trkpt lat="44.61991" lon="0.85196">
        <ele>152.51</ele>
        <time>2014-12-14T08:31:33Z</time>
      </trkpt>
      <trkpt lat="44.6201" lon="0.85188">
        <ele>152.51</ele>
        <time>2014-12-14T08:31:37Z</time>
      </trkpt>
      <trkpt lat="44.6202" lon="0.85191">
        <ele>152.51</ele>
        <time>2014-12-14T08:31:39Z</time>
      </trkpt>
      <trkpt lat="44.62036" lon="0.85197">
        <ele>152.03</ele>
        <time>2014-12-14T08:31:42Z</time>
      </trkpt>
      <trkpt lat="44.62066" lon="0.85228">
        <ele>149.62</ele>
        <time>2014-12-14T08:31:49Z</time>
      </trkpt>
      <trkpt lat="44.62073" lon="0.85241">
        <ele>147.7</ele>
        <time>2014-12-14T08:31:51Z</time>
      </trkpt>
      <trkpt lat="44.62103" lon="0.85282">
        <ele>140.97</ele>
        <time>2014-12-14T08:31:58Z</time>
      </trkpt>
      <trkpt lat="44.62109" lon="0.85294">
        <ele>139.05</ele>
        <time>2014-12-14T08:32:00Z</time>
      </trkpt>
      <trkpt lat="44.62131" lon="0.85346">
        <ele>130.88</ele>
        <time>2014-12-14T08:32:11Z</time>
      </trkpt>
      <trkpt lat="44.62138" lon="0.85356">
        <ele>132.8</ele>
        <time>2014-12-14T08:32:23Z</time>
      </trkpt>
      <trkpt lat="44.62144" lon="0.85366">
        <ele>139.05</ele>
        <time>2014-12-14T08:32:35Z</time>
      </trkpt>
      <trkpt lat="44.62149" lon="0.85372">
        <ele>140.97</ele>
        <time>2014-12-14T08:32:42Z</time>
      </trkpt>
      <trkpt lat="44.62155" lon="0.85381">
        <ele>142.89</ele>
        <time>2014-12-14T08:32:46Z</time>
      </trkpt>
      <trkpt lat="44.62169" lon="0.854">
        <ele>147.22</ele>
        <time>2014-12-14T08:32:55Z</time>
      </trkpt>
      <trkpt lat="44.62176" lon="0.8541">
        <ele>148.18</ele>
        <time>2014-12-14T08:32:59Z</time>
      </trkpt>
      <trkpt lat="44.62192" lon="0.85422">
        <ele>153.95</ele>
        <time>2014-12-14T08:33:12Z</time>
      </trkpt>
      <trkpt lat="44.62203" lon="0.85436">
        <ele>157.31</ele>
        <time>2014-12-14T08:33:24Z</time>
      </trkpt>
      <trkpt lat="44.62211" lon="0.85442">
        <ele>158.75</ele>
        <time>2014-12-14T08:33:31Z</time>
      </trkpt>
      <trkpt lat="44.62224" lon="0.85449">
        <ele>158.75</ele>
        <time>2014-12-14T08:33:43Z</time>
      </trkpt>
      <trkpt lat="44.62227" lon="0.8545">
        <ele>157.79</ele>
        <time>2014-12-14T08:34:03Z</time>
      </trkpt>
      <trkpt lat="44.62229" lon="0.85452">
        <ele>156.83</ele>
        <time>2014-12-14T08:34:10Z</time>
      </trkpt>
      <trkpt lat="44.62263" lon="0.85477">
        <ele>153.95</ele>
        <time>2014-12-14T08:34:20Z</time>
      </trkpt>
      <trkpt lat="44.62296" lon="0.85492">
        <ele>150.58</ele>
        <time>2014-12-14T08:34:27Z</time>
      </trkpt>
      <trkpt lat="44.62291" lon="0.85521">
        <ele>150.1</ele>
        <time>2014-12-14T08:34:34Z</time>
      </trkpt>
      <trkpt lat="44.62291" lon="0.85526">
        <ele>150.1</ele>
        <time>2014-12-14T08:34:35Z</time>
      </trkpt>
      <trkpt lat="44.62298" lon="0.85585">
        <ele>151.54</ele>
        <time>2014-12-14T08:34:47Z</time>
      </trkpt>
      <trkpt lat="44.62302" lon="0.85636">
        <ele>154.91</ele>
        <time>2014-12-14T08:34:58Z</time>
      </trkpt>
      <trkpt lat="44.62301" lon="0.85641">
        <ele>154.91</ele>
        <time>2014-12-14T08:34:59Z</time>
      </trkpt>
      <trkpt lat="44.62308" lon="0.85666">
        <ele>154.91</ele>
        <time>2014-12-14T08:35:05Z</time>
      </trkpt>
      <trkpt lat="44.62325" lon="0.85703">
        <ele>152.03</ele>
        <time>2014-12-14T08:35:12Z</time>
      </trkpt>
      <trkpt lat="44.6234" lon="0.85734">
        <ele>149.14</ele>
        <time>2014-12-14T08:35:17Z</time>
      </trkpt>
      <trkpt lat="44.62358" lon="0.85736">
        <ele>146.26</ele>
        <time>2014-12-14T08:35:24Z</time>
      </trkpt>
      <trkpt lat="44.62367" lon="0.85702">
        <ele>144.82</ele>
        <time>2014-12-14T08:35:37Z</time>
      </trkpt>
      <trkpt lat="44.62382" lon="0.85675">
        <ele>147.22</ele>
        <time>2014-12-14T08:35:47Z</time>
      </trkpt>
      <trkpt lat="44.62393" lon="0.85659">
        <ele>147.22</ele>
        <time>2014-12-14T08:35:53Z</time>
      </trkpt>
      <trkpt lat="44.62416" lon="0.85623">
        <ele>149.14</ele>
        <time>2014-12-14T08:36:06Z</time>
      </trkpt>
      <trkpt lat="44.62434" lon="0.85597">
        <ele>149.62</ele>
        <time>2014-12-14T08:36:14Z</time>
      </trkpt>
      <trkpt lat="44.62443" lon="0.85589">
        <ele>148.66</ele>
        <time>2014-12-14T08:36:19Z</time>
      </trkpt>
      <trkpt lat="44.62449" lon="0.85578">
        <ele>149.14</ele>
        <time>2014-12-14T08:36:24Z</time>
      </trkpt>
      <trkpt lat="44.62455" lon="0.85568">
        <ele>150.1</ele>
        <time>2014-12-14T08:36:27Z</time>
      </trkpt>
      <trkpt lat="44.62467" lon="0.85536">
        <ele>156.35</ele>
        <time>2014-12-14T08:36:37Z</time>
      </trkpt>
      <trkpt lat="44.62468" lon="0.85528">
        <ele>159.24</ele>
        <time>2014-12-14T08:36:52Z</time>
      </trkpt>
      <trkpt lat="44.62469" lon="0.85521">
        <ele>158.27</ele>
        <time>2014-12-14T08:36:56Z</time>
      </trkpt>
      <trkpt lat="44.62475" lon="0.85505">
        <ele>155.39</ele>
        <time>2014-12-14T08:37:03Z</time>
      </trkpt>
      <trkpt lat="44.62479" lon="0.85498">
        <ele>154.91</ele>
        <time>2014-12-14T08:37:06Z</time>
      </trkpt>
      <trkpt lat="44.6251" lon="0.85476">
        <ele>158.75</ele>
        <time>2014-12-14T08:37:19Z</time>
      </trkpt>
      <trkpt lat="44.62532" lon="0.85442">
        <ele>161.16</ele>
        <time>2014-12-14T08:37:32Z</time>
      </trkpt>
      <trkpt lat="44.62548" lon="0.8541">
        <ele>163.56</ele>
        <time>2014-12-14T08:37:44Z</time>
      </trkpt>
      <trkpt lat="44.62539" lon="0.85395">
        <ele>162.12</ele>
        <time>2014-12-14T08:37:52Z</time>
      </trkpt>
      <trkpt lat="44.62522" lon="0.85377">
        <ele>164.04</ele>
        <time>2014-12-14T08:38:06Z</time>
      </trkpt>
      <trkpt lat="44.62521" lon="0.85376">
        <ele>164.04</ele>
        <time>2014-12-14T08:38:07Z</time>
      </trkpt>
      <trkpt lat="44.62511" lon="0.85339">
        <ele>164.52</ele>
        <time>2014-12-14T08:38:23Z</time>
      </trkpt>
      <trkpt lat="44.62513" lon="0.85296">
        <ele>165.48</ele>
        <time>2014-12-14T08:38:39Z</time>
      </trkpt>
      <trkpt lat="44.62536" lon="0.85259">
        <ele>167.41</ele>
        <time>2014-12-14T08:38:55Z</time>
      </trkpt>
      <trkpt lat="44.62559" lon="0.85256">
        <ele>168.85</ele>
        <time>2014-12-14T08:39:06Z</time>
      </trkpt>
      <trkpt lat="44.62585" lon="0.85235">
        <ele>168.85</ele>
        <time>2014-12-14T08:39:18Z</time>
      </trkpt>
      <trkpt lat="44.62604" lon="0.85202">
        <ele>168.37</ele>
        <time>2014-12-14T08:39:30Z</time>
      </trkpt>
      <trkpt lat="44.62605" lon="0.85199">
        <ele>168.85</ele>
        <time>2014-12-14T08:39:31Z</time>
      </trkpt>
      <trkpt lat="44.62611" lon="0.85184">
        <ele>169.33</ele>
        <time>2014-12-14T08:39:36Z</time>
      </trkpt>
      <trkpt lat="44.62624" lon="0.8514">
        <ele>166.93</ele>
        <time>2014-12-14T08:39:49Z</time>
      </trkpt>
      <trkpt lat="44.62638" lon="0.85097">
        <ele>167.41</ele>
        <time>2014-12-14T08:40:01Z</time>
      </trkpt>
      <trkpt lat="44.62641" lon="0.85095">
        <ele>167.89</ele>
        <time>2014-12-14T08:40:03Z</time>
      </trkpt>
      <trkpt lat="44.62648" lon="0.85092">
        <ele>167.89</ele>
        <time>2014-12-14T08:40:18Z</time>
      </trkpt>
      <trkpt lat="44.62647" lon="0.85088">
        <ele>165.96</ele>
        <time>2014-12-14T08:40:40Z</time>
      </trkpt>
      <trkpt lat="44.62651" lon="0.85092">
        <ele>166.93</ele>
        <time>2014-12-14T08:40:58Z</time>
      </trkpt>
      <trkpt lat="44.62651" lon="0.85094">
        <ele>167.41</ele>
        <time>2014-12-14T08:41:17Z</time>
      </trkpt>
      <trkpt lat="44.62649" lon="0.85096">
        <ele>170.77</ele>
        <time>2014-12-14T08:41:37Z</time>
      </trkpt>
      <trkpt lat="44.62649" lon="0.85094">
        <ele>171.25</ele>
        <time>2014-12-14T08:41:55Z</time>
      </trkpt>
      <trkpt lat="44.6265" lon="0.85094">
        <ele>171.73</ele>
        <time>2014-12-14T08:42:13Z</time>
      </trkpt>
      <trkpt lat="44.62649" lon="0.85096">
        <ele>173.66</ele>
        <time>2014-12-14T08:42:36Z</time>
      </trkpt>
      <trkpt lat="44.6265" lon="0.85092">
        <ele>170.77</ele>
        <time>2014-12-14T08:43:05Z</time>
      </trkpt>
      <trkpt lat="44.62649" lon="0.85094">
        <ele>172.69</ele>
        <time>2014-12-14T08:43:25Z</time>
      </trkpt>
      <trkpt lat="44.62649" lon="0.85095">
        <ele>171.73</ele>
        <time>2014-12-14T08:43:47Z</time>
      </trkpt>
      <trkpt lat="44.62652" lon="0.85095">
        <ele>171.73</ele>
        <time>2014-12-14T08:44:14Z</time>
      </trkpt>
      <trkpt lat="44.6265" lon="0.85093">
        <ele>169.33</ele>
        <time>2014-12-14T08:44:44Z</time>
      </trkpt>
      <trkpt lat="44.62653" lon="0.85091">
        <ele>173.17</ele>
        <time>2014-12-14T08:45:18Z</time>
      </trkpt>
      <trkpt lat="44.6265" lon="0.85093">
        <ele>174.14</ele>
        <time>2014-12-14T08:45:38Z</time>
      </trkpt>
      <trkpt lat="44.62652" lon="0.85096">
        <ele>173.17</ele>
        <time>2014-12-14T08:46:01Z</time>
      </trkpt>
      <trkpt lat="44.6265" lon="0.85094">
        <ele>174.14</ele>
        <time>2014-12-14T08:46:28Z</time>
      </trkpt>
      <trkpt lat="44.6265" lon="0.85093">
        <ele>174.14</ele>
        <time>2014-12-14T08:46:35Z</time>
      </trkpt>
      <trkpt lat="44.62656" lon="0.85097">
        <ele>175.1</ele>
        <time>2014-12-14T08:46:43Z</time>
      </trkpt>
      <trkpt lat="44.62686" lon="0.85105">
        <ele>179.9</ele>
        <time>2014-12-14T08:46:59Z</time>
      </trkpt>
      <trkpt lat="44.62721" lon="0.85111">
        <ele>184.71</ele>
        <time>2014-12-14T08:47:13Z</time>
      </trkpt>
      <trkpt lat="44.6276" lon="0.85126">
        <ele>188.56</ele>
        <time>2014-12-14T08:47:27Z</time>
      </trkpt>
      <trkpt lat="44.62794" lon="0.85144">
        <ele>190.48</ele>
        <time>2014-12-14T08:47:41Z</time>
      </trkpt>
      <trkpt lat="44.62832" lon="0.8516">
        <ele>190.96</ele>
        <time>2014-12-14T08:47:54Z</time>
      </trkpt>
      <trkpt lat="44.62881" lon="0.85178">
        <ele>190</ele>
        <time>2014-12-14T08:48:08Z</time>
      </trkpt>
      <trkpt lat="44.62931" lon="0.85199">
        <ele>190.48</ele>
        <time>2014-12-14T08:48:24Z</time>
      </trkpt>
      <trkpt lat="44.62968" lon="0.85215">
        <ele>190.48</ele>
        <time>2014-12-14T08:48:36Z</time>
      </trkpt>
      <trkpt lat="44.63019" lon="0.85237">
        <ele>189.52</ele>
        <time>2014-12-14T08:48:49Z</time>
      </trkpt>
      <trkpt lat="44.63068" lon="0.85258">
        <ele>190.96</ele>
        <time>2014-12-14T08:49:03Z</time>
      </trkpt>
      <trkpt lat="44.63108" lon="0.85297">
        <ele>188.08</ele>
        <time>2014-12-14T08:49:16Z</time>
      </trkpt>
      <trkpt lat="44.63149" lon="0.85345">
        <ele>187.59</ele>
        <time>2014-12-14T08:49:30Z</time>
      </trkpt>
      <trkpt lat="44.63195" lon="0.85391">
        <ele>190</ele>
        <time>2014-12-14T08:49:46Z</time>
      </trkpt>
      <trkpt lat="44.63229" lon="0.85412">
        <ele>192.88</ele>
        <time>2014-12-14T08:49:58Z</time>
      </trkpt>
      <trkpt lat="44.63263" lon="0.85432">
        <ele>197.69</ele>
        <time>2014-12-14T08:50:10Z</time>
      </trkpt>
      <trkpt lat="44.63306" lon="0.85455">
        <ele>200.09</ele>
        <time>2014-12-14T08:50:24Z</time>
      </trkpt>
      <trkpt lat="44.63344" lon="0.85477">
        <ele>200.09</ele>
        <time>2014-12-14T08:50:37Z</time>
      </trkpt>
      <trkpt lat="44.63403" lon="0.85504">
        <ele>197.21</ele>
        <time>2014-12-14T08:50:49Z</time>
      </trkpt>
      <trkpt lat="44.63451" lon="0.85531">
        <ele>193.84</ele>
        <time>2014-12-14T08:50:59Z</time>
      </trkpt>
      <trkpt lat="44.63454" lon="0.8553">
        <ele>193.84</ele>
        <time>2014-12-14T08:51:00Z</time>
      </trkpt>
      <trkpt lat="44.63458" lon="0.85528">
        <ele>193.36</ele>
        <time>2014-12-14T08:51:01Z</time>
      </trkpt>
      <trkpt lat="44.63492" lon="0.85484">
        <ele>192.4</ele>
        <time>2014-12-14T08:51:13Z</time>
      </trkpt>
      <trkpt lat="44.63516" lon="0.85432">
        <ele>193.36</ele>
        <time>2014-12-14T08:51:25Z</time>
      </trkpt>
      <trkpt lat="44.63518" lon="0.8543">
        <ele>193.36</ele>
        <time>2014-12-14T08:51:26Z</time>
      </trkpt>
      <trkpt lat="44.63532" lon="0.85431">
        <ele>192.88</ele>
        <time>2014-12-14T08:51:31Z</time>
      </trkpt>
      <trkpt lat="44.63554" lon="0.85428">
        <ele>193.36</ele>
        <time>2014-12-14T08:51:37Z</time>
      </trkpt>
      <trkpt lat="44.63575" lon="0.8544">
        <ele>192.4</ele>
        <time>2014-12-14T08:51:42Z</time>
      </trkpt>
      <trkpt lat="44.63599" lon="0.85484">
        <ele>190.48</ele>
        <time>2014-12-14T08:51:51Z</time>
      </trkpt>
      <trkpt lat="44.63608" lon="0.85513">
        <ele>189.04</ele>
        <time>2014-12-14T08:51:56Z</time>
      </trkpt>
      <trkpt lat="44.63614" lon="0.8553">
        <ele>187.59</ele>
        <time>2014-12-14T08:51:59Z</time>
      </trkpt>
      <trkpt lat="44.63648" lon="0.85535">
        <ele>181.83</ele>
        <time>2014-12-14T08:52:07Z</time>
      </trkpt>
      <trkpt lat="44.6369" lon="0.85505">
        <ele>177.02</ele>
        <time>2014-12-14T08:52:14Z</time>
      </trkpt>
      <trkpt lat="44.63701" lon="0.85492">
        <ele>176.06</ele>
        <time>2014-12-14T08:52:16Z</time>
      </trkpt>
      <trkpt lat="44.63718" lon="0.85477">
        <ele>174.14</ele>
        <time>2014-12-14T08:52:19Z</time>
      </trkpt>
      <trkpt lat="44.63769" lon="0.85454">
        <ele>172.21</ele>
        <time>2014-12-14T08:52:28Z</time>
      </trkpt>
      <trkpt lat="44.63784" lon="0.85451">
        <ele>171.25</ele>
        <time>2014-12-14T08:52:31Z</time>
      </trkpt>
      <trkpt lat="44.63799" lon="0.85447">
        <ele>170.29</ele>
        <time>2014-12-14T08:52:34Z</time>
      </trkpt>
      <trkpt lat="44.63817" lon="0.85439">
        <ele>169.33</ele>
        <time>2014-12-14T08:52:37Z</time>
      </trkpt>
      <trkpt lat="44.63847" lon="0.85425">
        <ele>167.89</ele>
        <time>2014-12-14T08:52:42Z</time>
      </trkpt>
      <trkpt lat="44.639" lon="0.85402">
        <ele>166.93</ele>
        <time>2014-12-14T08:52:51Z</time>
      </trkpt>
      <trkpt lat="44.63925" lon="0.85424">
        <ele>165.96</ele>
        <time>2014-12-14T08:52:59Z</time>
      </trkpt>
      <trkpt lat="44.63922" lon="0.85443">
        <ele>165</ele>
        <time>2014-12-14T08:53:02Z</time>
      </trkpt>
      <trkpt lat="44.63917" lon="0.85461">
        <ele>164.04</ele>
        <time>2014-12-14T08:53:05Z</time>
      </trkpt>
      <trkpt lat="44.63889" lon="0.85502">
        <ele>165</ele>
        <time>2014-12-14T08:53:14Z</time>
      </trkpt>
      <trkpt lat="44.63888" lon="0.85506">
        <ele>165.48</ele>
        <time>2014-12-14T08:53:15Z</time>
      </trkpt>
      <trkpt lat="44.63874" lon="0.85534">
        <ele>167.89</ele>
        <time>2014-12-14T08:53:23Z</time>
      </trkpt>
      <trkpt lat="44.63881" lon="0.8555">
        <ele>169.33</ele>
        <time>2014-12-14T08:53:32Z</time>
      </trkpt>
      <trkpt lat="44.63898" lon="0.85578">
        <ele>170.77</ele>
        <time>2014-12-14T08:53:42Z</time>
      </trkpt>
      <trkpt lat="44.63924" lon="0.85617">
        <ele>172.21</ele>
        <time>2014-12-14T08:53:56Z</time>
      </trkpt>
      <trkpt lat="44.63944" lon="0.8567">
        <ele>174.14</ele>
        <time>2014-12-14T08:54:11Z</time>
      </trkpt>
      <trkpt lat="44.63963" lon="0.85723">
        <ele>174.62</ele>
        <time>2014-12-14T08:54:26Z</time>
      </trkpt>
      <trkpt lat="44.63977" lon="0.85769">
        <ele>177.98</ele>
        <time>2014-12-14T08:54:39Z</time>
      </trkpt>
      <trkpt lat="44.63995" lon="0.85827">
        <ele>177.98</ele>
        <time>2014-12-14T08:54:51Z</time>
      </trkpt>
      <trkpt lat="44.64007" lon="0.85889">
        <ele>177.98</ele>
        <time>2014-12-14T08:55:05Z</time>
      </trkpt>
      <trkpt lat="44.64007" lon="0.85918">
        <ele>178.46</ele>
        <time>2014-12-14T08:55:13Z</time>
      </trkpt>
      <trkpt lat="44.64017" lon="0.85918">
        <ele>178.94</ele>
        <time>2014-12-14T08:55:19Z</time>
      </trkpt>
      <trkpt lat="44.64021" lon="0.85919">
        <ele>179.42</ele>
        <time>2014-12-14T08:55:34Z</time>
      </trkpt>
      <trkpt lat="44.64022" lon="0.8592">
        <ele>178.94</ele>
        <time>2014-12-14T08:55:53Z</time>
      </trkpt>
      <trkpt lat="44.64022" lon="0.8592">
        <ele>179.42</ele>
        <time>2014-12-14T08:56:00Z</time>
      </trkpt>
      <trkpt lat="44.64024" lon="0.85926">
        <ele>179.42</ele>
        <time>2014-12-14T08:56:04Z</time>
      </trkpt>
      <trkpt lat="44.64025" lon="0.8593">
        <ele>179.42</ele>
        <time>2014-12-14T08:56:05Z</time>
      </trkpt>
      <trkpt lat="44.64031" lon="0.85978">
        <ele>178.46</ele>
        <time>2014-12-14T08:56:18Z</time>
      </trkpt>
      <trkpt lat="44.64026" lon="0.86033">
        <ele>179.42</ele>
        <time>2014-12-14T08:56:30Z</time>
      </trkpt>
      <trkpt lat="44.64016" lon="0.86107">
        <ele>179.9</ele>
        <time>2014-12-14T08:56:44Z</time>
      </trkpt>
      <trkpt lat="44.64004" lon="0.86184">
        <ele>183.75</ele>
        <time>2014-12-14T08:56:59Z</time>
      </trkpt>
      <trkpt lat="44.63995" lon="0.86251">
        <ele>186.15</ele>
        <time>2014-12-14T08:57:12Z</time>
      </trkpt>
      <trkpt lat="44.63988" lon="0.86334">
        <ele>189.52</ele>
        <time>2014-12-14T08:57:28Z</time>
      </trkpt>
      <trkpt lat="44.63983" lon="0.86392">
        <ele>187.59</ele>
        <time>2014-12-14T08:57:39Z</time>
      </trkpt>
      <trkpt lat="44.63983" lon="0.86412">
        <ele>187.11</ele>
        <time>2014-12-14T08:57:42Z</time>
      </trkpt>
      <trkpt lat="44.63983" lon="0.86419">
        <ele>186.63</ele>
        <time>2014-12-14T08:57:43Z</time>
      </trkpt>
      <trkpt lat="44.63983" lon="0.86426">
        <ele>186.63</ele>
        <time>2014-12-14T08:57:44Z</time>
      </trkpt>
      <trkpt lat="44.63983" lon="0.86433">
        <ele>186.63</ele>
        <time>2014-12-14T08:57:45Z</time>
      </trkpt>
      <trkpt lat="44.63983" lon="0.86439">
        <ele>186.63</ele>
        <time>2014-12-14T08:57:46Z</time>
      </trkpt>
      <trkpt lat="44.63983" lon="0.86446">
        <ele>186.63</ele>
        <time>2014-12-14T08:57:47Z</time>
      </trkpt>
      <trkpt lat="44.63983" lon="0.86453">
        <ele>186.63</ele>
        <time>2014-12-14T08:57:48Z</time>
      </trkpt>
      <trkpt lat="44.63984" lon="0.8646">
        <ele>186.63</ele>
        <time>2014-12-14T08:57:49Z</time>
      </trkpt>
      <trkpt lat="44.63985" lon="0.86467">
        <ele>186.63</ele>
        <time>2014-12-14T08:57:50Z</time>
      </trkpt>
      <trkpt lat="44.64002" lon="0.86595">
        <ele>187.59</ele>
        <time>2014-12-14T08:58:07Z</time>
      </trkpt>
      <trkpt lat="44.64016" lon="0.86658">
        <ele>190.96</ele>
        <time>2014-12-14T08:58:20Z</time>
      </trkpt>
      <trkpt lat="44.64017" lon="0.86659">
        <ele>190.96</ele>
        <time>2014-12-14T08:58:21Z</time>
      </trkpt>
      <trkpt lat="44.64019" lon="0.86661">
        <ele>191.44</ele>
        <time>2014-12-14T08:58:22Z</time>
      </trkpt>
      <trkpt lat="44.6402" lon="0.86664">
        <ele>190.96</ele>
        <time>2014-12-14T08:58:23Z</time>
      </trkpt>
      <trkpt lat="44.64021" lon="0.86667">
        <ele>190.96</ele>
        <time>2014-12-14T08:58:24Z</time>
      </trkpt>
      <trkpt lat="44.64021" lon="0.86671">
        <ele>190.96</ele>
        <time>2014-12-14T08:58:25Z</time>
      </trkpt>
      <trkpt lat="44.64022" lon="0.86676">
        <ele>190.48</ele>
        <time>2014-12-14T08:58:26Z</time>
      </trkpt>
      <trkpt lat="44.64029" lon="0.86743">
        <ele>190.48</ele>
        <time>2014-12-14T08:58:40Z</time>
      </trkpt>
      <trkpt lat="44.64035" lon="0.86817">
        <ele>191.44</ele>
        <time>2014-12-14T08:58:54Z</time>
      </trkpt>
      <trkpt lat="44.64035" lon="0.86851">
        <ele>192.4</ele>
        <time>2014-12-14T08:59:00Z</time>
      </trkpt>
      <trkpt lat="44.64034" lon="0.86857">
        <ele>192.4</ele>
        <time>2014-12-14T08:59:01Z</time>
      </trkpt>
      <trkpt lat="44.64034" lon="0.86862">
        <ele>192.4</ele>
        <time>2014-12-14T08:59:02Z</time>
      </trkpt>
      <trkpt lat="44.64034" lon="0.86868">
        <ele>192.4</ele>
        <time>2014-12-14T08:59:03Z</time>
      </trkpt>
      <trkpt lat="44.64033" lon="0.86874">
        <ele>192.4</ele>
        <time>2014-12-14T08:59:04Z</time>
      </trkpt>
      <trkpt lat="44.64025" lon="0.86972">
        <ele>190</ele>
        <time>2014-12-14T08:59:20Z</time>
      </trkpt>
      <trkpt lat="44.64003" lon="0.87045">
        <ele>189.52</ele>
        <time>2014-12-14T08:59:33Z</time>
      </trkpt>
      <trkpt lat="44.63997" lon="0.8707">
        <ele>190</ele>
        <time>2014-12-14T08:59:37Z</time>
      </trkpt>
      <trkpt lat="44.63972" lon="0.87154">
        <ele>193.84</ele>
        <time>2014-12-14T08:59:52Z</time>
      </trkpt>
      <trkpt lat="44.63969" lon="0.87159">
        <ele>194.32</ele>
        <time>2014-12-14T08:59:53Z</time>
      </trkpt>
      <trkpt lat="44.63928" lon="0.87237">
        <ele>195.28</ele>
        <time>2014-12-14T09:00:07Z</time>
      </trkpt>
      <trkpt lat="44.63894" lon="0.87297">
        <ele>194.8</ele>
        <time>2014-12-14T09:00:17Z</time>
      </trkpt>
      <trkpt lat="44.63878" lon="0.87335">
        <ele>193.36</ele>
        <time>2014-12-14T09:00:23Z</time>
      </trkpt>
      <trkpt lat="44.63876" lon="0.87342">
        <ele>192.88</ele>
        <time>2014-12-14T09:00:24Z</time>
      </trkpt>
      <trkpt lat="44.63865" lon="0.87417">
        <ele>190</ele>
        <time>2014-12-14T09:00:35Z</time>
      </trkpt>
      <trkpt lat="44.63864" lon="0.87424">
        <ele>190</ele>
        <time>2014-12-14T09:00:36Z</time>
      </trkpt>
      <trkpt lat="44.63869" lon="0.87472">
        <ele>189.04</ele>
        <time>2014-12-14T09:00:43Z</time>
      </trkpt>
      <trkpt lat="44.6387" lon="0.8748">
        <ele>189.04</ele>
        <time>2014-12-14T09:00:44Z</time>
      </trkpt>
      <trkpt lat="44.6387" lon="0.87488">
        <ele>189.04</ele>
        <time>2014-12-14T09:00:45Z</time>
      </trkpt>
      <trkpt lat="44.63875" lon="0.87586">
        <ele>187.59</ele>
        <time>2014-12-14T09:00:58Z</time>
      </trkpt>
      <trkpt lat="44.63878" lon="0.87608">
        <ele>187.11</ele>
        <time>2014-12-14T09:01:01Z</time>
      </trkpt>
      <trkpt lat="44.63886" lon="0.87644">
        <ele>186.63</ele>
        <time>2014-12-14T09:01:06Z</time>
      </trkpt>
      <trkpt lat="44.63888" lon="0.87651">
        <ele>186.63</ele>
        <time>2014-12-14T09:01:07Z</time>
      </trkpt>
      <trkpt lat="44.63896" lon="0.87675">
        <ele>186.63</ele>
        <time>2014-12-14T09:01:10Z</time>
      </trkpt>
      <trkpt lat="44.63905" lon="0.87698">
        <ele>187.11</ele>
        <time>2014-12-14T09:01:13Z</time>
      </trkpt>
      <trkpt lat="44.63909" lon="0.87705">
        <ele>187.11</ele>
        <time>2014-12-14T09:01:14Z</time>
      </trkpt>
      <trkpt lat="44.63913" lon="0.87712">
        <ele>187.11</ele>
        <time>2014-12-14T09:01:15Z</time>
      </trkpt>
      <trkpt lat="44.63959" lon="0.87776">
        <ele>189.04</ele>
        <time>2014-12-14T09:01:25Z</time>
      </trkpt>
      <trkpt lat="44.63962" lon="0.87783">
        <ele>189.52</ele>
        <time>2014-12-14T09:01:26Z</time>
      </trkpt>
      <trkpt lat="44.63985" lon="0.87837">
        <ele>190.48</ele>
        <time>2014-12-14T09:01:34Z</time>
      </trkpt>
      <trkpt lat="44.64001" lon="0.87883">
        <ele>190.96</ele>
        <time>2014-12-14T09:01:41Z</time>
      </trkpt>
      <trkpt lat="44.64042" lon="0.87983">
        <ele>191.44</ele>
        <time>2014-12-14T09:01:57Z</time>
      </trkpt>
      <trkpt lat="44.64063" lon="0.8804">
        <ele>191.44</ele>
        <time>2014-12-14T09:02:08Z</time>
      </trkpt>
      <trkpt lat="44.64064" lon="0.88054">
        <ele>190.48</ele>
        <time>2014-12-14T09:02:10Z</time>
      </trkpt>
      <trkpt lat="44.64064" lon="0.88061">
        <ele>190</ele>
        <time>2014-12-14T09:02:11Z</time>
      </trkpt>
      <trkpt lat="44.64064" lon="0.88078">
        <ele>189.52</ele>
        <time>2014-12-14T09:02:13Z</time>
      </trkpt>
      <trkpt lat="44.64065" lon="0.88085">
        <ele>189.04</ele>
        <time>2014-12-14T09:02:14Z</time>
      </trkpt>
      <trkpt lat="44.64067" lon="0.88091">
        <ele>188.56</ele>
        <time>2014-12-14T09:02:15Z</time>
      </trkpt>
      <trkpt lat="44.64069" lon="0.88095">
        <ele>188.08</ele>
        <time>2014-12-14T09:02:16Z</time>
      </trkpt>
      <trkpt lat="44.64071" lon="0.88097">
        <ele>188.08</ele>
        <time>2014-12-14T09:02:17Z</time>
      </trkpt>
      <trkpt lat="44.64073" lon="0.88098">
        <ele>187.59</ele>
        <time>2014-12-14T09:02:18Z</time>
      </trkpt>
      <trkpt lat="44.6408" lon="0.88097">
        <ele>186.63</ele>
        <time>2014-12-14T09:02:30Z</time>
      </trkpt>
      <trkpt lat="44.6409" lon="0.88095">
        <ele>186.15</ele>
        <time>2014-12-14T09:02:39Z</time>
      </trkpt>
      <trkpt lat="44.64123" lon="0.88066">
        <ele>185.67</ele>
        <time>2014-12-14T09:02:50Z</time>
      </trkpt>
      <trkpt lat="44.64144" lon="0.88052">
        <ele>185.67</ele>
        <time>2014-12-14T09:03:00Z</time>
      </trkpt>
      <trkpt lat="44.64149" lon="0.88057">
        <ele>184.71</ele>
        <time>2014-12-14T09:03:02Z</time>
      </trkpt>
      <trkpt lat="44.64152" lon="0.8806">
        <ele>184.23</ele>
        <time>2014-12-14T09:03:03Z</time>
      </trkpt>
      <trkpt lat="44.64156" lon="0.88061">
        <ele>183.75</ele>
        <time>2014-12-14T09:03:04Z</time>
      </trkpt>
      <trkpt lat="44.6416" lon="0.88061">
        <ele>183.27</ele>
        <time>2014-12-14T09:03:05Z</time>
      </trkpt>
      <trkpt lat="44.64164" lon="0.88059">
        <ele>182.79</ele>
        <time>2014-12-14T09:03:06Z</time>
      </trkpt>
      <trkpt lat="44.64167" lon="0.88055">
        <ele>182.31</ele>
        <time>2014-12-14T09:03:07Z</time>
      </trkpt>
      <trkpt lat="44.6417" lon="0.88051">
        <ele>182.31</ele>
        <time>2014-12-14T09:03:08Z</time>
      </trkpt>
      <trkpt lat="44.64172" lon="0.88046">
        <ele>182.79</ele>
        <time>2014-12-14T09:03:09Z</time>
      </trkpt>
      <trkpt lat="44.64183" lon="0.88026">
        <ele>183.75</ele>
        <time>2014-12-14T09:03:13Z</time>
      </trkpt>
      <trkpt lat="44.64186" lon="0.88021">
        <ele>184.23</ele>
        <time>2014-12-14T09:03:14Z</time>
      </trkpt>
      <trkpt lat="44.64189" lon="0.88017">
        <ele>184.71</ele>
        <time>2014-12-14T09:03:15Z</time>
      </trkpt>
      <trkpt lat="44.6421" lon="0.87999">
        <ele>186.63</ele>
        <time>2014-12-14T09:03:20Z</time>
      </trkpt>
      <trkpt lat="44.64258" lon="0.87972">
        <ele>187.59</ele>
        <time>2014-12-14T09:03:32Z</time>
      </trkpt>
      <trkpt lat="44.64261" lon="0.87971">
        <ele>188.08</ele>
        <time>2014-12-14T09:03:33Z</time>
      </trkpt>
      <trkpt lat="44.64298" lon="0.87956">
        <ele>188.56</ele>
        <time>2014-12-14T09:03:45Z</time>
      </trkpt>
      <trkpt lat="44.64314" lon="0.8795">
        <ele>188.56</ele>
        <time>2014-12-14T09:03:51Z</time>
      </trkpt>
      <trkpt lat="44.64347" lon="0.87948">
        <ele>188.08</ele>
        <time>2014-12-14T09:04:01Z</time>
      </trkpt>
      <trkpt lat="44.64358" lon="0.87947">
        <ele>187.59</ele>
        <time>2014-12-14T09:04:05Z</time>
      </trkpt>
      <trkpt lat="44.6439" lon="0.87936">
        <ele>187.11</ele>
        <time>2014-12-14T09:04:15Z</time>
      </trkpt>
      <trkpt lat="44.64412" lon="0.87932">
        <ele>186.63</ele>
        <time>2014-12-14T09:04:21Z</time>
      </trkpt>
      <trkpt lat="44.64422" lon="0.87931">
        <ele>187.11</ele>
        <time>2014-12-14T09:04:24Z</time>
      </trkpt>
      <trkpt lat="44.64444" lon="0.87931">
        <ele>189.04</ele>
        <time>2014-12-14T09:04:36Z</time>
      </trkpt>
      <trkpt lat="44.64448" lon="0.8793">
        <ele>188.56</ele>
        <time>2014-12-14T09:04:49Z</time>
      </trkpt>
      <trkpt lat="44.64464" lon="0.87911">
        <ele>188.08</ele>
        <time>2014-12-14T09:04:56Z</time>
      </trkpt>
      <trkpt lat="44.64477" lon="0.8788">
        <ele>186.15</ele>
        <time>2014-12-14T09:05:01Z</time>
      </trkpt>
      <trkpt lat="44.64486" lon="0.87854">
        <ele>185.19</ele>
        <time>2014-12-14T09:05:07Z</time>
      </trkpt>
      <trkpt lat="44.64492" lon="0.87808">
        <ele>186.15</ele>
        <time>2014-12-14T09:05:21Z</time>
      </trkpt>
      <trkpt lat="44.64499" lon="0.87776">
        <ele>186.63</ele>
        <time>2014-12-14T09:05:33Z</time>
      </trkpt>
      <trkpt lat="44.64509" lon="0.87769">
        <ele>187.11</ele>
        <time>2014-12-14T09:05:39Z</time>
      </trkpt>
      <trkpt lat="44.64535" lon="0.87758">
        <ele>186.63</ele>
        <time>2014-12-14T09:05:55Z</time>
      </trkpt>
      <trkpt lat="44.64571" lon="0.87741">
        <ele>190</ele>
        <time>2014-12-14T09:06:10Z</time>
      </trkpt>
      <trkpt lat="44.64592" lon="0.87711">
        <ele>191.44</ele>
        <time>2014-12-14T09:06:23Z</time>
      </trkpt>
      <trkpt lat="44.64618" lon="0.87686">
        <ele>191.92</ele>
        <time>2014-12-14T09:06:39Z</time>
      </trkpt>
      <trkpt lat="44.64649" lon="0.87668">
        <ele>191.92</ele>
        <time>2014-12-14T09:06:53Z</time>
      </trkpt>
      <trkpt lat="44.64681" lon="0.87649">
        <ele>191.44</ele>
        <time>2014-12-14T09:07:06Z</time>
      </trkpt>
      <trkpt lat="44.64689" lon="0.8765">
        <ele>191.92</ele>
        <time>2014-12-14T09:07:10Z</time>
      </trkpt>
      <trkpt lat="44.64698" lon="0.87661">
        <ele>191.44</ele>
        <time>2014-12-14T09:07:16Z</time>
      </trkpt>
      <trkpt lat="44.64707" lon="0.87661">
        <ele>191.44</ele>
        <time>2014-12-14T09:07:20Z</time>
      </trkpt>
      <trkpt lat="44.64737" lon="0.87649">
        <ele>188.08</ele>
        <time>2014-12-14T09:07:30Z</time>
      </trkpt>
      <trkpt lat="44.64759" lon="0.87636">
        <ele>185.67</ele>
        <time>2014-12-14T09:07:35Z</time>
      </trkpt>
      <trkpt lat="44.64797" lon="0.87628">
        <ele>181.83</ele>
        <time>2014-12-14T09:07:41Z</time>
      </trkpt>
      <trkpt lat="44.64811" lon="0.87623">
        <ele>179.9</ele>
        <time>2014-12-14T09:07:43Z</time>
      </trkpt>
      <trkpt lat="44.6486" lon="0.87648">
        <ele>171.73</ele>
        <time>2014-12-14T09:07:50Z</time>
      </trkpt>
      <trkpt lat="44.64867" lon="0.87652">
        <ele>170.29</ele>
        <time>2014-12-14T09:07:51Z</time>
      </trkpt>
      <trkpt lat="44.64904" lon="0.87636">
        <ele>163.08</ele>
        <time>2014-12-14T09:07:57Z</time>
      </trkpt>
      <trkpt lat="44.64913" lon="0.87618">
        <ele>160.68</ele>
        <time>2014-12-14T09:07:59Z</time>
      </trkpt>
      <trkpt lat="44.64921" lon="0.87599">
        <ele>158.27</ele>
        <time>2014-12-14T09:08:01Z</time>
      </trkpt>
      <trkpt lat="44.64929" lon="0.8756">
        <ele>153.47</ele>
        <time>2014-12-14T09:08:05Z</time>
      </trkpt>
      <trkpt lat="44.6492" lon="0.87494">
        <ele>147.22</ele>
        <time>2014-12-14T09:08:15Z</time>
      </trkpt>
      <trkpt lat="44.64919" lon="0.8747">
        <ele>146.26</ele>
        <time>2014-12-14T09:08:19Z</time>
      </trkpt>
      <trkpt lat="44.64916" lon="0.87448">
        <ele>144.82</ele>
        <time>2014-12-14T09:08:22Z</time>
      </trkpt>
      <trkpt lat="44.64931" lon="0.87398">
        <ele>140.97</ele>
        <time>2014-12-14T09:08:30Z</time>
      </trkpt>
      <trkpt lat="44.64948" lon="0.87389">
        <ele>143.85</ele>
        <time>2014-12-14T09:08:38Z</time>
      </trkpt>
      <trkpt lat="44.64952" lon="0.87388">
        <ele>146.26</ele>
        <time>2014-12-14T09:08:58Z</time>
      </trkpt>
      <trkpt lat="44.64957" lon="0.87387">
        <ele>147.7</ele>
        <time>2014-12-14T09:09:05Z</time>
      </trkpt>
      <trkpt lat="44.64963" lon="0.87397">
        <ele>147.7</ele>
        <time>2014-12-14T09:09:10Z</time>
      </trkpt>
      <trkpt lat="44.64978" lon="0.87399">
        <ele>149.14</ele>
        <time>2014-12-14T09:09:19Z</time>
      </trkpt>
      <trkpt lat="44.65001" lon="0.87363">
        <ele>148.66</ele>
        <time>2014-12-14T09:09:34Z</time>
      </trkpt>
      <trkpt lat="44.65021" lon="0.87333">
        <ele>150.1</ele>
        <time>2014-12-14T09:09:45Z</time>
      </trkpt>
      <trkpt lat="44.65038" lon="0.87282">
        <ele>152.03</ele>
        <time>2014-12-14T09:09:56Z</time>
      </trkpt>
      <trkpt lat="44.65057" lon="0.87205">
        <ele>146.74</ele>
        <time>2014-12-14T09:10:10Z</time>
      </trkpt>
      <trkpt lat="44.65086" lon="0.8715">
        <ele>147.7</ele>
        <time>2014-12-14T09:10:21Z</time>
      </trkpt>
      <trkpt lat="44.6513" lon="0.87103">
        <ele>149.14</ele>
        <time>2014-12-14T09:10:32Z</time>
      </trkpt>
      <trkpt lat="44.65154" lon="0.87082">
        <ele>149.62</ele>
        <time>2014-12-14T09:10:37Z</time>
      </trkpt>
      <trkpt lat="44.65214" lon="0.87031">
        <ele>150.58</ele>
        <time>2014-12-14T09:10:50Z</time>
      </trkpt>
      <trkpt lat="44.65266" lon="0.86984">
        <ele>149.14</ele>
        <time>2014-12-14T09:11:00Z</time>
      </trkpt>
      <trkpt lat="44.65293" lon="0.86967">
        <ele>149.14</ele>
        <time>2014-12-14T09:11:05Z</time>
      </trkpt>
      <trkpt lat="44.65329" lon="0.86922">
        <ele>147.7</ele>
        <time>2014-12-14T09:11:13Z</time>
      </trkpt>
      <trkpt lat="44.65344" lon="0.86883">
        <ele>145.78</ele>
        <time>2014-12-14T09:11:18Z</time>
      </trkpt>
      <trkpt lat="44.65361" lon="0.86743">
        <ele>137.61</ele>
        <time>2014-12-14T09:11:35Z</time>
      </trkpt>
      <trkpt lat="44.65367" lon="0.86713">
        <ele>136.64</ele>
        <time>2014-12-14T09:11:39Z</time>
      </trkpt>
      <trkpt lat="44.65399" lon="0.86687">
        <ele>136.64</ele>
        <time>2014-12-14T09:11:48Z</time>
      </trkpt>
      <trkpt lat="44.65401" lon="0.86686">
        <ele>137.13</ele>
        <time>2014-12-14T09:11:49Z</time>
      </trkpt>
      <trkpt lat="44.65432" lon="0.86676">
        <ele>143.37</ele>
        <time>2014-12-14T09:12:01Z</time>
      </trkpt>
      <trkpt lat="44.65472" lon="0.86642">
        <ele>150.1</ele>
        <time>2014-12-14T09:12:16Z</time>
      </trkpt>
      <trkpt lat="44.65482" lon="0.86631">
        <ele>152.99</ele>
        <time>2014-12-14T09:12:24Z</time>
      </trkpt>
      <trkpt lat="44.65485" lon="0.86631">
        <ele>153.47</ele>
        <time>2014-12-14T09:12:28Z</time>
      </trkpt>
      <trkpt lat="44.65485" lon="0.86638">
        <ele>153.95</ele>
        <time>2014-12-14T09:12:32Z</time>
      </trkpt>
      <trkpt lat="44.65481" lon="0.86651">
        <ele>155.87</ele>
        <time>2014-12-14T09:12:38Z</time>
      </trkpt>
      <trkpt lat="44.65471" lon="0.86682">
        <ele>157.31</ele>
        <time>2014-12-14T09:12:51Z</time>
      </trkpt>
      <trkpt lat="44.65468" lon="0.8669">
        <ele>157.31</ele>
        <time>2014-12-14T09:12:54Z</time>
      </trkpt>
      <trkpt lat="44.65463" lon="0.867">
        <ele>157.31</ele>
        <time>2014-12-14T09:12:58Z</time>
      </trkpt>
      <trkpt lat="44.65446" lon="0.86738">
        <ele>159.24</ele>
        <time>2014-12-14T09:13:14Z</time>
      </trkpt>
      <trkpt lat="44.6544" lon="0.86775">
        <ele>159.72</ele>
        <time>2014-12-14T09:13:28Z</time>
      </trkpt>
      <trkpt lat="44.65433" lon="0.86813">
        <ele>161.16</ele>
        <time>2014-12-14T09:13:43Z</time>
      </trkpt>
      <trkpt lat="44.65431" lon="0.86847">
        <ele>165.96</ele>
        <time>2014-12-14T09:13:57Z</time>
      </trkpt>
      <trkpt lat="44.65439" lon="0.86881">
        <ele>172.21</ele>
        <time>2014-12-14T09:14:11Z</time>
      </trkpt>
      <trkpt lat="44.65447" lon="0.86907">
        <ele>175.1</ele>
        <time>2014-12-14T09:14:25Z</time>
      </trkpt>
      <trkpt lat="44.65451" lon="0.86936">
        <ele>175.1</ele>
        <time>2014-12-14T09:14:38Z</time>
      </trkpt>
      <trkpt lat="44.65452" lon="0.8694">
        <ele>175.58</ele>
        <time>2014-12-14T09:14:40Z</time>
      </trkpt>
      <trkpt lat="44.65451" lon="0.86956">
        <ele>176.06</ele>
        <time>2014-12-14T09:14:47Z</time>
      </trkpt>
      <trkpt lat="44.65456" lon="0.86986">
        <ele>174.62</ele>
        <time>2014-12-14T09:14:58Z</time>
      </trkpt>
      <trkpt lat="44.6548" lon="0.8702">
        <ele>172.69</ele>
        <time>2014-12-14T09:15:07Z</time>
      </trkpt>
      <trkpt lat="44.65481" lon="0.87019">
        <ele>173.66</ele>
        <time>2014-12-14T09:15:23Z</time>
      </trkpt>
      <trkpt lat="44.65483" lon="0.87019">
        <ele>176.06</ele>
        <time>2014-12-14T09:15:49Z</time>
      </trkpt>
      <trkpt lat="44.65483" lon="0.87017">
        <ele>181.83</ele>
        <time>2014-12-14T09:16:07Z</time>
      </trkpt>
      <trkpt lat="44.65483" lon="0.87017">
        <ele>184.23</ele>
        <time>2014-12-14T09:16:19Z</time>
      </trkpt>
      <trkpt lat="44.65505" lon="0.8702">
        <ele>186.15</ele>
        <time>2014-12-14T09:16:32Z</time>
      </trkpt>
      <trkpt lat="44.65529" lon="0.87014">
        <ele>191.44</ele>
        <time>2014-12-14T09:16:44Z</time>
      </trkpt>
      <trkpt lat="44.65565" lon="0.87027">
        <ele>193.84</ele>
        <time>2014-12-14T09:16:58Z</time>
      </trkpt>
      <trkpt lat="44.6559" lon="0.87054">
        <ele>192.88</ele>
        <time>2014-12-14T09:17:09Z</time>
      </trkpt>
      <trkpt lat="44.65594" lon="0.87063">
        <ele>192.88</ele>
        <time>2014-12-14T09:17:12Z</time>
      </trkpt>
      <trkpt lat="44.65594" lon="0.87066">
        <ele>192.4</ele>
        <time>2014-12-14T09:17:13Z</time>
      </trkpt>
      <trkpt lat="44.65599" lon="0.87109">
        <ele>190.96</ele>
        <time>2014-12-14T09:17:26Z</time>
      </trkpt>
      <trkpt lat="44.65599" lon="0.87112">
        <ele>190.48</ele>
        <time>2014-12-14T09:17:27Z</time>
      </trkpt>
      <trkpt lat="44.656" lon="0.87115">
        <ele>190.48</ele>
        <time>2014-12-14T09:17:28Z</time>
      </trkpt>
      <trkpt lat="44.656" lon="0.8713">
        <ele>190.48</ele>
        <time>2014-12-14T09:17:32Z</time>
      </trkpt>
      <trkpt lat="44.65599" lon="0.87134">
        <ele>190.48</ele>
        <time>2014-12-14T09:17:33Z</time>
      </trkpt>
      <trkpt lat="44.65598" lon="0.87138">
        <ele>190.96</ele>
        <time>2014-12-14T09:17:34Z</time>
      </trkpt>
      <trkpt lat="44.65598" lon="0.87142">
        <ele>190.96</ele>
        <time>2014-12-14T09:17:35Z</time>
      </trkpt>
      <trkpt lat="44.65599" lon="0.87146">
        <ele>190.48</ele>
        <time>2014-12-14T09:17:36Z</time>
      </trkpt>
      <trkpt lat="44.656" lon="0.8715">
        <ele>190.48</ele>
        <time>2014-12-14T09:17:37Z</time>
      </trkpt>
      <trkpt lat="44.65607" lon="0.87213">
        <ele>186.15</ele>
        <time>2014-12-14T09:17:49Z</time>
      </trkpt>
      <trkpt lat="44.65598" lon="0.87244">
        <ele>183.27</ele>
        <time>2014-12-14T09:18:01Z</time>
      </trkpt>
      <trkpt lat="44.65573" lon="0.87252">
        <ele>185.19</ele>
        <time>2014-12-14T09:18:14Z</time>
      </trkpt>
      <trkpt lat="44.65553" lon="0.87282">
        <ele>190.96</ele>
        <time>2014-12-14T09:18:27Z</time>
      </trkpt>
      <trkpt lat="44.65531" lon="0.87316">
        <ele>191.44</ele>
        <time>2014-12-14T09:18:42Z</time>
      </trkpt>
      <trkpt lat="44.65511" lon="0.87352">
        <ele>191.44</ele>
        <time>2014-12-14T09:18:58Z</time>
      </trkpt>
      <trkpt lat="44.65493" lon="0.87356">
        <ele>193.84</ele>
        <time>2014-12-14T09:19:08Z</time>
      </trkpt>
      <trkpt lat="44.65488" lon="0.87361">
        <ele>193.84</ele>
        <time>2014-12-14T09:19:11Z</time>
      </trkpt>
      <trkpt lat="44.65469" lon="0.87408">
        <ele>193.84</ele>
        <time>2014-12-14T09:19:24Z</time>
      </trkpt>
      <trkpt lat="44.65448" lon="0.87475">
        <ele>199.13</ele>
        <time>2014-12-14T09:19:37Z</time>
      </trkpt>
      <trkpt lat="44.65411" lon="0.87542">
        <ele>199.61</ele>
        <time>2014-12-14T09:19:53Z</time>
      </trkpt>
      <trkpt lat="44.65381" lon="0.87624">
        <ele>201.05</ele>
        <time>2014-12-14T09:20:10Z</time>
      </trkpt>
      <trkpt lat="44.65372" lon="0.87651">
        <ele>200.57</ele>
        <time>2014-12-14T09:20:15Z</time>
      </trkpt>
      <trkpt lat="44.65371" lon="0.87657">
        <ele>200.57</ele>
        <time>2014-12-14T09:20:16Z</time>
      </trkpt>
      <trkpt lat="44.65348" lon="0.87726">
        <ele>201.53</ele>
        <time>2014-12-14T09:20:28Z</time>
      </trkpt>
      <trkpt lat="44.65346" lon="0.87731">
        <ele>202.01</ele>
        <time>2014-12-14T09:20:29Z</time>
      </trkpt>
      <trkpt lat="44.65337" lon="0.87761">
        <ele>203.46</ele>
        <time>2014-12-14T09:20:34Z</time>
      </trkpt>
      <trkpt lat="44.65335" lon="0.87767">
        <ele>203.46</ele>
        <time>2014-12-14T09:20:35Z</time>
      </trkpt>
      <trkpt lat="44.65333" lon="0.87774">
        <ele>203.46</ele>
        <time>2014-12-14T09:20:36Z</time>
      </trkpt>
      <trkpt lat="44.65327" lon="0.87797">
        <ele>203.46</ele>
        <time>2014-12-14T09:20:40Z</time>
      </trkpt>
      <trkpt lat="44.65326" lon="0.87803">
        <ele>202.98</ele>
        <time>2014-12-14T09:20:41Z</time>
      </trkpt>
      <trkpt lat="44.65309" lon="0.87887">
        <ele>200.09</ele>
        <time>2014-12-14T09:20:55Z</time>
      </trkpt>
      <trkpt lat="44.653" lon="0.87942">
        <ele>199.61</ele>
        <time>2014-12-14T09:21:04Z</time>
      </trkpt>
      <trkpt lat="44.65299" lon="0.87949">
        <ele>199.61</ele>
        <time>2014-12-14T09:21:05Z</time>
      </trkpt>
      <trkpt lat="44.65295" lon="0.87995">
        <ele>199.61</ele>
        <time>2014-12-14T09:21:12Z</time>
      </trkpt>
      <trkpt lat="44.65295" lon="0.88002">
        <ele>199.61</ele>
        <time>2014-12-14T09:21:13Z</time>
      </trkpt>
      <trkpt lat="44.6528" lon="0.88104">
        <ele>198.65</ele>
        <time>2014-12-14T09:21:29Z</time>
      </trkpt>
      <trkpt lat="44.65274" lon="0.88145">
        <ele>198.65</ele>
        <time>2014-12-14T09:21:35Z</time>
      </trkpt>
      <trkpt lat="44.65261" lon="0.88213">
        <ele>198.65</ele>
        <time>2014-12-14T09:21:45Z</time>
      </trkpt>
      <trkpt lat="44.6526" lon="0.88253">
        <ele>199.13</ele>
        <time>2014-12-14T09:21:51Z</time>
      </trkpt>
      <trkpt lat="44.65256" lon="0.88286">
        <ele>198.17</ele>
        <time>2014-12-14T09:21:56Z</time>
      </trkpt>
      <trkpt lat="44.65252" lon="0.88409">
        <ele>199.13</ele>
        <time>2014-12-14T09:22:14Z</time>
      </trkpt>
      <trkpt lat="44.65247" lon="0.88462">
        <ele>199.61</ele>
        <time>2014-12-14T09:22:22Z</time>
      </trkpt>
      <trkpt lat="44.65247" lon="0.88469">
        <ele>199.61</ele>
        <time>2014-12-14T09:22:23Z</time>
      </trkpt>
      <trkpt lat="44.65247" lon="0.88475">
        <ele>199.61</ele>
        <time>2014-12-14T09:22:24Z</time>
      </trkpt>
      <trkpt lat="44.65247" lon="0.88513">
        <ele>199.61</ele>
        <time>2014-12-14T09:22:30Z</time>
      </trkpt>
      <trkpt lat="44.65247" lon="0.8852">
        <ele>199.61</ele>
        <time>2014-12-14T09:22:31Z</time>
      </trkpt>
      <trkpt lat="44.65248" lon="0.88526">
        <ele>199.61</ele>
        <time>2014-12-14T09:22:32Z</time>
      </trkpt>
      <trkpt lat="44.65248" lon="0.88532">
        <ele>199.61</ele>
        <time>2014-12-14T09:22:33Z</time>
      </trkpt>
      <trkpt lat="44.65246" lon="0.88539">
        <ele>199.61</ele>
        <time>2014-12-14T09:22:34Z</time>
      </trkpt>
      <trkpt lat="44.65245" lon="0.88544">
        <ele>199.61</ele>
        <time>2014-12-14T09:22:35Z</time>
      </trkpt>
      <trkpt lat="44.65243" lon="0.88549">
        <ele>199.61</ele>
        <time>2014-12-14T09:22:36Z</time>
      </trkpt>
      <trkpt lat="44.65241" lon="0.88554">
        <ele>199.61</ele>
        <time>2014-12-14T09:22:37Z</time>
      </trkpt>
      <trkpt lat="44.65239" lon="0.88559">
        <ele>199.61</ele>
        <time>2014-12-14T09:22:38Z</time>
      </trkpt>
      <trkpt lat="44.65231" lon="0.88588">
        <ele>199.13</ele>
        <time>2014-12-14T09:22:44Z</time>
      </trkpt>
      <trkpt lat="44.65231" lon="0.88594">
        <ele>198.65</ele>
        <time>2014-12-14T09:22:45Z</time>
      </trkpt>
      <trkpt lat="44.65232" lon="0.886">
        <ele>198.65</ele>
        <time>2014-12-14T09:22:46Z</time>
      </trkpt>
      <trkpt lat="44.65233" lon="0.88606">
        <ele>199.13</ele>
        <time>2014-12-14T09:22:47Z</time>
      </trkpt>
      <trkpt lat="44.65235" lon="0.88611">
        <ele>199.13</ele>
        <time>2014-12-14T09:22:48Z</time>
      </trkpt>
      <trkpt lat="44.65238" lon="0.88616">
        <ele>199.13</ele>
        <time>2014-12-14T09:22:49Z</time>
      </trkpt>
      <trkpt lat="44.6524" lon="0.88621">
        <ele>199.13</ele>
        <time>2014-12-14T09:22:50Z</time>
      </trkpt>
      <trkpt lat="44.65243" lon="0.88626">
        <ele>199.13</ele>
        <time>2014-12-14T09:22:51Z</time>
      </trkpt>
      <trkpt lat="44.65244" lon="0.88632">
        <ele>199.61</ele>
        <time>2014-12-14T09:22:52Z</time>
      </trkpt>
      <trkpt lat="44.65244" lon="0.88638">
        <ele>199.61</ele>
        <time>2014-12-14T09:22:53Z</time>
      </trkpt>
      <trkpt lat="44.65243" lon="0.88644">
        <ele>200.09</ele>
        <time>2014-12-14T09:22:54Z</time>
      </trkpt>
      <trkpt lat="44.65241" lon="0.8865">
        <ele>200.57</ele>
        <time>2014-12-14T09:22:55Z</time>
      </trkpt>
      <trkpt lat="44.65238" lon="0.88662">
        <ele>200.57</ele>
        <time>2014-12-14T09:22:57Z</time>
      </trkpt>
      <trkpt lat="44.65237" lon="0.88675">
        <ele>201.05</ele>
        <time>2014-12-14T09:22:59Z</time>
      </trkpt>
      <trkpt lat="44.65213" lon="0.8879">
        <ele>202.49</ele>
        <time>2014-12-14T09:23:16Z</time>
      </trkpt>
      <trkpt lat="44.65211" lon="0.88797">
        <ele>202.49</ele>
        <time>2014-12-14T09:23:17Z</time>
      </trkpt>
      <trkpt lat="44.6521" lon="0.88804">
        <ele>202.49</ele>
        <time>2014-12-14T09:23:18Z</time>
      </trkpt>
      <trkpt lat="44.65194" lon="0.88879">
        <ele>202.98</ele>
        <time>2014-12-14T09:23:32Z</time>
      </trkpt>
      <trkpt lat="44.65177" lon="0.88974">
        <ele>200.09</ele>
        <time>2014-12-14T09:23:47Z</time>
      </trkpt>
      <trkpt lat="44.65175" lon="0.88981">
        <ele>199.61</ele>
        <time>2014-12-14T09:23:48Z</time>
      </trkpt>
      <trkpt lat="44.65173" lon="0.88988">
        <ele>199.13</ele>
        <time>2014-12-14T09:23:49Z</time>
      </trkpt>
      <trkpt lat="44.65172" lon="0.88994">
        <ele>198.17</ele>
        <time>2014-12-14T09:23:50Z</time>
      </trkpt>
      <trkpt lat="44.65171" lon="0.88998">
        <ele>197.69</ele>
        <time>2014-12-14T09:23:51Z</time>
      </trkpt>
      <trkpt lat="44.6517" lon="0.89002">
        <ele>197.21</ele>
        <time>2014-12-14T09:23:52Z</time>
      </trkpt>
      <trkpt lat="44.65168" lon="0.89006">
        <ele>196.73</ele>
        <time>2014-12-14T09:23:53Z</time>
      </trkpt>
      <trkpt lat="44.65165" lon="0.89009">
        <ele>196.25</ele>
        <time>2014-12-14T09:23:54Z</time>
      </trkpt>
      <trkpt lat="44.65162" lon="0.89009">
        <ele>195.77</ele>
        <time>2014-12-14T09:23:55Z</time>
      </trkpt>
      <trkpt lat="44.65128" lon="0.89006">
        <ele>193.84</ele>
        <time>2014-12-14T09:24:03Z</time>
      </trkpt>
      <trkpt lat="44.65085" lon="0.89003">
        <ele>200.09</ele>
        <time>2014-12-14T09:24:14Z</time>
      </trkpt>
      <trkpt lat="44.65083" lon="0.89006">
        <ele>200.09</ele>
        <time>2014-12-14T09:24:15Z</time>
      </trkpt>
      <trkpt lat="44.65081" lon="0.89008">
        <ele>200.09</ele>
        <time>2014-12-14T09:24:16Z</time>
      </trkpt>
      <trkpt lat="44.65079" lon="0.89011">
        <ele>200.09</ele>
        <time>2014-12-14T09:24:17Z</time>
      </trkpt>
      <trkpt lat="44.65077" lon="0.89014">
        <ele>200.09</ele>
        <time>2014-12-14T09:24:18Z</time>
      </trkpt>
      <trkpt lat="44.65053" lon="0.89056">
        <ele>200.09</ele>
        <time>2014-12-14T09:24:31Z</time>
      </trkpt>
      <trkpt lat="44.6504" lon="0.89107">
        <ele>200.57</ele>
        <time>2014-12-14T09:24:43Z</time>
      </trkpt>
      <trkpt lat="44.65019" lon="0.89162">
        <ele>198.65</ele>
        <time>2014-12-14T09:24:53Z</time>
      </trkpt>
      <trkpt lat="44.64992" lon="0.89202">
        <ele>200.09</ele>
        <time>2014-12-14T09:25:03Z</time>
      </trkpt>
      <trkpt lat="44.64961" lon="0.89196">
        <ele>202.01</ele>
        <time>2014-12-14T09:25:11Z</time>
      </trkpt>
      <trkpt lat="44.64936" lon="0.89229">
        <ele>201.05</ele>
        <time>2014-12-14T09:25:20Z</time>
      </trkpt>
      <trkpt lat="44.6492" lon="0.89273">
        <ele>203.46</ele>
        <time>2014-12-14T09:25:31Z</time>
      </trkpt>
      <trkpt lat="44.64912" lon="0.89269">
        <ele>203.46</ele>
        <time>2014-12-14T09:25:34Z</time>
      </trkpt>
      <trkpt lat="44.64905" lon="0.89266">
        <ele>202.98</ele>
        <time>2014-12-14T09:25:38Z</time>
      </trkpt>
      <trkpt lat="44.64868" lon="0.8925">
        <ele>204.9</ele>
        <time>2014-12-14T09:25:51Z</time>
      </trkpt>
      <trkpt lat="44.64826" lon="0.89227">
        <ele>200.57</ele>
        <time>2014-12-14T09:26:02Z</time>
      </trkpt>
      <trkpt lat="44.64816" lon="0.8921">
        <ele>198.65</ele>
        <time>2014-12-14T09:26:06Z</time>
      </trkpt>
      <trkpt lat="44.64808" lon="0.89214">
        <ele>198.17</ele>
        <time>2014-12-14T09:26:10Z</time>
      </trkpt>
      <trkpt lat="44.64794" lon="0.89258">
        <ele>200.57</ele>
        <time>2014-12-14T09:26:22Z</time>
      </trkpt>
      <trkpt lat="44.64789" lon="0.89303">
        <ele>199.61</ele>
        <time>2014-12-14T09:26:33Z</time>
      </trkpt>
      <trkpt lat="44.64777" lon="0.89344">
        <ele>199.13</ele>
        <time>2014-12-14T09:26:44Z</time>
      </trkpt>
      <trkpt lat="44.64771" lon="0.89391">
        <ele>199.61</ele>
        <time>2014-12-14T09:26:55Z</time>
      </trkpt>
      <trkpt lat="44.64772" lon="0.89436">
        <ele>200.57</ele>
        <time>2014-12-14T09:27:07Z</time>
      </trkpt>
      <trkpt lat="44.64779" lon="0.89486">
        <ele>203.46</ele>
        <time>2014-12-14T09:27:22Z</time>
      </trkpt>
      <trkpt lat="44.64787" lon="0.89514">
        <ele>204.9</ele>
        <time>2014-12-14T09:27:31Z</time>
      </trkpt>
      <trkpt lat="44.64767" lon="0.89539">
        <ele>206.82</ele>
        <time>2014-12-14T09:27:43Z</time>
      </trkpt>
      <trkpt lat="44.64748" lon="0.89551">
        <ele>208.74</ele>
        <time>2014-12-14T09:27:53Z</time>
      </trkpt>
      <trkpt lat="44.6473" lon="0.89589">
        <ele>212.11</ele>
        <time>2014-12-14T09:28:09Z</time>
      </trkpt>
      <trkpt lat="44.64712" lon="0.89619">
        <ele>213.55</ele>
        <time>2014-12-14T09:28:22Z</time>
      </trkpt>
      <trkpt lat="44.6469" lon="0.8965">
        <ele>214.51</ele>
        <time>2014-12-14T09:28:34Z</time>
      </trkpt>
      <trkpt lat="44.64676" lon="0.89675">
        <ele>214.51</ele>
        <time>2014-12-14T09:28:42Z</time>
      </trkpt>
      <trkpt lat="44.64674" lon="0.89677">
        <ele>214.51</ele>
        <time>2014-12-14T09:28:43Z</time>
      </trkpt>
      <trkpt lat="44.64671" lon="0.89679">
        <ele>214.99</ele>
        <time>2014-12-14T09:28:44Z</time>
      </trkpt>
      <trkpt lat="44.64668" lon="0.8968">
        <ele>214.51</ele>
        <time>2014-12-14T09:28:45Z</time>
      </trkpt>
      <trkpt lat="44.64666" lon="0.89681">
        <ele>214.51</ele>
        <time>2014-12-14T09:28:46Z</time>
      </trkpt>
      <trkpt lat="44.64663" lon="0.89682">
        <ele>214.51</ele>
        <time>2014-12-14T09:28:47Z</time>
      </trkpt>
      <trkpt lat="44.6466" lon="0.89684">
        <ele>214.51</ele>
        <time>2014-12-14T09:28:48Z</time>
      </trkpt>
      <trkpt lat="44.64658" lon="0.89686">
        <ele>214.51</ele>
        <time>2014-12-14T09:28:49Z</time>
      </trkpt>
      <trkpt lat="44.64655" lon="0.89687">
        <ele>214.51</ele>
        <time>2014-12-14T09:28:50Z</time>
      </trkpt>
      <trkpt lat="44.64652" lon="0.89688">
        <ele>214.51</ele>
        <time>2014-12-14T09:28:51Z</time>
      </trkpt>
      <trkpt lat="44.6465" lon="0.89689">
        <ele>214.51</ele>
        <time>2014-12-14T09:28:52Z</time>
      </trkpt>
      <trkpt lat="44.64613" lon="0.89702">
        <ele>214.99</ele>
        <time>2014-12-14T09:29:05Z</time>
      </trkpt>
      <trkpt lat="44.64561" lon="0.89725">
        <ele>216.43</ele>
        <time>2014-12-14T09:29:20Z</time>
      </trkpt>
      <trkpt lat="44.64517" lon="0.89758">
        <ele>216.43</ele>
        <time>2014-12-14T09:29:33Z</time>
      </trkpt>
      <trkpt lat="44.64474" lon="0.89785">
        <ele>218.84</ele>
        <time>2014-12-14T09:29:47Z</time>
      </trkpt>
      <trkpt lat="44.64438" lon="0.89811">
        <ele>220.76</ele>
        <time>2014-12-14T09:30:00Z</time>
      </trkpt>
      <trkpt lat="44.64411" lon="0.89835">
        <ele>220.28</ele>
        <time>2014-12-14T09:30:12Z</time>
      </trkpt>
      <trkpt lat="44.64374" lon="0.89868">
        <ele>222.2</ele>
        <time>2014-12-14T09:30:28Z</time>
      </trkpt>
      <trkpt lat="44.64341" lon="0.89874">
        <ele>225.09</ele>
        <time>2014-12-14T09:30:41Z</time>
      </trkpt>
      <trkpt lat="44.64311" lon="0.89878">
        <ele>226.53</ele>
        <time>2014-12-14T09:30:52Z</time>
      </trkpt>
      <trkpt lat="44.64309" lon="0.89879">
        <ele>226.53</ele>
        <time>2014-12-14T09:30:53Z</time>
      </trkpt>
      <trkpt lat="44.64308" lon="0.8988">
        <ele>226.53</ele>
        <time>2014-12-14T09:30:54Z</time>
      </trkpt>
      <trkpt lat="44.64306" lon="0.89881">
        <ele>226.53</ele>
        <time>2014-12-14T09:30:55Z</time>
      </trkpt>
      <trkpt lat="44.64304" lon="0.89884">
        <ele>226.53</ele>
        <time>2014-12-14T09:31:08Z</time>
      </trkpt>
      <trkpt lat="44.64303" lon="0.89883">
        <ele>225.09</ele>
        <time>2014-12-14T09:31:26Z</time>
      </trkpt>
      <trkpt lat="44.64303" lon="0.89883">
        <ele>224.61</ele>
        <time>2014-12-14T09:31:50Z</time>
      </trkpt>
      <trkpt lat="44.64297" lon="0.89876">
        <ele>224.12</ele>
        <time>2014-12-14T09:32:06Z</time>
      </trkpt>
      <trkpt lat="44.64295" lon="0.89875">
        <ele>222.2</ele>
        <time>2014-12-14T09:32:30Z</time>
      </trkpt>
      <trkpt lat="44.64297" lon="0.89876">
        <ele>224.12</ele>
        <time>2014-12-14T09:33:05Z</time>
      </trkpt>
      <trkpt lat="44.643" lon="0.89871">
        <ele>223.64</ele>
        <time>2014-12-14T09:33:39Z</time>
      </trkpt>
      <trkpt lat="44.643" lon="0.89867">
        <ele>223.16</ele>
        <time>2014-12-14T09:34:14Z</time>
      </trkpt>
      <trkpt lat="44.64295" lon="0.89874">
        <ele>222.68</ele>
        <time>2014-12-14T09:34:57Z</time>
      </trkpt>
      <trkpt lat="44.64296" lon="0.89878">
        <ele>220.28</ele>
        <time>2014-12-14T09:35:36Z</time>
      </trkpt>
      <trkpt lat="44.64297" lon="0.89874">
        <ele>219.32</ele>
        <time>2014-12-14T09:36:17Z</time>
      </trkpt>
      <trkpt lat="44.64296" lon="0.89876">
        <ele>221.24</ele>
        <time>2014-12-14T09:36:53Z</time>
      </trkpt>
      <trkpt lat="44.64298" lon="0.89874">
        <ele>224.12</ele>
        <time>2014-12-14T09:37:20Z</time>
      </trkpt>
      <trkpt lat="44.64297" lon="0.89876">
        <ele>224.61</ele>
        <time>2014-12-14T09:37:55Z</time>
      </trkpt>
      <trkpt lat="44.64296" lon="0.89879">
        <ele>227.97</ele>
        <time>2014-12-14T09:38:26Z</time>
      </trkpt>
      <trkpt lat="44.64295" lon="0.89879">
        <ele>227.01</ele>
        <time>2014-12-14T09:38:37Z</time>
      </trkpt>
      <trkpt lat="44.64294" lon="0.89879">
        <ele>227.01</ele>
        <time>2014-12-14T09:38:38Z</time>
      </trkpt>
      <trkpt lat="44.64293" lon="0.89878">
        <ele>227.01</ele>
        <time>2014-12-14T09:38:39Z</time>
      </trkpt>
      <trkpt lat="44.64292" lon="0.89878">
        <ele>226.53</ele>
        <time>2014-12-14T09:38:40Z</time>
      </trkpt>
      <trkpt lat="44.6429" lon="0.89877">
        <ele>226.53</ele>
        <time>2014-12-14T09:38:41Z</time>
      </trkpt>
      <trkpt lat="44.64289" lon="0.89876">
        <ele>226.53</ele>
        <time>2014-12-14T09:38:42Z</time>
      </trkpt>
      <trkpt lat="44.64288" lon="0.89874">
        <ele>226.53</ele>
        <time>2014-12-14T09:38:43Z</time>
      </trkpt>
      <trkpt lat="44.64286" lon="0.89873">
        <ele>226.05</ele>
        <time>2014-12-14T09:38:44Z</time>
      </trkpt>
      <trkpt lat="44.64285" lon="0.89871">
        <ele>226.05</ele>
        <time>2014-12-14T09:38:45Z</time>
      </trkpt>
      <trkpt lat="44.64271" lon="0.8986">
        <ele>227.01</ele>
        <time>2014-12-14T09:38:53Z</time>
      </trkpt>
      <trkpt lat="44.64269" lon="0.89861">
        <ele>227.49</ele>
        <time>2014-12-14T09:38:54Z</time>
      </trkpt>
      <trkpt lat="44.64268" lon="0.89861">
        <ele>227.01</ele>
        <time>2014-12-14T09:38:55Z</time>
      </trkpt>
      <trkpt lat="44.64267" lon="0.8986">
        <ele>227.01</ele>
        <time>2014-12-14T09:38:56Z</time>
      </trkpt>
      <trkpt lat="44.64266" lon="0.8986">
        <ele>227.01</ele>
        <time>2014-12-14T09:38:57Z</time>
      </trkpt>
      <trkpt lat="44.64265" lon="0.8986">
        <ele>227.01</ele>
        <time>2014-12-14T09:38:58Z</time>
      </trkpt>
      <trkpt lat="44.64261" lon="0.89859">
        <ele>225.09</ele>
        <time>2014-12-14T09:39:15Z</time>
      </trkpt>
      <trkpt lat="44.6426" lon="0.89856">
        <ele>225.09</ele>
        <time>2014-12-14T09:39:22Z</time>
      </trkpt>
      <trkpt lat="44.64244" lon="0.89843">
        <ele>225.57</ele>
        <time>2014-12-14T09:39:36Z</time>
      </trkpt>
      <trkpt lat="44.64215" lon="0.89815">
        <ele>226.05</ele>
        <time>2014-12-14T09:39:54Z</time>
      </trkpt>
      <trkpt lat="44.64194" lon="0.89785">
        <ele>228.45</ele>
        <time>2014-12-14T09:40:11Z</time>
      </trkpt>
      <trkpt lat="44.64171" lon="0.89745">
        <ele>228.45</ele>
        <time>2014-12-14T09:40:26Z</time>
      </trkpt>
      <trkpt lat="44.64144" lon="0.89702">
        <ele>228.45</ele>
        <time>2014-12-14T09:40:40Z</time>
      </trkpt>
      <trkpt lat="44.64108" lon="0.89642">
        <ele>229.41</ele>
        <time>2014-12-14T09:40:58Z</time>
      </trkpt>
      <trkpt lat="44.64074" lon="0.89583">
        <ele>230.37</ele>
        <time>2014-12-14T09:41:14Z</time>
      </trkpt>
      <trkpt lat="44.64054" lon="0.89531">
        <ele>229.89</ele>
        <time>2014-12-14T09:41:27Z</time>
      </trkpt>
      <trkpt lat="44.64045" lon="0.89463">
        <ele>230.37</ele>
        <time>2014-12-14T09:41:42Z</time>
      </trkpt>
      <trkpt lat="44.64041" lon="0.89393">
        <ele>229.89</ele>
        <time>2014-12-14T09:41:57Z</time>
      </trkpt>
      <trkpt lat="44.6404" lon="0.89391">
        <ele>229.89</ele>
        <time>2014-12-14T09:41:58Z</time>
      </trkpt>
      <trkpt lat="44.6404" lon="0.8939">
        <ele>229.89</ele>
        <time>2014-12-14T09:41:59Z</time>
      </trkpt>
      <trkpt lat="44.64039" lon="0.89389">
        <ele>229.89</ele>
        <time>2014-12-14T09:42:00Z</time>
      </trkpt>
      <trkpt lat="44.64017" lon="0.89391">
        <ele>227.97</ele>
        <time>2014-12-14T09:42:08Z</time>
      </trkpt>
      <trkpt lat="44.64003" lon="0.8937">
        <ele>224.61</ele>
        <time>2014-12-14T09:42:16Z</time>
      </trkpt>
      <trkpt lat="44.63983" lon="0.89355">
        <ele>223.64</ele>
        <time>2014-12-14T09:42:22Z</time>
      </trkpt>
      <trkpt lat="44.63978" lon="0.8935">
        <ele>223.16</ele>
        <time>2014-12-14T09:42:24Z</time>
      </trkpt>
      <trkpt lat="44.63966" lon="0.89342">
        <ele>221.72</ele>
        <time>2014-12-14T09:42:28Z</time>
      </trkpt>
      <trkpt lat="44.63952" lon="0.89337">
        <ele>221.24</ele>
        <time>2014-12-14T09:42:32Z</time>
      </trkpt>
      <trkpt lat="44.63939" lon="0.89339">
        <ele>220.28</ele>
        <time>2014-12-14T09:42:36Z</time>
      </trkpt>
      <trkpt lat="44.63912" lon="0.89328">
        <ele>216.43</ele>
        <time>2014-12-14T09:42:47Z</time>
      </trkpt>
      <trkpt lat="44.63887" lon="0.89357">
        <ele>212.59</ele>
        <time>2014-12-14T09:42:58Z</time>
      </trkpt>
      <trkpt lat="44.63881" lon="0.89373">
        <ele>214.03</ele>
        <time>2014-12-14T09:43:04Z</time>
      </trkpt>
      <trkpt lat="44.63861" lon="0.89378">
        <ele>214.03</ele>
        <time>2014-12-14T09:43:17Z</time>
      </trkpt>
      <trkpt lat="44.6386" lon="0.89377">
        <ele>214.03</ele>
        <time>2014-12-14T09:43:18Z</time>
      </trkpt>
      <trkpt lat="44.63858" lon="0.89372">
        <ele>214.03</ele>
        <time>2014-12-14T09:43:21Z</time>
      </trkpt>
      <trkpt lat="44.63854" lon="0.89365">
        <ele>214.51</ele>
        <time>2014-12-14T09:43:25Z</time>
      </trkpt>
      <trkpt lat="44.63851" lon="0.89356">
        <ele>214.51</ele>
        <time>2014-12-14T09:43:28Z</time>
      </trkpt>
      <trkpt lat="44.6385" lon="0.8934">
        <ele>214.03</ele>
        <time>2014-12-14T09:43:33Z</time>
      </trkpt>
      <trkpt lat="44.6385" lon="0.89333">
        <ele>214.03</ele>
        <time>2014-12-14T09:43:48Z</time>
      </trkpt>
      <trkpt lat="44.63847" lon="0.89328">
        <ele>214.99</ele>
        <time>2014-12-14T09:44:10Z</time>
      </trkpt>
      <trkpt lat="44.63847" lon="0.8932">
        <ele>214.51</ele>
        <time>2014-12-14T09:44:24Z</time>
      </trkpt>
      <trkpt lat="44.63846" lon="0.89321">
        <ele>214.51</ele>
        <time>2014-12-14T09:44:41Z</time>
      </trkpt>
      <trkpt lat="44.63842" lon="0.89319">
        <ele>213.07</ele>
        <time>2014-12-14T09:44:49Z</time>
      </trkpt>
      <trkpt lat="44.63836" lon="0.89312">
        <ele>212.59</ele>
        <time>2014-12-14T09:44:55Z</time>
      </trkpt>
      <trkpt lat="44.63834" lon="0.89304">
        <ele>213.07</ele>
        <time>2014-12-14T09:44:59Z</time>
      </trkpt>
      <trkpt lat="44.63822" lon="0.89289">
        <ele>211.15</ele>
        <time>2014-12-14T09:45:14Z</time>
      </trkpt>
      <trkpt lat="44.63821" lon="0.89289">
        <ele>211.15</ele>
        <time>2014-12-14T09:45:17Z</time>
      </trkpt>
      <trkpt lat="44.63813" lon="0.89289">
        <ele>212.59</ele>
        <time>2014-12-14T09:45:30Z</time>
      </trkpt>
      <trkpt lat="44.63807" lon="0.8929">
        <ele>210.67</ele>
        <time>2014-12-14T09:45:46Z</time>
      </trkpt>
      <trkpt lat="44.63806" lon="0.89289">
        <ele>211.15</ele>
        <time>2014-12-14T09:45:58Z</time>
      </trkpt>
      <trkpt lat="44.63805" lon="0.89287">
        <ele>211.63</ele>
        <time>2014-12-14T09:46:00Z</time>
      </trkpt>
      <trkpt lat="44.63788" lon="0.89269">
        <ele>214.99</ele>
        <time>2014-12-14T09:46:11Z</time>
      </trkpt>
      <trkpt lat="44.63782" lon="0.89264">
        <ele>216.43</ele>
        <time>2014-12-14T09:46:16Z</time>
      </trkpt>
      <trkpt lat="44.63778" lon="0.89258">
        <ele>218.36</ele>
        <time>2014-12-14T09:46:20Z</time>
      </trkpt>
      <trkpt lat="44.63767" lon="0.89234">
        <ele>219.32</ele>
        <time>2014-12-14T09:46:34Z</time>
      </trkpt>
      <trkpt lat="44.6376" lon="0.89214">
        <ele>220.76</ele>
        <time>2014-12-14T09:46:44Z</time>
      </trkpt>
      <trkpt lat="44.63749" lon="0.89194">
        <ele>221.72</ele>
        <time>2014-12-14T09:46:55Z</time>
      </trkpt>
      <trkpt lat="44.63732" lon="0.89172">
        <ele>219.32</ele>
        <time>2014-12-14T09:47:05Z</time>
      </trkpt>
      <trkpt lat="44.63731" lon="0.89165">
        <ele>218.36</ele>
        <time>2014-12-14T09:47:07Z</time>
      </trkpt>
      <trkpt lat="44.63731" lon="0.89157">
        <ele>217.88</ele>
        <time>2014-12-14T09:47:10Z</time>
      </trkpt>
      <trkpt lat="44.63724" lon="0.89128">
        <ele>213.07</ele>
        <time>2014-12-14T09:47:22Z</time>
      </trkpt>
      <trkpt lat="44.63722" lon="0.89121">
        <ele>212.59</ele>
        <time>2014-12-14T09:47:34Z</time>
      </trkpt>
      <trkpt lat="44.63719" lon="0.89115">
        <ele>213.07</ele>
        <time>2014-12-14T09:47:47Z</time>
      </trkpt>
      <trkpt lat="44.63708" lon="0.89115">
        <ele>212.11</ele>
        <time>2014-12-14T09:47:53Z</time>
      </trkpt>
      <trkpt lat="44.63681" lon="0.89137">
        <ele>207.78</ele>
        <time>2014-12-14T09:48:05Z</time>
      </trkpt>
      <trkpt lat="44.63665" lon="0.89148">
        <ele>206.34</ele>
        <time>2014-12-14T09:48:13Z</time>
      </trkpt>
      <trkpt lat="44.63662" lon="0.89148">
        <ele>202.98</ele>
        <time>2014-12-14T09:48:25Z</time>
      </trkpt>
      <trkpt lat="44.63662" lon="0.89143">
        <ele>202.01</ele>
        <time>2014-12-14T09:48:57Z</time>
      </trkpt>
      <trkpt lat="44.63659" lon="0.89139">
        <ele>202.98</ele>
        <time>2014-12-14T09:49:08Z</time>
      </trkpt>
      <trkpt lat="44.63656" lon="0.89132">
        <ele>203.94</ele>
        <time>2014-12-14T09:49:13Z</time>
      </trkpt>
      <trkpt lat="44.63653" lon="0.89128">
        <ele>202.49</ele>
        <time>2014-12-14T09:49:25Z</time>
      </trkpt>
      <trkpt lat="44.63652" lon="0.89124">
        <ele>202.01</ele>
        <time>2014-12-14T09:49:28Z</time>
      </trkpt>
      <trkpt lat="44.63641" lon="0.891">
        <ele>201.05</ele>
        <time>2014-12-14T09:49:40Z</time>
      </trkpt>
      <trkpt lat="44.63633" lon="0.89084">
        <ele>202.01</ele>
        <time>2014-12-14T09:49:55Z</time>
      </trkpt>
      <trkpt lat="44.63631" lon="0.89072">
        <ele>202.49</ele>
        <time>2014-12-14T09:50:09Z</time>
      </trkpt>
      <trkpt lat="44.63626" lon="0.89061">
        <ele>203.94</ele>
        <time>2014-12-14T09:50:22Z</time>
      </trkpt>
      <trkpt lat="44.63622" lon="0.89058">
        <ele>204.9</ele>
        <time>2014-12-14T09:50:34Z</time>
      </trkpt>
      <trkpt lat="44.63622" lon="0.89059">
        <ele>203.46</ele>
        <time>2014-12-14T09:50:53Z</time>
      </trkpt>
      <trkpt lat="44.63621" lon="0.89059">
        <ele>203.94</ele>
        <time>2014-12-14T09:51:18Z</time>
      </trkpt>
      <trkpt lat="44.63621" lon="0.89059">
        <ele>202.98</ele>
        <time>2014-12-14T09:51:22Z</time>
      </trkpt>
      <trkpt lat="44.63608" lon="0.89076">
        <ele>204.42</ele>
        <time>2014-12-14T09:51:31Z</time>
      </trkpt>
      <trkpt lat="44.63578" lon="0.89106">
        <ele>199.61</ele>
        <time>2014-12-14T09:51:43Z</time>
      </trkpt>
      <trkpt lat="44.63569" lon="0.89125">
        <ele>200.09</ele>
        <time>2014-12-14T09:51:53Z</time>
      </trkpt>
      <trkpt lat="44.63565" lon="0.89125">
        <ele>199.61</ele>
        <time>2014-12-14T09:51:55Z</time>
      </trkpt>
      <trkpt lat="44.63559" lon="0.89127">
        <ele>200.09</ele>
        <time>2014-12-14T09:51:59Z</time>
      </trkpt>
      <trkpt lat="44.63533" lon="0.89153">
        <ele>199.13</ele>
        <time>2014-12-14T09:52:14Z</time>
      </trkpt>
      <trkpt lat="44.63499" lon="0.89194">
        <ele>195.77</ele>
        <time>2014-12-14T09:52:26Z</time>
      </trkpt>
      <trkpt lat="44.63473" lon="0.89222">
        <ele>193.84</ele>
        <time>2014-12-14T09:52:33Z</time>
      </trkpt>
      <trkpt lat="44.63437" lon="0.89277">
        <ele>188.56</ele>
        <time>2014-12-14T09:52:46Z</time>
      </trkpt>
      <trkpt lat="44.63401" lon="0.89343">
        <ele>184.71</ele>
        <time>2014-12-14T09:52:59Z</time>
      </trkpt>
      <trkpt lat="44.63397" lon="0.89348">
        <ele>184.71</ele>
        <time>2014-12-14T09:53:00Z</time>
      </trkpt>
      <trkpt lat="44.63372" lon="0.89376">
        <ele>182.31</ele>
        <time>2014-12-14T09:53:06Z</time>
      </trkpt>
      <trkpt lat="44.6336" lon="0.89386">
        <ele>181.35</ele>
        <time>2014-12-14T09:53:09Z</time>
      </trkpt>
      <trkpt lat="44.63339" lon="0.89394">
        <ele>179.9</ele>
        <time>2014-12-14T09:53:14Z</time>
      </trkpt>
      <trkpt lat="44.63326" lon="0.89391">
        <ele>178.46</ele>
        <time>2014-12-14T09:53:17Z</time>
      </trkpt>
      <trkpt lat="44.63292" lon="0.89422">
        <ele>174.62</ele>
        <time>2014-12-14T09:53:28Z</time>
      </trkpt>
      <trkpt lat="44.63266" lon="0.89455">
        <ele>173.66</ele>
        <time>2014-12-14T09:53:40Z</time>
      </trkpt>
      <trkpt lat="44.63263" lon="0.89456">
        <ele>173.66</ele>
        <time>2014-12-14T09:53:41Z</time>
      </trkpt>
      <trkpt lat="44.6326" lon="0.8946">
        <ele>173.66</ele>
        <time>2014-12-14T09:53:56Z</time>
      </trkpt>
      <trkpt lat="44.63261" lon="0.89461">
        <ele>174.62</ele>
        <time>2014-12-14T09:54:17Z</time>
      </trkpt>
      <trkpt lat="44.6326" lon="0.89464">
        <ele>176.06</ele>
        <time>2014-12-14T09:54:23Z</time>
      </trkpt>
      <trkpt lat="44.63262" lon="0.89471">
        <ele>177.02</ele>
        <time>2014-12-14T09:54:27Z</time>
      </trkpt>
      <trkpt lat="44.63283" lon="0.8951">
        <ele>178.94</ele>
        <time>2014-12-14T09:54:41Z</time>
      </trkpt>
      <trkpt lat="44.63303" lon="0.89546">
        <ele>178.94</ele>
        <time>2014-12-14T09:54:53Z</time>
      </trkpt>
      <trkpt lat="44.63314" lon="0.89563">
        <ele>180.87</ele>
        <time>2014-12-14T09:54:59Z</time>
      </trkpt>
      <trkpt lat="44.63322" lon="0.89582">
        <ele>181.83</ele>
        <time>2014-12-14T09:55:05Z</time>
      </trkpt>
      <trkpt lat="44.63325" lon="0.89592">
        <ele>180.87</ele>
        <time>2014-12-14T09:55:10Z</time>
      </trkpt>
      <trkpt lat="44.63346" lon="0.89609">
        <ele>177.5</ele>
        <time>2014-12-14T09:55:19Z</time>
      </trkpt>
      <trkpt lat="44.6335" lon="0.89641">
        <ele>177.02</ele>
        <time>2014-12-14T09:55:28Z</time>
      </trkpt>
      <trkpt lat="44.63345" lon="0.89662">
        <ele>176.54</ele>
        <time>2014-12-14T09:55:35Z</time>
      </trkpt>
      <trkpt lat="44.6336" lon="0.89723">
        <ele>177.02</ele>
        <time>2014-12-14T09:55:50Z</time>
      </trkpt>
      <trkpt lat="44.63362" lon="0.89762">
        <ele>177.02</ele>
        <time>2014-12-14T09:56:00Z</time>
      </trkpt>
      <trkpt lat="44.63366" lon="0.89776">
        <ele>176.54</ele>
        <time>2014-12-14T09:56:04Z</time>
      </trkpt>
      <trkpt lat="44.63388" lon="0.89813">
        <ele>177.02</ele>
        <time>2014-12-14T09:56:17Z</time>
      </trkpt>
      <trkpt lat="44.63413" lon="0.89858">
        <ele>177.5</ele>
        <time>2014-12-14T09:56:31Z</time>
      </trkpt>
      <trkpt lat="44.63434" lon="0.89898">
        <ele>178.94</ele>
        <time>2014-12-14T09:56:44Z</time>
      </trkpt>
      <trkpt lat="44.63426" lon="0.89916">
        <ele>177.5</ele>
        <time>2014-12-14T09:56:50Z</time>
      </trkpt>
      <trkpt lat="44.63409" lon="0.89958">
        <ele>178.46</ele>
        <time>2014-12-14T09:57:02Z</time>
      </trkpt>
      <trkpt lat="44.63402" lon="0.90012">
        <ele>180.38</ele>
        <time>2014-12-14T09:57:15Z</time>
      </trkpt>
      <trkpt lat="44.63404" lon="0.90062">
        <ele>182.79</ele>
        <time>2014-12-14T09:57:28Z</time>
      </trkpt>
      <trkpt lat="44.63404" lon="0.90067">
        <ele>182.31</ele>
        <time>2014-12-14T09:57:29Z</time>
      </trkpt>
      <trkpt lat="44.634" lon="0.90086">
        <ele>180.87</ele>
        <time>2014-12-14T09:57:32Z</time>
      </trkpt>
      <trkpt lat="44.63393" lon="0.9013">
        <ele>178.94</ele>
        <time>2014-12-14T09:57:42Z</time>
      </trkpt>
      <trkpt lat="44.63387" lon="0.90146">
        <ele>179.9</ele>
        <time>2014-12-14T09:57:47Z</time>
      </trkpt>
      <trkpt lat="44.63399" lon="0.90192">
        <ele>183.27</ele>
        <time>2014-12-14T09:57:59Z</time>
      </trkpt>
      <trkpt lat="44.63405" lon="0.90237">
        <ele>188.08</ele>
        <time>2014-12-14T09:58:11Z</time>
      </trkpt>
      <trkpt lat="44.6341" lon="0.90258">
        <ele>189.04</ele>
        <time>2014-12-14T09:58:16Z</time>
      </trkpt>
      <trkpt lat="44.6341" lon="0.90265">
        <ele>189.04</ele>
        <time>2014-12-14T09:58:18Z</time>
      </trkpt>
      <trkpt lat="44.6341" lon="0.90269">
        <ele>188.56</ele>
        <time>2014-12-14T09:58:19Z</time>
      </trkpt>
      <trkpt lat="44.63409" lon="0.90272">
        <ele>189.04</ele>
        <time>2014-12-14T09:58:20Z</time>
      </trkpt>
      <trkpt lat="44.63407" lon="0.90275">
        <ele>189.04</ele>
        <time>2014-12-14T09:58:21Z</time>
      </trkpt>
      <trkpt lat="44.63404" lon="0.90277">
        <ele>189.52</ele>
        <time>2014-12-14T09:58:22Z</time>
      </trkpt>
      <trkpt lat="44.63402" lon="0.9028">
        <ele>189.52</ele>
        <time>2014-12-14T09:58:23Z</time>
      </trkpt>
      <trkpt lat="44.63399" lon="0.90282">
        <ele>189.52</ele>
        <time>2014-12-14T09:58:24Z</time>
      </trkpt>
      <trkpt lat="44.63392" lon="0.90287">
        <ele>189.52</ele>
        <time>2014-12-14T09:58:28Z</time>
      </trkpt>
      <trkpt lat="44.63391" lon="0.90288">
        <ele>189.52</ele>
        <time>2014-12-14T09:58:29Z</time>
      </trkpt>
      <trkpt lat="44.6339" lon="0.90289">
        <ele>189.52</ele>
        <time>2014-12-14T09:58:30Z</time>
      </trkpt>
      <trkpt lat="44.6338" lon="0.90295">
        <ele>190</ele>
        <time>2014-12-14T09:58:38Z</time>
      </trkpt>
      <trkpt lat="44.63379" lon="0.90296">
        <ele>190</ele>
        <time>2014-12-14T09:58:39Z</time>
      </trkpt>
      <trkpt lat="44.63377" lon="0.90296">
        <ele>190</ele>
        <time>2014-12-14T09:58:40Z</time>
      </trkpt>
      <trkpt lat="44.63349" lon="0.90305">
        <ele>187.59</ele>
        <time>2014-12-14T09:58:56Z</time>
      </trkpt>
      <trkpt lat="44.63321" lon="0.90308">
        <ele>185.67</ele>
        <time>2014-12-14T09:59:12Z</time>
      </trkpt>
      <trkpt lat="44.63286" lon="0.90303">
        <ele>185.67</ele>
        <time>2014-12-14T09:59:27Z</time>
      </trkpt>
      <trkpt lat="44.63242" lon="0.90293">
        <ele>186.63</ele>
        <time>2014-12-14T09:59:41Z</time>
      </trkpt>
      <trkpt lat="44.63201" lon="0.90291">
        <ele>187.59</ele>
        <time>2014-12-14T09:59:55Z</time>
      </trkpt>
      <trkpt lat="44.63148" lon="0.90295">
        <ele>190</ele>
        <time>2014-12-14T10:00:10Z</time>
      </trkpt>
      <trkpt lat="44.6308" lon="0.90301">
        <ele>195.28</ele>
        <time>2014-12-14T10:00:29Z</time>
      </trkpt>
      <trkpt lat="44.63032" lon="0.90304">
        <ele>200.09</ele>
        <time>2014-12-14T10:00:44Z</time>
      </trkpt>
      <trkpt lat="44.6303" lon="0.90306">
        <ele>200.09</ele>
        <time>2014-12-14T10:00:45Z</time>
      </trkpt>
      <trkpt lat="44.63029" lon="0.90308">
        <ele>200.57</ele>
        <time>2014-12-14T10:00:46Z</time>
      </trkpt>
      <trkpt lat="44.63023" lon="0.9032">
        <ele>200.09</ele>
        <time>2014-12-14T10:00:49Z</time>
      </trkpt>
      <trkpt lat="44.63016" lon="0.90328">
        <ele>199.61</ele>
        <time>2014-12-14T10:00:51Z</time>
      </trkpt>
      <trkpt lat="44.63009" lon="0.90339">
        <ele>198.17</ele>
        <time>2014-12-14T10:00:53Z</time>
      </trkpt>
      <trkpt lat="44.62988" lon="0.90395">
        <ele>193.36</ele>
        <time>2014-12-14T10:01:00Z</time>
      </trkpt>
      <trkpt lat="44.62965" lon="0.90485">
        <ele>191.44</ele>
        <time>2014-12-14T10:01:13Z</time>
      </trkpt>
      <trkpt lat="44.62927" lon="0.90524">
        <ele>191.44</ele>
        <time>2014-12-14T10:01:23Z</time>
      </trkpt>
      <trkpt lat="44.62895" lon="0.90534">
        <ele>192.88</ele>
        <time>2014-12-14T10:01:33Z</time>
      </trkpt>
      <trkpt lat="44.62868" lon="0.9057">
        <ele>192.88</ele>
        <time>2014-12-14T10:01:46Z</time>
      </trkpt>
      <trkpt lat="44.62833" lon="0.90614">
        <ele>194.8</ele>
        <time>2014-12-14T10:02:00Z</time>
      </trkpt>
      <trkpt lat="44.62818" lon="0.90625">
        <ele>197.69</ele>
        <time>2014-12-14T10:02:05Z</time>
      </trkpt>
      <trkpt lat="44.628" lon="0.90667">
        <ele>203.94</ele>
        <time>2014-12-14T10:02:17Z</time>
      </trkpt>
      <trkpt lat="44.62786" lon="0.90716">
        <ele>207.3</ele>
        <time>2014-12-14T10:02:31Z</time>
      </trkpt>
      <trkpt lat="44.62779" lon="0.90736">
        <ele>209.7</ele>
        <time>2014-12-14T10:02:44Z</time>
      </trkpt>
      <trkpt lat="44.62778" lon="0.90741">
        <ele>210.19</ele>
        <time>2014-12-14T10:03:07Z</time>
      </trkpt>
      <trkpt lat="44.62777" lon="0.90747">
        <ele>208.74</ele>
        <time>2014-12-14T10:03:35Z</time>
      </trkpt>
      <trkpt lat="44.62779" lon="0.90745">
        <ele>211.63</ele>
        <time>2014-12-14T10:03:57Z</time>
      </trkpt>
      <trkpt lat="44.6278" lon="0.90742">
        <ele>210.67</ele>
        <time>2014-12-14T10:04:14Z</time>
      </trkpt>
      <trkpt lat="44.62777" lon="0.90737">
        <ele>207.3</ele>
        <time>2014-12-14T10:04:57Z</time>
      </trkpt>
      <trkpt lat="44.62774" lon="0.90742">
        <ele>208.26</ele>
        <time>2014-12-14T10:05:26Z</time>
      </trkpt>
      <trkpt lat="44.62777" lon="0.90737">
        <ele>208.74</ele>
        <time>2014-12-14T10:05:39Z</time>
      </trkpt>
      <trkpt lat="44.62779" lon="0.90738">
        <ele>208.26</ele>
        <time>2014-12-14T10:05:59Z</time>
      </trkpt>
      <trkpt lat="44.62778" lon="0.90741">
        <ele>208.74</ele>
        <time>2014-12-14T10:06:16Z</time>
      </trkpt>
      <trkpt lat="44.62777" lon="0.90748">
        <ele>208.74</ele>
        <time>2014-12-14T10:06:32Z</time>
      </trkpt>
      <trkpt lat="44.62762" lon="0.90786">
        <ele>211.15</ele>
        <time>2014-12-14T10:06:48Z</time>
      </trkpt>
      <trkpt lat="44.62737" lon="0.90811">
        <ele>214.99</ele>
        <time>2014-12-14T10:07:00Z</time>
      </trkpt>
      <trkpt lat="44.62728" lon="0.90819">
        <ele>216.43</ele>
        <time>2014-12-14T10:07:04Z</time>
      </trkpt>
      <trkpt lat="44.627" lon="0.90844">
        <ele>218.36</ele>
        <time>2014-12-14T10:07:14Z</time>
      </trkpt>
      <trkpt lat="44.62674" lon="0.90859">
        <ele>219.32</ele>
        <time>2014-12-14T10:07:23Z</time>
      </trkpt>
      <trkpt lat="44.62641" lon="0.90871">
        <ele>222.68</ele>
        <time>2014-12-14T10:07:34Z</time>
      </trkpt>
      <trkpt lat="44.62611" lon="0.90888">
        <ele>221.24</ele>
        <time>2014-12-14T10:07:44Z</time>
      </trkpt>
      <trkpt lat="44.62579" lon="0.9091">
        <ele>221.24</ele>
        <time>2014-12-14T10:07:55Z</time>
      </trkpt>
      <trkpt lat="44.62553" lon="0.90928">
        <ele>223.64</ele>
        <time>2014-12-14T10:08:05Z</time>
      </trkpt>
      <trkpt lat="44.6255" lon="0.90929">
        <ele>224.12</ele>
        <time>2014-12-14T10:08:06Z</time>
      </trkpt>
      <trkpt lat="44.62543" lon="0.90935">
        <ele>225.09</ele>
        <time>2014-12-14T10:08:10Z</time>
      </trkpt>
      <trkpt lat="44.62533" lon="0.90951">
        <ele>229.89</ele>
        <time>2014-12-14T10:08:28Z</time>
      </trkpt>
      <trkpt lat="44.62531" lon="0.90957">
        <ele>230.37</ele>
        <time>2014-12-14T10:08:50Z</time>
      </trkpt>
      <trkpt lat="44.62528" lon="0.90955">
        <ele>232.3</ele>
        <time>2014-12-14T10:09:06Z</time>
      </trkpt>
      <trkpt lat="44.62528" lon="0.90958">
        <ele>233.74</ele>
        <time>2014-12-14T10:09:18Z</time>
      </trkpt>
      <trkpt lat="44.6253" lon="0.90966">
        <ele>231.81</ele>
        <time>2014-12-14T10:09:36Z</time>
      </trkpt>
      <trkpt lat="44.6253" lon="0.90969">
        <ele>230.37</ele>
        <time>2014-12-14T10:09:40Z</time>
      </trkpt>
      <trkpt lat="44.62531" lon="0.90976">
        <ele>229.89</ele>
        <time>2014-12-14T10:09:44Z</time>
      </trkpt>
      <trkpt lat="44.6253" lon="0.90979">
        <ele>229.41</ele>
        <time>2014-12-14T10:09:46Z</time>
      </trkpt>
      <trkpt lat="44.62517" lon="0.91007">
        <ele>229.89</ele>
        <time>2014-12-14T10:09:58Z</time>
      </trkpt>
      <trkpt lat="44.625" lon="0.91041">
        <ele>234.22</ele>
        <time>2014-12-14T10:10:11Z</time>
      </trkpt>
      <trkpt lat="44.62477" lon="0.91061">
        <ele>236.14</ele>
        <time>2014-12-14T10:10:22Z</time>
      </trkpt>
      <trkpt lat="44.62457" lon="0.91079">
        <ele>237.58</ele>
        <time>2014-12-14T10:10:31Z</time>
      </trkpt>
      <trkpt lat="44.62451" lon="0.9109">
        <ele>238.54</ele>
        <time>2014-12-14T10:10:35Z</time>
      </trkpt>
      <trkpt lat="44.62449" lon="0.91107">
        <ele>239.51</ele>
        <time>2014-12-14T10:10:40Z</time>
      </trkpt>
      <trkpt lat="44.62448" lon="0.91152">
        <ele>236.62</ele>
        <time>2014-12-14T10:10:52Z</time>
      </trkpt>
      <trkpt lat="44.62452" lon="0.91168">
        <ele>236.62</ele>
        <time>2014-12-14T10:10:57Z</time>
      </trkpt>
      <trkpt lat="44.62442" lon="0.91211">
        <ele>238.06</ele>
        <time>2014-12-14T10:11:09Z</time>
      </trkpt>
      <trkpt lat="44.62416" lon="0.91249">
        <ele>240.47</ele>
        <time>2014-12-14T10:11:22Z</time>
      </trkpt>
      <trkpt lat="44.62404" lon="0.91263">
        <ele>240.95</ele>
        <time>2014-12-14T10:11:29Z</time>
      </trkpt>
      <trkpt lat="44.62396" lon="0.91262">
        <ele>240.47</ele>
        <time>2014-12-14T10:11:34Z</time>
      </trkpt>
      <trkpt lat="44.62371" lon="0.9122">
        <ele>241.43</ele>
        <time>2014-12-14T10:11:50Z</time>
      </trkpt>
      <trkpt lat="44.6235" lon="0.91178">
        <ele>242.39</ele>
        <time>2014-12-14T10:12:03Z</time>
      </trkpt>
      <trkpt lat="44.62314" lon="0.91124">
        <ele>240.47</ele>
        <time>2014-12-14T10:12:17Z</time>
      </trkpt>
      <trkpt lat="44.62269" lon="0.91055">
        <ele>239.02</ele>
        <time>2014-12-14T10:12:33Z</time>
      </trkpt>
      <trkpt lat="44.62235" lon="0.90984">
        <ele>236.62</ele>
        <time>2014-12-14T10:12:47Z</time>
      </trkpt>
      <trkpt lat="44.62232" lon="0.90973">
        <ele>236.14</ele>
        <time>2014-12-14T10:12:49Z</time>
      </trkpt>
      <trkpt lat="44.62225" lon="0.9095">
        <ele>236.14</ele>
        <time>2014-12-14T10:12:53Z</time>
      </trkpt>
      <trkpt lat="44.62215" lon="0.90914">
        <ele>237.1</ele>
        <time>2014-12-14T10:12:59Z</time>
      </trkpt>
      <trkpt lat="44.62212" lon="0.90902">
        <ele>237.1</ele>
        <time>2014-12-14T10:13:01Z</time>
      </trkpt>
      <trkpt lat="44.6221" lon="0.90889">
        <ele>237.1</ele>
        <time>2014-12-14T10:13:03Z</time>
      </trkpt>
      <trkpt lat="44.62199" lon="0.90799">
        <ele>239.51</ele>
        <time>2014-12-14T10:13:18Z</time>
      </trkpt>
      <trkpt lat="44.62197" lon="0.90787">
        <ele>239.99</ele>
        <time>2014-12-14T10:13:20Z</time>
      </trkpt>
      <trkpt lat="44.62188" lon="0.90756">
        <ele>240.47</ele>
        <time>2014-12-14T10:13:26Z</time>
      </trkpt>
      <trkpt lat="44.62189" lon="0.90752">
        <ele>240.47</ele>
        <time>2014-12-14T10:13:27Z</time>
      </trkpt>
      <trkpt lat="44.6219" lon="0.90748">
        <ele>240.47</ele>
        <time>2014-12-14T10:13:28Z</time>
      </trkpt>
      <trkpt lat="44.6219" lon="0.90743">
        <ele>240.47</ele>
        <time>2014-12-14T10:13:29Z</time>
      </trkpt>
      <trkpt lat="44.6219" lon="0.90739">
        <ele>239.99</ele>
        <time>2014-12-14T10:13:30Z</time>
      </trkpt>
      <trkpt lat="44.6219" lon="0.90734">
        <ele>239.99</ele>
        <time>2014-12-14T10:13:31Z</time>
      </trkpt>
      <trkpt lat="44.62191" lon="0.90728">
        <ele>239.51</ele>
        <time>2014-12-14T10:13:32Z</time>
      </trkpt>
      <trkpt lat="44.62192" lon="0.90724">
        <ele>239.51</ele>
        <time>2014-12-14T10:13:33Z</time>
      </trkpt>
      <trkpt lat="44.62201" lon="0.90674">
        <ele>234.7</ele>
        <time>2014-12-14T10:13:43Z</time>
      </trkpt>
      <trkpt lat="44.62214" lon="0.9061">
        <ele>231.81</ele>
        <time>2014-12-14T10:13:55Z</time>
      </trkpt>
      <trkpt lat="44.62222" lon="0.90552">
        <ele>230.85</ele>
        <time>2014-12-14T10:14:05Z</time>
      </trkpt>
      <trkpt lat="44.62225" lon="0.90539">
        <ele>231.33</ele>
        <time>2014-12-14T10:14:07Z</time>
      </trkpt>
      <trkpt lat="44.62226" lon="0.90532">
        <ele>231.33</ele>
        <time>2014-12-14T10:14:08Z</time>
      </trkpt>
      <trkpt lat="44.62231" lon="0.90505">
        <ele>230.37</ele>
        <time>2014-12-14T10:14:12Z</time>
      </trkpt>
      <trkpt lat="44.62232" lon="0.90499">
        <ele>229.89</ele>
        <time>2014-12-14T10:14:13Z</time>
      </trkpt>
      <trkpt lat="44.62233" lon="0.90492">
        <ele>229.41</ele>
        <time>2014-12-14T10:14:14Z</time>
      </trkpt>
      <trkpt lat="44.62234" lon="0.90485">
        <ele>228.93</ele>
        <time>2014-12-14T10:14:15Z</time>
      </trkpt>
      <trkpt lat="44.62235" lon="0.90478">
        <ele>228.45</ele>
        <time>2014-12-14T10:14:16Z</time>
      </trkpt>
      <trkpt lat="44.62238" lon="0.90465">
        <ele>227.01</ele>
        <time>2014-12-14T10:14:18Z</time>
      </trkpt>
      <trkpt lat="44.62239" lon="0.90458">
        <ele>226.05</ele>
        <time>2014-12-14T10:14:19Z</time>
      </trkpt>
      <trkpt lat="44.6224" lon="0.90451">
        <ele>225.09</ele>
        <time>2014-12-14T10:14:20Z</time>
      </trkpt>
      <trkpt lat="44.62242" lon="0.90437">
        <ele>223.16</ele>
        <time>2014-12-14T10:14:22Z</time>
      </trkpt>
      <trkpt lat="44.62244" lon="0.90431">
        <ele>222.68</ele>
        <time>2014-12-14T10:14:23Z</time>
      </trkpt>
      <trkpt lat="44.62246" lon="0.90417">
        <ele>221.24</ele>
        <time>2014-12-14T10:14:25Z</time>
      </trkpt>
      <trkpt lat="44.62247" lon="0.9041">
        <ele>221.24</ele>
        <time>2014-12-14T10:14:26Z</time>
      </trkpt>
      <trkpt lat="44.62252" lon="0.90388">
        <ele>220.28</ele>
        <time>2014-12-14T10:14:29Z</time>
      </trkpt>
      <trkpt lat="44.62253" lon="0.90381">
        <ele>219.8</ele>
        <time>2014-12-14T10:14:30Z</time>
      </trkpt>
      <trkpt lat="44.62255" lon="0.90374">
        <ele>219.32</ele>
        <time>2014-12-14T10:14:31Z</time>
      </trkpt>
      <trkpt lat="44.62263" lon="0.90346">
        <ele>218.84</ele>
        <time>2014-12-14T10:14:35Z</time>
      </trkpt>
      <trkpt lat="44.62271" lon="0.90325">
        <ele>218.84</ele>
        <time>2014-12-14T10:14:38Z</time>
      </trkpt>
      <trkpt lat="44.62273" lon="0.90319">
        <ele>218.84</ele>
        <time>2014-12-14T10:14:39Z</time>
      </trkpt>
      <trkpt lat="44.62278" lon="0.90306">
        <ele>218.36</ele>
        <time>2014-12-14T10:14:41Z</time>
      </trkpt>
      <trkpt lat="44.62291" lon="0.90269">
        <ele>218.84</ele>
        <time>2014-12-14T10:14:47Z</time>
      </trkpt>
      <trkpt lat="44.62294" lon="0.90262">
        <ele>218.36</ele>
        <time>2014-12-14T10:14:48Z</time>
      </trkpt>
      <trkpt lat="44.62299" lon="0.90248">
        <ele>217.88</ele>
        <time>2014-12-14T10:14:50Z</time>
      </trkpt>
      <trkpt lat="44.62303" lon="0.90233">
        <ele>217.88</ele>
        <time>2014-12-14T10:14:52Z</time>
      </trkpt>
      <trkpt lat="44.62315" lon="0.90196">
        <ele>216.91</ele>
        <time>2014-12-14T10:14:57Z</time>
      </trkpt>
      <trkpt lat="44.62325" lon="0.90167">
        <ele>215.95</ele>
        <time>2014-12-14T10:15:01Z</time>
      </trkpt>
      <trkpt lat="44.62327" lon="0.90158">
        <ele>215.47</ele>
        <time>2014-12-14T10:15:02Z</time>
      </trkpt>
      <trkpt lat="44.62341" lon="0.90114">
        <ele>214.03</ele>
        <time>2014-12-14T10:15:08Z</time>
      </trkpt>
      <trkpt lat="44.62344" lon="0.90108">
        <ele>213.55</ele>
        <time>2014-12-14T10:15:09Z</time>
      </trkpt>
      <trkpt lat="44.62347" lon="0.90102">
        <ele>213.55</ele>
        <time>2014-12-14T10:15:10Z</time>
      </trkpt>
      <trkpt lat="44.6235" lon="0.90096">
        <ele>213.55</ele>
        <time>2014-12-14T10:15:11Z</time>
      </trkpt>
      <trkpt lat="44.62353" lon="0.9009">
        <ele>213.55</ele>
        <time>2014-12-14T10:15:12Z</time>
      </trkpt>
      <trkpt lat="44.62357" lon="0.90085">
        <ele>213.55</ele>
        <time>2014-12-14T10:15:13Z</time>
      </trkpt>
      <trkpt lat="44.62395" lon="0.9004">
        <ele>214.99</ele>
        <time>2014-12-14T10:15:24Z</time>
      </trkpt>
      <trkpt lat="44.62429" lon="0.9">
        <ele>221.24</ele>
        <time>2014-12-14T10:15:36Z</time>
      </trkpt>
      <trkpt lat="44.62455" lon="0.89971">
        <ele>223.64</ele>
        <time>2014-12-14T10:15:46Z</time>
      </trkpt>
      <trkpt lat="44.62483" lon="0.89937">
        <ele>225.57</ele>
        <time>2014-12-14T10:15:56Z</time>
      </trkpt>
      <trkpt lat="44.62495" lon="0.89925">
        <ele>227.49</ele>
        <time>2014-12-14T10:16:02Z</time>
      </trkpt>
      <trkpt lat="44.62497" lon="0.89925">
        <ele>227.97</ele>
        <time>2014-12-14T10:16:03Z</time>
      </trkpt>
      <trkpt lat="44.62499" lon="0.89926">
        <ele>227.97</ele>
        <time>2014-12-14T10:16:04Z</time>
      </trkpt>
      <trkpt lat="44.62501" lon="0.89927">
        <ele>227.97</ele>
        <time>2014-12-14T10:16:05Z</time>
      </trkpt>
      <trkpt lat="44.62503" lon="0.89928">
        <ele>227.97</ele>
        <time>2014-12-14T10:16:06Z</time>
      </trkpt>
      <trkpt lat="44.62529" lon="0.89935">
        <ele>227.01</ele>
        <time>2014-12-14T10:16:20Z</time>
      </trkpt>
      <trkpt lat="44.62553" lon="0.89942">
        <ele>226.05</ele>
        <time>2014-12-14T10:16:34Z</time>
      </trkpt>
      <trkpt lat="44.62555" lon="0.89944">
        <ele>226.05</ele>
        <time>2014-12-14T10:16:35Z</time>
      </trkpt>
      <trkpt lat="44.62556" lon="0.89944">
        <ele>226.05</ele>
        <time>2014-12-14T10:16:36Z</time>
      </trkpt>
      <trkpt lat="44.62585" lon="0.89955">
        <ele>224.61</ele>
        <time>2014-12-14T10:16:50Z</time>
      </trkpt>
      <trkpt lat="44.62634" lon="0.89972">
        <ele>223.16</ele>
        <time>2014-12-14T10:17:04Z</time>
      </trkpt>
      <trkpt lat="44.62638" lon="0.89974">
        <ele>223.16</ele>
        <time>2014-12-14T10:17:05Z</time>
      </trkpt>
      <trkpt lat="44.62642" lon="0.89976">
        <ele>223.16</ele>
        <time>2014-12-14T10:17:06Z</time>
      </trkpt>
      <trkpt lat="44.62646" lon="0.89977">
        <ele>223.16</ele>
        <time>2014-12-14T10:17:07Z</time>
      </trkpt>
      <trkpt lat="44.62649" lon="0.89976">
        <ele>222.68</ele>
        <time>2014-12-14T10:17:08Z</time>
      </trkpt>
      <trkpt lat="44.62652" lon="0.89973">
        <ele>222.68</ele>
        <time>2014-12-14T10:17:09Z</time>
      </trkpt>
      <trkpt lat="44.62654" lon="0.8996">
        <ele>222.2</ele>
        <time>2014-12-14T10:17:12Z</time>
      </trkpt>
      <trkpt lat="44.62642" lon="0.89913">
        <ele>221.72</ele>
        <time>2014-12-14T10:17:21Z</time>
      </trkpt>
      <trkpt lat="44.6263" lon="0.8985">
        <ele>222.2</ele>
        <time>2014-12-14T10:17:33Z</time>
      </trkpt>
      <trkpt lat="44.62642" lon="0.898">
        <ele>222.2</ele>
        <time>2014-12-14T10:17:43Z</time>
      </trkpt>
      <trkpt lat="44.6267" lon="0.89748">
        <ele>223.16</ele>
        <time>2014-12-14T10:17:55Z</time>
      </trkpt>
      <trkpt lat="44.62674" lon="0.89739">
        <ele>222.2</ele>
        <time>2014-12-14T10:17:57Z</time>
      </trkpt>
      <trkpt lat="44.62689" lon="0.8972">
        <ele>222.2</ele>
        <time>2014-12-14T10:18:01Z</time>
      </trkpt>
      <trkpt lat="44.62702" lon="0.89688">
        <ele>221.24</ele>
        <time>2014-12-14T10:18:06Z</time>
      </trkpt>
      <trkpt lat="44.62718" lon="0.89629">
        <ele>221.24</ele>
        <time>2014-12-14T10:18:16Z</time>
      </trkpt>
      <trkpt lat="44.62734" lon="0.89576">
        <ele>219.32</ele>
        <time>2014-12-14T10:18:28Z</time>
      </trkpt>
      <trkpt lat="44.62759" lon="0.89554">
        <ele>219.8</ele>
        <time>2014-12-14T10:18:38Z</time>
      </trkpt>
      <trkpt lat="44.62777" lon="0.89522">
        <ele>217.4</ele>
        <time>2014-12-14T10:18:49Z</time>
      </trkpt>
      <trkpt lat="44.62794" lon="0.89475">
        <ele>215.47</ele>
        <time>2014-12-14T10:19:00Z</time>
      </trkpt>
      <trkpt lat="44.62805" lon="0.89443">
        <ele>213.07</ele>
        <time>2014-12-14T10:19:08Z</time>
      </trkpt>
      <trkpt lat="44.62809" lon="0.89423">
        <ele>213.07</ele>
        <time>2014-12-14T10:19:13Z</time>
      </trkpt>
      <trkpt lat="44.62812" lon="0.89412">
        <ele>213.07</ele>
        <time>2014-12-14T10:19:16Z</time>
      </trkpt>
      <trkpt lat="44.62828" lon="0.89386">
        <ele>211.63</ele>
        <time>2014-12-14T10:19:23Z</time>
      </trkpt>
      <trkpt lat="44.62842" lon="0.89365">
        <ele>211.63</ele>
        <time>2014-12-14T10:19:28Z</time>
      </trkpt>
      <trkpt lat="44.62858" lon="0.89326">
        <ele>214.51</ele>
        <time>2014-12-14T10:19:38Z</time>
      </trkpt>
      <trkpt lat="44.62879" lon="0.89299">
        <ele>217.4</ele>
        <time>2014-12-14T10:19:48Z</time>
      </trkpt>
      <trkpt lat="44.62911" lon="0.89268">
        <ele>220.76</ele>
        <time>2014-12-14T10:20:02Z</time>
      </trkpt>
      <trkpt lat="44.62918" lon="0.89226">
        <ele>215.47</ele>
        <time>2014-12-14T10:20:11Z</time>
      </trkpt>
      <trkpt lat="44.62916" lon="0.89214">
        <ele>213.55</ele>
        <time>2014-12-14T10:20:16Z</time>
      </trkpt>
      <trkpt lat="44.62911" lon="0.89205">
        <ele>213.07</ele>
        <time>2014-12-14T10:20:30Z</time>
      </trkpt>
      <trkpt lat="44.62913" lon="0.89199">
        <ele>214.51</ele>
        <time>2014-12-14T10:20:43Z</time>
      </trkpt>
      <trkpt lat="44.62913" lon="0.89193">
        <ele>215.47</ele>
        <time>2014-12-14T10:20:55Z</time>
      </trkpt>
      <trkpt lat="44.62912" lon="0.89178">
        <ele>213.55</ele>
        <time>2014-12-14T10:21:02Z</time>
      </trkpt>
      <trkpt lat="44.62907" lon="0.8915">
        <ele>210.19</ele>
        <time>2014-12-14T10:21:10Z</time>
      </trkpt>
      <trkpt lat="44.62908" lon="0.89123">
        <ele>208.74</ele>
        <time>2014-12-14T10:21:16Z</time>
      </trkpt>
      <trkpt lat="44.62909" lon="0.89077">
        <ele>206.82</ele>
        <time>2014-12-14T10:21:26Z</time>
      </trkpt>
      <trkpt lat="44.62906" lon="0.89062">
        <ele>205.38</ele>
        <time>2014-12-14T10:21:30Z</time>
      </trkpt>
      <trkpt lat="44.62904" lon="0.89034">
        <ele>201.05</ele>
        <time>2014-12-14T10:21:40Z</time>
      </trkpt>
      <trkpt lat="44.62904" lon="0.8903">
        <ele>200.09</ele>
        <time>2014-12-14T10:21:47Z</time>
      </trkpt>
      <trkpt lat="44.62902" lon="0.8902">
        <ele>198.17</ele>
        <time>2014-12-14T10:21:53Z</time>
      </trkpt>
      <trkpt lat="44.62916" lon="0.89002">
        <ele>195.28</ele>
        <time>2014-12-14T10:22:03Z</time>
      </trkpt>
      <trkpt lat="44.62921" lon="0.88998">
        <ele>194.32</ele>
        <time>2014-12-14T10:22:06Z</time>
      </trkpt>
      <trkpt lat="44.62926" lon="0.8899">
        <ele>193.36</ele>
        <time>2014-12-14T10:22:10Z</time>
      </trkpt>
      <trkpt lat="44.62931" lon="0.88982">
        <ele>191.44</ele>
        <time>2014-12-14T10:22:15Z</time>
      </trkpt>
      <trkpt lat="44.62939" lon="0.88965">
        <ele>189.04</ele>
        <time>2014-12-14T10:22:24Z</time>
      </trkpt>
      <trkpt lat="44.62939" lon="0.88961">
        <ele>185.67</ele>
        <time>2014-12-14T10:22:34Z</time>
      </trkpt>
      <trkpt lat="44.62941" lon="0.88955">
        <ele>182.79</ele>
        <time>2014-12-14T10:22:47Z</time>
      </trkpt>
      <trkpt lat="44.6294" lon="0.88952">
        <ele>180.87</ele>
        <time>2014-12-14T10:23:01Z</time>
      </trkpt>
      <trkpt lat="44.62939" lon="0.88951">
        <ele>180.38</ele>
        <time>2014-12-14T10:23:34Z</time>
      </trkpt>
      <trkpt lat="44.62938" lon="0.88952">
        <ele>179.9</ele>
        <time>2014-12-14T10:23:39Z</time>
      </trkpt>
      <trkpt lat="44.6293" lon="0.88943">
        <ele>179.42</ele>
        <time>2014-12-14T10:23:50Z</time>
      </trkpt>
      <trkpt lat="44.62921" lon="0.88935">
        <ele>179.42</ele>
        <time>2014-12-14T10:23:55Z</time>
      </trkpt>
      <trkpt lat="44.62884" lon="0.88932">
        <ele>179.42</ele>
        <time>2014-12-14T10:24:08Z</time>
      </trkpt>
      <trkpt lat="44.6286" lon="0.88929">
        <ele>180.38</ele>
        <time>2014-12-14T10:24:18Z</time>
      </trkpt>
      <trkpt lat="44.62844" lon="0.88943">
        <ele>180.38</ele>
        <time>2014-12-14T10:24:28Z</time>
      </trkpt>
      <trkpt lat="44.62842" lon="0.88944">
        <ele>179.9</ele>
        <time>2014-12-14T10:24:39Z</time>
      </trkpt>
      <trkpt lat="44.62832" lon="0.88956">
        <ele>181.35</ele>
        <time>2014-12-14T10:24:55Z</time>
      </trkpt>
      <trkpt lat="44.62825" lon="0.88964">
        <ele>182.31</ele>
        <time>2014-12-14T10:24:59Z</time>
      </trkpt>
      <trkpt lat="44.62817" lon="0.88965">
        <ele>182.31</ele>
        <time>2014-12-14T10:25:04Z</time>
      </trkpt>
      <trkpt lat="44.62805" lon="0.88946">
        <ele>185.67</ele>
        <time>2014-12-14T10:25:18Z</time>
      </trkpt>
      <trkpt lat="44.62801" lon="0.8894">
        <ele>186.15</ele>
        <time>2014-12-14T10:25:31Z</time>
      </trkpt>
      <trkpt lat="44.62798" lon="0.88938">
        <ele>187.11</ele>
        <time>2014-12-14T10:25:37Z</time>
      </trkpt>
      <trkpt lat="44.62794" lon="0.88934">
        <ele>187.11</ele>
        <time>2014-12-14T10:25:41Z</time>
      </trkpt>
      <trkpt lat="44.62774" lon="0.88908">
        <ele>189.52</ele>
        <time>2014-12-14T10:25:54Z</time>
      </trkpt>
      <trkpt lat="44.62768" lon="0.88903">
        <ele>191.44</ele>
        <time>2014-12-14T10:25:58Z</time>
      </trkpt>
      <trkpt lat="44.62758" lon="0.88907">
        <ele>190.48</ele>
        <time>2014-12-14T10:26:05Z</time>
      </trkpt>
      <trkpt lat="44.62747" lon="0.88917">
        <ele>189.04</ele>
        <time>2014-12-14T10:26:15Z</time>
      </trkpt>
      <trkpt lat="44.6274" lon="0.88919">
        <ele>187.59</ele>
        <time>2014-12-14T10:26:20Z</time>
      </trkpt>
      <trkpt lat="44.62727" lon="0.88901">
        <ele>188.56</ele>
        <time>2014-12-14T10:26:30Z</time>
      </trkpt>
      <trkpt lat="44.62717" lon="0.88891">
        <ele>190.48</ele>
        <time>2014-12-14T10:26:44Z</time>
      </trkpt>
      <trkpt lat="44.62716" lon="0.88888">
        <ele>190.48</ele>
        <time>2014-12-14T10:27:06Z</time>
      </trkpt>
      <trkpt lat="44.62716" lon="0.88887">
        <ele>190.96</ele>
        <time>2014-12-14T10:27:10Z</time>
      </trkpt>
      <trkpt lat="44.62723" lon="0.88894">
        <ele>190</ele>
        <time>2014-12-14T10:27:21Z</time>
      </trkpt>
      <trkpt lat="44.62722" lon="0.88898">
        <ele>188.08</ele>
        <time>2014-12-14T10:27:42Z</time>
      </trkpt>
      <trkpt lat="44.62722" lon="0.88896">
        <ele>189.04</ele>
        <time>2014-12-14T10:28:00Z</time>
      </trkpt>
      <trkpt lat="44.62716" lon="0.88885">
        <ele>188.56</ele>
        <time>2014-12-14T10:28:10Z</time>
      </trkpt>
      <trkpt lat="44.62716" lon="0.88873">
        <ele>186.15</ele>
        <time>2014-12-14T10:28:29Z</time>
      </trkpt>
      <trkpt lat="44.62713" lon="0.88869">
        <ele>184.23</ele>
        <time>2014-12-14T10:28:43Z</time>
      </trkpt>
      <trkpt lat="44.62711" lon="0.88859">
        <ele>188.08</ele>
        <time>2014-12-14T10:28:56Z</time>
      </trkpt>
      <trkpt lat="44.6271" lon="0.88849">
        <ele>189.52</ele>
        <time>2014-12-14T10:29:20Z</time>
      </trkpt>
      <trkpt lat="44.6271" lon="0.88848">
        <ele>189.04</ele>
        <time>2014-12-14T10:29:21Z</time>
      </trkpt>
      <trkpt lat="44.62712" lon="0.88837">
        <ele>188.08</ele>
        <time>2014-12-14T10:29:27Z</time>
      </trkpt>
      <trkpt lat="44.62715" lon="0.88792">
        <ele>186.15</ele>
        <time>2014-12-14T10:29:42Z</time>
      </trkpt>
      <trkpt lat="44.62713" lon="0.88779">
        <ele>185.19</ele>
        <time>2014-12-14T10:29:46Z</time>
      </trkpt>
      <trkpt lat="44.62708" lon="0.8877">
        <ele>185.67</ele>
        <time>2014-12-14T10:29:50Z</time>
      </trkpt>
      <trkpt lat="44.627" lon="0.88762">
        <ele>186.15</ele>
        <time>2014-12-14T10:29:56Z</time>
      </trkpt>
      <trkpt lat="44.62686" lon="0.88753">
        <ele>185.19</ele>
        <time>2014-12-14T10:30:06Z</time>
      </trkpt>
      <trkpt lat="44.62664" lon="0.88732">
        <ele>186.63</ele>
        <time>2014-12-14T10:30:20Z</time>
      </trkpt>
      <trkpt lat="44.62651" lon="0.88727">
        <ele>187.11</ele>
        <time>2014-12-14T10:30:28Z</time>
      </trkpt>
      <trkpt lat="44.62648" lon="0.88734">
        <ele>187.59</ele>
        <time>2014-12-14T10:30:33Z</time>
      </trkpt>
      <trkpt lat="44.62658" lon="0.88771">
        <ele>188.08</ele>
        <time>2014-12-14T10:30:47Z</time>
      </trkpt>
      <trkpt lat="44.62665" lon="0.88806">
        <ele>190.96</ele>
        <time>2014-12-14T10:31:00Z</time>
      </trkpt>
      <trkpt lat="44.6266" lon="0.88855">
        <ele>191.92</ele>
        <time>2014-12-14T10:31:16Z</time>
      </trkpt>
      <trkpt lat="44.62641" lon="0.889">
        <ele>195.77</ele>
        <time>2014-12-14T10:31:33Z</time>
      </trkpt>
      <trkpt lat="44.62624" lon="0.88939">
        <ele>197.21</ele>
        <time>2014-12-14T10:31:46Z</time>
      </trkpt>
      <trkpt lat="44.62597" lon="0.89004">
        <ele>202.01</ele>
        <time>2014-12-14T10:32:04Z</time>
      </trkpt>
      <trkpt lat="44.62566" lon="0.89058">
        <ele>201.53</ele>
        <time>2014-12-14T10:32:20Z</time>
      </trkpt>
      <trkpt lat="44.62513" lon="0.89115">
        <ele>202.49</ele>
        <time>2014-12-14T10:32:38Z</time>
      </trkpt>
      <trkpt lat="44.62503" lon="0.89122">
        <ele>202.49</ele>
        <time>2014-12-14T10:32:41Z</time>
      </trkpt>
      <trkpt lat="44.625" lon="0.89121">
        <ele>202.49</ele>
        <time>2014-12-14T10:32:42Z</time>
      </trkpt>
      <trkpt lat="44.62496" lon="0.89119">
        <ele>202.49</ele>
        <time>2014-12-14T10:32:43Z</time>
      </trkpt>
      <trkpt lat="44.62459" lon="0.89088">
        <ele>201.05</ele>
        <time>2014-12-14T10:32:56Z</time>
      </trkpt>
      <trkpt lat="44.62453" lon="0.8908">
        <ele>201.53</ele>
        <time>2014-12-14T10:33:06Z</time>
      </trkpt>
      <trkpt lat="44.62454" lon="0.89084">
        <ele>201.53</ele>
        <time>2014-12-14T10:33:18Z</time>
      </trkpt>
      <trkpt lat="44.62455" lon="0.89084">
        <ele>202.01</ele>
        <time>2014-12-14T10:33:19Z</time>
      </trkpt>
      <trkpt lat="44.62456" lon="0.89085">
        <ele>202.01</ele>
        <time>2014-12-14T10:33:20Z</time>
      </trkpt>
      <trkpt lat="44.62458" lon="0.89086">
        <ele>202.01</ele>
        <time>2014-12-14T10:33:21Z</time>
      </trkpt>
      <trkpt lat="44.62459" lon="0.89088">
        <ele>202.01</ele>
        <time>2014-12-14T10:33:22Z</time>
      </trkpt>
      <trkpt lat="44.6246" lon="0.89089">
        <ele>202.01</ele>
        <time>2014-12-14T10:33:23Z</time>
      </trkpt>
      <trkpt lat="44.62462" lon="0.89089">
        <ele>202.49</ele>
        <time>2014-12-14T10:33:24Z</time>
      </trkpt>
      <trkpt lat="44.62463" lon="0.89089">
        <ele>202.49</ele>
        <time>2014-12-14T10:33:25Z</time>
      </trkpt>
      <trkpt lat="44.6246" lon="0.89082">
        <ele>203.46</ele>
        <time>2014-12-14T10:33:29Z</time>
      </trkpt>
      <trkpt lat="44.62458" lon="0.89081">
        <ele>203.46</ele>
        <time>2014-12-14T10:33:30Z</time>
      </trkpt>
      <trkpt lat="44.62455" lon="0.8908">
        <ele>203.46</ele>
        <time>2014-12-14T10:33:31Z</time>
      </trkpt>
      <trkpt lat="44.62453" lon="0.89076">
        <ele>203.46</ele>
        <time>2014-12-14T10:33:32Z</time>
      </trkpt>
      <trkpt lat="44.62452" lon="0.89071">
        <ele>202.98</ele>
        <time>2014-12-14T10:33:33Z</time>
      </trkpt>
      <trkpt lat="44.62465" lon="0.89033">
        <ele>199.13</ele>
        <time>2014-12-14T10:33:38Z</time>
      </trkpt>
      <trkpt lat="44.6248" lon="0.89011">
        <ele>197.21</ele>
        <time>2014-12-14T10:33:41Z</time>
      </trkpt>
      <trkpt lat="44.62477" lon="0.88983">
        <ele>193.36</ele>
        <time>2014-12-14T10:33:47Z</time>
      </trkpt>
      <trkpt lat="44.62472" lon="0.8898">
        <ele>192.88</ele>
        <time>2014-12-14T10:33:48Z</time>
      </trkpt>
      <trkpt lat="44.62451" lon="0.88964">
        <ele>191.92</ele>
        <time>2014-12-14T10:33:53Z</time>
      </trkpt>
      <trkpt lat="44.62435" lon="0.8895">
        <ele>191.44</ele>
        <time>2014-12-14T10:33:57Z</time>
      </trkpt>
      <trkpt lat="44.62397" lon="0.8891">
        <ele>192.88</ele>
        <time>2014-12-14T10:34:09Z</time>
      </trkpt>
      <trkpt lat="44.62384" lon="0.88901">
        <ele>193.84</ele>
        <time>2014-12-14T10:34:14Z</time>
      </trkpt>
      <trkpt lat="44.62377" lon="0.889">
        <ele>192.4</ele>
        <time>2014-12-14T10:34:28Z</time>
      </trkpt>
      <trkpt lat="44.62375" lon="0.88899">
        <ele>192.4</ele>
        <time>2014-12-14T10:34:49Z</time>
      </trkpt>
      <trkpt lat="44.62341" lon="0.88885">
        <ele>189.04</ele>
        <time>2014-12-14T10:34:59Z</time>
      </trkpt>
      <trkpt lat="44.62297" lon="0.8887">
        <ele>183.27</ele>
        <time>2014-12-14T10:35:06Z</time>
      </trkpt>
      <trkpt lat="44.62265" lon="0.88819">
        <ele>178.94</ele>
        <time>2014-12-14T10:35:13Z</time>
      </trkpt>
      <trkpt lat="44.62268" lon="0.88809">
        <ele>178.94</ele>
        <time>2014-12-14T10:35:15Z</time>
      </trkpt>
      <trkpt lat="44.62269" lon="0.88805">
        <ele>178.94</ele>
        <time>2014-12-14T10:35:16Z</time>
      </trkpt>
      <trkpt lat="44.6227" lon="0.88802">
        <ele>179.42</ele>
        <time>2014-12-14T10:35:17Z</time>
      </trkpt>
      <trkpt lat="44.62271" lon="0.8876">
        <ele>183.75</ele>
        <time>2014-12-14T10:35:29Z</time>
      </trkpt>
      <trkpt lat="44.62271" lon="0.88757">
        <ele>184.23</ele>
        <time>2014-12-14T10:35:30Z</time>
      </trkpt>
      <trkpt lat="44.62267" lon="0.8875">
        <ele>185.67</ele>
        <time>2014-12-14T10:35:34Z</time>
      </trkpt>
      <trkpt lat="44.62235" lon="0.88746">
        <ele>189.04</ele>
        <time>2014-12-14T10:35:49Z</time>
      </trkpt>
      <trkpt lat="44.62233" lon="0.88745">
        <ele>189.04</ele>
        <time>2014-12-14T10:35:50Z</time>
      </trkpt>
      <trkpt lat="44.62225" lon="0.88726">
        <ele>188.08</ele>
        <time>2014-12-14T10:35:57Z</time>
      </trkpt>
      <trkpt lat="44.62208" lon="0.88711">
        <ele>186.63</ele>
        <time>2014-12-14T10:36:08Z</time>
      </trkpt>
      <trkpt lat="44.62203" lon="0.88709">
        <ele>191.44</ele>
        <time>2014-12-14T10:36:32Z</time>
      </trkpt>
      <trkpt lat="44.62204" lon="0.88711">
        <ele>190.96</ele>
        <time>2014-12-14T10:36:37Z</time>
      </trkpt>
      <trkpt lat="44.62205" lon="0.88747">
        <ele>193.36</ele>
        <time>2014-12-14T10:36:50Z</time>
      </trkpt>
      <trkpt lat="44.62203" lon="0.88759">
        <ele>193.84</ele>
        <time>2014-12-14T10:36:53Z</time>
      </trkpt>
      <trkpt lat="44.6218" lon="0.88766">
        <ele>196.25</ele>
        <time>2014-12-14T10:37:05Z</time>
      </trkpt>
      <trkpt lat="44.62155" lon="0.88764">
        <ele>199.61</ele>
        <time>2014-12-14T10:37:18Z</time>
      </trkpt>
      <trkpt lat="44.62124" lon="0.88778">
        <ele>202.49</ele>
        <time>2014-12-14T10:37:34Z</time>
      </trkpt>
      <trkpt lat="44.62105" lon="0.888">
        <ele>203.94</ele>
        <time>2014-12-14T10:37:46Z</time>
      </trkpt>
      <trkpt lat="44.6208" lon="0.88821">
        <ele>207.3</ele>
        <time>2014-12-14T10:38:01Z</time>
      </trkpt>
      <trkpt lat="44.62058" lon="0.88828">
        <ele>210.19</ele>
        <time>2014-12-14T10:38:14Z</time>
      </trkpt>
      <trkpt lat="44.6204" lon="0.88851">
        <ele>213.55</ele>
        <time>2014-12-14T10:38:26Z</time>
      </trkpt>
      <trkpt lat="44.62038" lon="0.88856">
        <ele>214.03</ele>
        <time>2014-12-14T10:38:28Z</time>
      </trkpt>
      <trkpt lat="44.62008" lon="0.88869">
        <ele>215.47</ele>
        <time>2014-12-14T10:38:43Z</time>
      </trkpt>
      <trkpt lat="44.61987" lon="0.88885">
        <ele>217.88</ele>
        <time>2014-12-14T10:38:54Z</time>
      </trkpt>
      <trkpt lat="44.61977" lon="0.88899">
        <ele>219.32</ele>
        <time>2014-12-14T10:39:01Z</time>
      </trkpt>
      <trkpt lat="44.61964" lon="0.88938">
        <ele>220.28</ele>
        <time>2014-12-14T10:39:17Z</time>
      </trkpt>
      <trkpt lat="44.61965" lon="0.88978">
        <ele>222.68</ele>
        <time>2014-12-14T10:39:32Z</time>
      </trkpt>
      <trkpt lat="44.61966" lon="0.88985">
        <ele>222.68</ele>
        <time>2014-12-14T10:39:44Z</time>
      </trkpt>
      <trkpt lat="44.61966" lon="0.88989">
        <ele>224.12</ele>
        <time>2014-12-14T10:40:03Z</time>
      </trkpt>
      <trkpt lat="44.6196" lon="0.88998">
        <ele>224.12</ele>
        <time>2014-12-14T10:40:08Z</time>
      </trkpt>
      <trkpt lat="44.61937" lon="0.89019">
        <ele>221.72</ele>
        <time>2014-12-14T10:40:17Z</time>
      </trkpt>
      <trkpt lat="44.61886" lon="0.89071">
        <ele>217.4</ele>
        <time>2014-12-14T10:40:28Z</time>
      </trkpt>
      <trkpt lat="44.61867" lon="0.89066">
        <ele>214.51</ele>
        <time>2014-12-14T10:40:35Z</time>
      </trkpt>
      <trkpt lat="44.61865" lon="0.89061">
        <ele>214.03</ele>
        <time>2014-12-14T10:40:36Z</time>
      </trkpt>
      <trkpt lat="44.61844" lon="0.89023">
        <ele>211.63</ele>
        <time>2014-12-14T10:40:44Z</time>
      </trkpt>
      <trkpt lat="44.61829" lon="0.8903">
        <ele>210.67</ele>
        <time>2014-12-14T10:40:50Z</time>
      </trkpt>
      <trkpt lat="44.61821" lon="0.89035">
        <ele>210.19</ele>
        <time>2014-12-14T10:40:53Z</time>
      </trkpt>
      <trkpt lat="44.61785" lon="0.88998">
        <ele>206.82</ele>
        <time>2014-12-14T10:41:06Z</time>
      </trkpt>
      <trkpt lat="44.61746" lon="0.88949">
        <ele>202.98</ele>
        <time>2014-12-14T10:41:17Z</time>
      </trkpt>
      <trkpt lat="44.61731" lon="0.88929">
        <ele>202.01</ele>
        <time>2014-12-14T10:41:21Z</time>
      </trkpt>
      <trkpt lat="44.61708" lon="0.88921">
        <ele>202.49</ele>
        <time>2014-12-14T10:41:28Z</time>
      </trkpt>
      <trkpt lat="44.61701" lon="0.88932">
        <ele>203.46</ele>
        <time>2014-12-14T10:41:31Z</time>
      </trkpt>
      <trkpt lat="44.6169" lon="0.88946">
        <ele>203.46</ele>
        <time>2014-12-14T10:41:35Z</time>
      </trkpt>
      <trkpt lat="44.6168" lon="0.88986">
        <ele>201.53</ele>
        <time>2014-12-14T10:41:44Z</time>
      </trkpt>
      <trkpt lat="44.61674" lon="0.89057">
        <ele>203.94</ele>
        <time>2014-12-14T10:41:56Z</time>
      </trkpt>
      <trkpt lat="44.61667" lon="0.8909">
        <ele>205.86</ele>
        <time>2014-12-14T10:42:06Z</time>
      </trkpt>
      <trkpt lat="44.61641" lon="0.89092">
        <ele>203.94</ele>
        <time>2014-12-14T10:42:16Z</time>
      </trkpt>
      <trkpt lat="44.61617" lon="0.8909">
        <ele>201.53</ele>
        <time>2014-12-14T10:42:21Z</time>
      </trkpt>
      <trkpt lat="44.61578" lon="0.89097">
        <ele>197.21</ele>
        <time>2014-12-14T10:42:27Z</time>
      </trkpt>
      <trkpt lat="44.61556" lon="0.8911">
        <ele>193.84</ele>
        <time>2014-12-14T10:42:31Z</time>
      </trkpt>
      <trkpt lat="44.6155" lon="0.8911">
        <ele>193.36</ele>
        <time>2014-12-14T10:42:33Z</time>
      </trkpt>
      <trkpt lat="44.61549" lon="0.89108">
        <ele>193.36</ele>
        <time>2014-12-14T10:42:34Z</time>
      </trkpt>
      <trkpt lat="44.61548" lon="0.89105">
        <ele>193.36</ele>
        <time>2014-12-14T10:42:35Z</time>
      </trkpt>
      <trkpt lat="44.61547" lon="0.89102">
        <ele>193.36</ele>
        <time>2014-12-14T10:42:36Z</time>
      </trkpt>
      <trkpt lat="44.61544" lon="0.89097">
        <ele>194.8</ele>
        <time>2014-12-14T10:42:47Z</time>
      </trkpt>
      <trkpt lat="44.61543" lon="0.89094">
        <ele>196.73</ele>
        <time>2014-12-14T10:43:05Z</time>
      </trkpt>
      <trkpt lat="44.61543" lon="0.89092">
        <ele>196.73</ele>
        <time>2014-12-14T10:43:06Z</time>
      </trkpt>
      <trkpt lat="44.61542" lon="0.89089">
        <ele>196.73</ele>
        <time>2014-12-14T10:43:07Z</time>
      </trkpt>
      <trkpt lat="44.61541" lon="0.89086">
        <ele>197.21</ele>
        <time>2014-12-14T10:43:08Z</time>
      </trkpt>
      <trkpt lat="44.6154" lon="0.89082">
        <ele>197.21</ele>
        <time>2014-12-14T10:43:09Z</time>
      </trkpt>
      <trkpt lat="44.61539" lon="0.89078">
        <ele>197.69</ele>
        <time>2014-12-14T10:43:10Z</time>
      </trkpt>
      <trkpt lat="44.61517" lon="0.89023">
        <ele>198.65</ele>
        <time>2014-12-14T10:43:24Z</time>
      </trkpt>
      <trkpt lat="44.61502" lon="0.89003">
        <ele>197.69</ele>
        <time>2014-12-14T10:43:29Z</time>
      </trkpt>
      <trkpt lat="44.61493" lon="0.88995">
        <ele>197.69</ele>
        <time>2014-12-14T10:43:31Z</time>
      </trkpt>
      <trkpt lat="44.61489" lon="0.88991">
        <ele>197.69</ele>
        <time>2014-12-14T10:43:32Z</time>
      </trkpt>
      <trkpt lat="44.61475" lon="0.88978">
        <ele>198.17</ele>
        <time>2014-12-14T10:43:35Z</time>
      </trkpt>
      <trkpt lat="44.6147" lon="0.88973">
        <ele>198.17</ele>
        <time>2014-12-14T10:43:36Z</time>
      </trkpt>
      <trkpt lat="44.61399" lon="0.88921">
        <ele>194.32</ele>
        <time>2014-12-14T10:43:50Z</time>
      </trkpt>
      <trkpt lat="44.61384" lon="0.88908">
        <ele>193.36</ele>
        <time>2014-12-14T10:43:53Z</time>
      </trkpt>
      <trkpt lat="44.61304" lon="0.88824">
        <ele>189.52</ele>
        <time>2014-12-14T10:44:09Z</time>
      </trkpt>
      <trkpt lat="44.61218" lon="0.88753">
        <ele>189.52</ele>
        <time>2014-12-14T10:44:24Z</time>
      </trkpt>
      <trkpt lat="44.61152" lon="0.88687">
        <ele>187.11</ele>
        <time>2014-12-14T10:44:37Z</time>
      </trkpt>
      <trkpt lat="44.61147" lon="0.88683">
        <ele>186.63</ele>
        <time>2014-12-14T10:44:38Z</time>
      </trkpt>
      <trkpt lat="44.61142" lon="0.88679">
        <ele>186.63</ele>
        <time>2014-12-14T10:44:39Z</time>
      </trkpt>
      <trkpt lat="44.61122" lon="0.88667">
        <ele>186.63</ele>
        <time>2014-12-14T10:44:43Z</time>
      </trkpt>
      <trkpt lat="44.61117" lon="0.88663">
        <ele>186.63</ele>
        <time>2014-12-14T10:44:44Z</time>
      </trkpt>
      <trkpt lat="44.61112" lon="0.88658">
        <ele>186.63</ele>
        <time>2014-12-14T10:44:45Z</time>
      </trkpt>
      <trkpt lat="44.61051" lon="0.88587">
        <ele>185.19</ele>
        <time>2014-12-14T10:44:57Z</time>
      </trkpt>
      <trkpt lat="44.61033" lon="0.88563">
        <ele>187.11</ele>
        <time>2014-12-14T10:45:01Z</time>
      </trkpt>
      <trkpt lat="44.61029" lon="0.88555">
        <ele>187.59</ele>
        <time>2014-12-14T10:45:02Z</time>
      </trkpt>
      <trkpt lat="44.61004" lon="0.88511">
        <ele>191.44</ele>
        <time>2014-12-14T10:45:13Z</time>
      </trkpt>
      <trkpt lat="44.61004" lon="0.88508">
        <ele>191.92</ele>
        <time>2014-12-14T10:45:14Z</time>
      </trkpt>
      <trkpt lat="44.61005" lon="0.88505">
        <ele>191.92</ele>
        <time>2014-12-14T10:45:15Z</time>
      </trkpt>
      <trkpt lat="44.61006" lon="0.88499">
        <ele>192.88</ele>
        <time>2014-12-14T10:45:17Z</time>
      </trkpt>
      <trkpt lat="44.61005" lon="0.88496">
        <ele>193.36</ele>
        <time>2014-12-14T10:45:18Z</time>
      </trkpt>
      <trkpt lat="44.61005" lon="0.88493">
        <ele>193.36</ele>
        <time>2014-12-14T10:45:19Z</time>
      </trkpt>
      <trkpt lat="44.61004" lon="0.88491">
        <ele>193.36</ele>
        <time>2014-12-14T10:45:20Z</time>
      </trkpt>
      <trkpt lat="44.61003" lon="0.88489">
        <ele>193.84</ele>
        <time>2014-12-14T10:45:21Z</time>
      </trkpt>
      <trkpt lat="44.60995" lon="0.88472">
        <ele>194.8</ele>
        <time>2014-12-14T10:45:29Z</time>
      </trkpt>
      <trkpt lat="44.60987" lon="0.88461">
        <ele>195.28</ele>
        <time>2014-12-14T10:45:33Z</time>
      </trkpt>
      <trkpt lat="44.60966" lon="0.88429">
        <ele>199.13</ele>
        <time>2014-12-14T10:45:42Z</time>
      </trkpt>
      <trkpt lat="44.60961" lon="0.88419">
        <ele>201.05</ele>
        <time>2014-12-14T10:45:45Z</time>
      </trkpt>
      <trkpt lat="44.60949" lon="0.88412">
        <ele>202.49</ele>
        <time>2014-12-14T10:45:50Z</time>
      </trkpt>
      <trkpt lat="44.60942" lon="0.88405">
        <ele>203.46</ele>
        <time>2014-12-14T10:45:55Z</time>
      </trkpt>
      <trkpt lat="44.6094" lon="0.88391">
        <ele>204.42</ele>
        <time>2014-12-14T10:46:01Z</time>
      </trkpt>
      <trkpt lat="44.60923" lon="0.88366">
        <ele>205.38</ele>
        <time>2014-12-14T10:46:12Z</time>
      </trkpt>
      <trkpt lat="44.60884" lon="0.88354">
        <ele>204.9</ele>
        <time>2014-12-14T10:46:22Z</time>
      </trkpt>
      <trkpt lat="44.60854" lon="0.88348">
        <ele>204.42</ele>
        <time>2014-12-14T10:46:31Z</time>
      </trkpt>
      <trkpt lat="44.60852" lon="0.88348">
        <ele>204.42</ele>
        <time>2014-12-14T10:46:32Z</time>
      </trkpt>
      <trkpt lat="44.60846" lon="0.88334">
        <ele>205.38</ele>
        <time>2014-12-14T10:46:37Z</time>
      </trkpt>
      <trkpt lat="44.60844" lon="0.88324">
        <ele>204.9</ele>
        <time>2014-12-14T10:46:39Z</time>
      </trkpt>
      <trkpt lat="44.60841" lon="0.88289">
        <ele>204.42</ele>
        <time>2014-12-14T10:46:43Z</time>
      </trkpt>
      <trkpt lat="44.60841" lon="0.88267">
        <ele>204.42</ele>
        <time>2014-12-14T10:46:45Z</time>
      </trkpt>
      <trkpt lat="44.60841" lon="0.88195">
        <ele>203.46</ele>
        <time>2014-12-14T10:46:52Z</time>
      </trkpt>
      <trkpt lat="44.60832" lon="0.88159">
        <ele>202.01</ele>
        <time>2014-12-14T10:46:56Z</time>
      </trkpt>
      <trkpt lat="44.60813" lon="0.88159">
        <ele>199.13</ele>
        <time>2014-12-14T10:47:00Z</time>
      </trkpt>
      <trkpt lat="44.608" lon="0.88164">
        <ele>197.69</ele>
        <time>2014-12-14T10:47:02Z</time>
      </trkpt>
      <trkpt lat="44.60763" lon="0.88158">
        <ele>195.28</ele>
        <time>2014-12-14T10:47:07Z</time>
      </trkpt>
      <trkpt lat="44.60735" lon="0.88146">
        <ele>194.8</ele>
        <time>2014-12-14T10:47:11Z</time>
      </trkpt>
      <trkpt lat="44.60682" lon="0.88113">
        <ele>191.92</ele>
        <time>2014-12-14T10:47:18Z</time>
      </trkpt>
      <trkpt lat="44.60653" lon="0.88061">
        <ele>190</ele>
        <time>2014-12-14T10:47:23Z</time>
      </trkpt>
      <trkpt lat="44.60617" lon="0.8798">
        <ele>185.67</ele>
        <time>2014-12-14T10:47:30Z</time>
      </trkpt>
      <trkpt lat="44.60605" lon="0.87942">
        <ele>184.23</ele>
        <time>2014-12-14T10:47:33Z</time>
      </trkpt>
      <trkpt lat="44.60592" lon="0.87903">
        <ele>181.83</ele>
        <time>2014-12-14T10:47:37Z</time>
      </trkpt>
      <trkpt lat="44.6059" lon="0.87883">
        <ele>181.35</ele>
        <time>2014-12-14T10:47:44Z</time>
      </trkpt>
      <trkpt lat="44.60592" lon="0.8788">
        <ele>182.31</ele>
        <time>2014-12-14T10:48:01Z</time>
      </trkpt>
      <trkpt lat="44.60593" lon="0.8788">
        <ele>183.27</ele>
        <time>2014-12-14T10:48:19Z</time>
      </trkpt>
      <trkpt lat="44.60593" lon="0.87881">
        <ele>182.79</ele>
        <time>2014-12-14T10:48:42Z</time>
      </trkpt>
      <trkpt lat="44.60615" lon="0.87838">
        <ele>180.38</ele>
        <time>2014-12-14T10:48:54Z</time>
      </trkpt>
      <trkpt lat="44.60623" lon="0.87823">
        <ele>179.42</ele>
        <time>2014-12-14T10:48:57Z</time>
      </trkpt>
      <trkpt lat="44.60642" lon="0.87794">
        <ele>176.54</ele>
        <time>2014-12-14T10:49:03Z</time>
      </trkpt>
      <trkpt lat="44.60645" lon="0.8779">
        <ele>176.06</ele>
        <time>2014-12-14T10:49:04Z</time>
      </trkpt>
      <trkpt lat="44.60649" lon="0.87788">
        <ele>175.58</ele>
        <time>2014-12-14T10:49:05Z</time>
      </trkpt>
      <trkpt lat="44.60654" lon="0.87787">
        <ele>174.62</ele>
        <time>2014-12-14T10:49:06Z</time>
      </trkpt>
      <trkpt lat="44.60659" lon="0.87785">
        <ele>174.14</ele>
        <time>2014-12-14T10:49:07Z</time>
      </trkpt>
      <trkpt lat="44.60664" lon="0.87784">
        <ele>173.66</ele>
        <time>2014-12-14T10:49:08Z</time>
      </trkpt>
      <trkpt lat="44.60669" lon="0.87781">
        <ele>173.66</ele>
        <time>2014-12-14T10:49:09Z</time>
      </trkpt>
      <trkpt lat="44.60673" lon="0.87777">
        <ele>173.17</ele>
        <time>2014-12-14T10:49:10Z</time>
      </trkpt>
      <trkpt lat="44.60678" lon="0.87772">
        <ele>172.69</ele>
        <time>2014-12-14T10:49:11Z</time>
      </trkpt>
      <trkpt lat="44.60681" lon="0.87765">
        <ele>171.73</ele>
        <time>2014-12-14T10:49:12Z</time>
      </trkpt>
      <trkpt lat="44.60684" lon="0.87756">
        <ele>170.77</ele>
        <time>2014-12-14T10:49:13Z</time>
      </trkpt>
      <trkpt lat="44.60687" lon="0.87746">
        <ele>169.81</ele>
        <time>2014-12-14T10:49:14Z</time>
      </trkpt>
      <trkpt lat="44.60718" lon="0.87643">
        <ele>163.08</ele>
        <time>2014-12-14T10:49:23Z</time>
      </trkpt>
      <trkpt lat="44.60722" lon="0.87635">
        <ele>163.08</ele>
        <time>2014-12-14T10:49:24Z</time>
      </trkpt>
      <trkpt lat="44.60739" lon="0.8761">
        <ele>165</ele>
        <time>2014-12-14T10:49:29Z</time>
      </trkpt>
      <trkpt lat="44.60756" lon="0.87606">
        <ele>163.56</ele>
        <time>2014-12-14T10:49:33Z</time>
      </trkpt>
      <trkpt lat="44.60791" lon="0.876">
        <ele>161.16</ele>
        <time>2014-12-14T10:49:39Z</time>
      </trkpt>
      <trkpt lat="44.60828" lon="0.87574">
        <ele>159.24</ele>
        <time>2014-12-14T10:49:46Z</time>
      </trkpt>
      <trkpt lat="44.60852" lon="0.87552">
        <ele>156.83</ele>
        <time>2014-12-14T10:49:50Z</time>
      </trkpt>
      <trkpt lat="44.60871" lon="0.87483">
        <ele>152.99</ele>
        <time>2014-12-14T10:49:57Z</time>
      </trkpt>
      <trkpt lat="44.60874" lon="0.87461">
        <ele>152.51</ele>
        <time>2014-12-14T10:50:05Z</time>
      </trkpt>
      <trkpt lat="44.60888" lon="0.87409">
        <ele>153.47</ele>
        <time>2014-12-14T10:50:18Z</time>
      </trkpt>
      <trkpt lat="44.60912" lon="0.87378">
        <ele>154.91</ele>
        <time>2014-12-14T10:50:26Z</time>
      </trkpt>
      <trkpt lat="44.60947" lon="0.8733">
        <ele>159.24</ele>
        <time>2014-12-14T10:50:35Z</time>
      </trkpt>
      <trkpt lat="44.60961" lon="0.87305">
        <ele>159.72</ele>
        <time>2014-12-14T10:50:39Z</time>
      </trkpt>
      <trkpt lat="44.60986" lon="0.87263">
        <ele>162.6</ele>
        <time>2014-12-14T10:50:50Z</time>
      </trkpt>
      <trkpt lat="44.60993" lon="0.87252">
        <ele>163.08</ele>
        <time>2014-12-14T10:50:53Z</time>
      </trkpt>
      <trkpt lat="44.61014" lon="0.87208">
        <ele>160.68</ele>
        <time>2014-12-14T10:51:03Z</time>
      </trkpt>
      <trkpt lat="44.6104" lon="0.87152">
        <ele>160.2</ele>
        <time>2014-12-14T10:51:15Z</time>
      </trkpt>
      <trkpt lat="44.61049" lon="0.87148">
        <ele>162.12</ele>
        <time>2014-12-14T10:51:19Z</time>
      </trkpt>
      <trkpt lat="44.61079" lon="0.87166">
        <ele>166.45</ele>
        <time>2014-12-14T10:51:33Z</time>
      </trkpt>
      <trkpt lat="44.61102" lon="0.87179">
        <ele>172.69</ele>
        <time>2014-12-14T10:51:47Z</time>
      </trkpt>
      <trkpt lat="44.6113" lon="0.87196">
        <ele>175.1</ele>
        <time>2014-12-14T10:52:01Z</time>
      </trkpt>
      <trkpt lat="44.61152" lon="0.87209">
        <ele>178.46</ele>
        <time>2014-12-14T10:52:15Z</time>
      </trkpt>
      <trkpt lat="44.61189" lon="0.87233">
        <ele>178.46</ele>
        <time>2014-12-14T10:52:27Z</time>
      </trkpt>
      <trkpt lat="44.61201" lon="0.87241">
        <ele>178.46</ele>
        <time>2014-12-14T10:52:30Z</time>
      </trkpt>
      <trkpt lat="44.6122" lon="0.87258">
        <ele>178.94</ele>
        <time>2014-12-14T10:52:35Z</time>
      </trkpt>
      <trkpt lat="44.61241" lon="0.87272">
        <ele>179.42</ele>
        <time>2014-12-14T10:52:40Z</time>
      </trkpt>
      <trkpt lat="44.6125" lon="0.87278">
        <ele>178.46</ele>
        <time>2014-12-14T10:52:42Z</time>
      </trkpt>
      <trkpt lat="44.61278" lon="0.87282">
        <ele>177.5</ele>
        <time>2014-12-14T10:52:48Z</time>
      </trkpt>
      <trkpt lat="44.6133" lon="0.87266">
        <ele>175.1</ele>
        <time>2014-12-14T10:53:00Z</time>
      </trkpt>
      <trkpt lat="44.61353" lon="0.87265">
        <ele>175.58</ele>
        <time>2014-12-14T10:53:04Z</time>
      </trkpt>
      <trkpt lat="44.61408" lon="0.8729">
        <ele>178.94</ele>
        <time>2014-12-14T10:53:17Z</time>
      </trkpt>
      <trkpt lat="44.61427" lon="0.87294">
        <ele>177.98</ele>
        <time>2014-12-14T10:53:21Z</time>
      </trkpt>
      <trkpt lat="44.61444" lon="0.87295">
        <ele>176.54</ele>
        <time>2014-12-14T10:53:24Z</time>
      </trkpt>
      <trkpt lat="44.61496" lon="0.87312">
        <ele>172.21</ele>
        <time>2014-12-14T10:53:34Z</time>
      </trkpt>
      <trkpt lat="44.61501" lon="0.87314">
        <ele>172.21</ele>
        <time>2014-12-14T10:53:35Z</time>
      </trkpt>
      <trkpt lat="44.61505" lon="0.87316">
        <ele>172.21</ele>
        <time>2014-12-14T10:53:36Z</time>
      </trkpt>
      <trkpt lat="44.6151" lon="0.87318">
        <ele>172.21</ele>
        <time>2014-12-14T10:53:37Z</time>
      </trkpt>
      <trkpt lat="44.61515" lon="0.8732">
        <ele>172.21</ele>
        <time>2014-12-14T10:53:38Z</time>
      </trkpt>
      <trkpt lat="44.6158" lon="0.87359">
        <ele>172.21</ele>
        <time>2014-12-14T10:53:53Z</time>
      </trkpt>
      <trkpt lat="44.61584" lon="0.87361">
        <ele>172.21</ele>
        <time>2014-12-14T10:53:54Z</time>
      </trkpt>
      <trkpt lat="44.61593" lon="0.87364">
        <ele>172.21</ele>
        <time>2014-12-14T10:53:56Z</time>
      </trkpt>
      <trkpt lat="44.61597" lon="0.87365">
        <ele>172.69</ele>
        <time>2014-12-14T10:53:57Z</time>
      </trkpt>
      <trkpt lat="44.61601" lon="0.87366">
        <ele>172.69</ele>
        <time>2014-12-14T10:53:58Z</time>
      </trkpt>
      <trkpt lat="44.61604" lon="0.87368">
        <ele>172.69</ele>
        <time>2014-12-14T10:53:59Z</time>
      </trkpt>
      <trkpt lat="44.61607" lon="0.87372">
        <ele>172.21</ele>
        <time>2014-12-14T10:54:00Z</time>
      </trkpt>
      <trkpt lat="44.61611" lon="0.87375">
        <ele>172.21</ele>
        <time>2014-12-14T10:54:01Z</time>
      </trkpt>
      <trkpt lat="44.61615" lon="0.87378">
        <ele>171.73</ele>
        <time>2014-12-14T10:54:02Z</time>
      </trkpt>
      <trkpt lat="44.61674" lon="0.87413">
        <ele>167.41</ele>
        <time>2014-12-14T10:54:11Z</time>
      </trkpt>
      <trkpt lat="44.6168" lon="0.87417">
        <ele>167.41</ele>
        <time>2014-12-14T10:54:12Z</time>
      </trkpt>
      <trkpt lat="44.61697" lon="0.87432">
        <ele>167.41</ele>
        <time>2014-12-14T10:54:15Z</time>
      </trkpt>
      <trkpt lat="44.61712" lon="0.87447">
        <ele>168.37</ele>
        <time>2014-12-14T10:54:18Z</time>
      </trkpt>
      <trkpt lat="44.61738" lon="0.87456">
        <ele>169.81</ele>
        <time>2014-12-14T10:54:23Z</time>
      </trkpt>
      <trkpt lat="44.61773" lon="0.87457">
        <ele>173.17</ele>
        <time>2014-12-14T10:54:32Z</time>
      </trkpt>
      <trkpt lat="44.618" lon="0.87461">
        <ele>176.54</ele>
        <time>2014-12-14T10:54:40Z</time>
      </trkpt>
      <trkpt lat="44.61804" lon="0.8746">
        <ele>177.5</ele>
        <time>2014-12-14T10:54:42Z</time>
      </trkpt>
      <trkpt lat="44.61814" lon="0.87451">
        <ele>179.42</ele>
        <time>2014-12-14T10:54:47Z</time>
      </trkpt>
      <trkpt lat="44.61827" lon="0.87439">
        <ele>181.35</ele>
        <time>2014-12-14T10:54:53Z</time>
      </trkpt>
      <trkpt lat="44.6184" lon="0.87431">
        <ele>184.23</ele>
        <time>2014-12-14T10:54:59Z</time>
      </trkpt>
      <trkpt lat="44.61859" lon="0.87413">
        <ele>190.48</ele>
        <time>2014-12-14T10:55:08Z</time>
      </trkpt>
      <trkpt lat="44.61884" lon="0.87392">
        <ele>194.32</ele>
        <time>2014-12-14T10:55:18Z</time>
      </trkpt>
      <trkpt lat="44.61929" lon="0.87381">
        <ele>199.13</ele>
        <time>2014-12-14T10:55:30Z</time>
      </trkpt>
      <trkpt lat="44.61968" lon="0.87398">
        <ele>204.9</ele>
        <time>2014-12-14T10:55:42Z</time>
      </trkpt>
      <trkpt lat="44.62003" lon="0.87411">
        <ele>202.49</ele>
        <time>2014-12-14T10:55:52Z</time>
      </trkpt>
      <trkpt lat="44.62026" lon="0.87413">
        <ele>200.57</ele>
        <time>2014-12-14T10:55:57Z</time>
      </trkpt>
      <trkpt lat="44.62048" lon="0.87419">
        <ele>199.61</ele>
        <time>2014-12-14T10:56:01Z</time>
      </trkpt>
      <trkpt lat="44.62075" lon="0.87428">
        <ele>197.69</ele>
        <time>2014-12-14T10:56:06Z</time>
      </trkpt>
      <trkpt lat="44.62124" lon="0.87424">
        <ele>192.88</ele>
        <time>2014-12-14T10:56:18Z</time>
      </trkpt>
      <trkpt lat="44.62131" lon="0.87425">
        <ele>192.88</ele>
        <time>2014-12-14T10:56:21Z</time>
      </trkpt>
      <trkpt lat="44.62164" lon="0.87427">
        <ele>192.88</ele>
        <time>2014-12-14T10:56:31Z</time>
      </trkpt>
      <trkpt lat="44.6218" lon="0.87426">
        <ele>192.88</ele>
        <time>2014-12-14T10:56:34Z</time>
      </trkpt>
      <trkpt lat="44.62196" lon="0.87427">
        <ele>192.88</ele>
        <time>2014-12-14T10:56:37Z</time>
      </trkpt>
      <trkpt lat="44.62239" lon="0.8744">
        <ele>193.36</ele>
        <time>2014-12-14T10:56:47Z</time>
      </trkpt>
      <trkpt lat="44.62282" lon="0.87455">
        <ele>193.36</ele>
        <time>2014-12-14T10:56:58Z</time>
      </trkpt>
      <trkpt lat="44.62309" lon="0.87468">
        <ele>190.48</ele>
        <time>2014-12-14T10:57:06Z</time>
      </trkpt>
      <trkpt lat="44.62321" lon="0.87469">
        <ele>184.23</ele>
        <time>2014-12-14T10:57:18Z</time>
      </trkpt>
      <trkpt lat="44.62323" lon="0.87471">
        <ele>182.31</ele>
        <time>2014-12-14T10:57:24Z</time>
      </trkpt>
      <trkpt lat="44.62347" lon="0.87493">
        <ele>180.38</ele>
        <time>2014-12-14T10:57:33Z</time>
      </trkpt>
      <trkpt lat="44.62351" lon="0.87504">
        <ele>180.38</ele>
        <time>2014-12-14T10:57:35Z</time>
      </trkpt>
      <trkpt lat="44.62364" lon="0.87521">
        <ele>179.9</ele>
        <time>2014-12-14T10:57:39Z</time>
      </trkpt>
      <trkpt lat="44.62405" lon="0.87565">
        <ele>181.83</ele>
        <time>2014-12-14T10:57:50Z</time>
      </trkpt>
      <trkpt lat="44.62407" lon="0.87601">
        <ele>181.35</ele>
        <time>2014-12-14T10:57:59Z</time>
      </trkpt>
      <trkpt lat="44.62401" lon="0.87611">
        <ele>181.35</ele>
        <time>2014-12-14T10:58:04Z</time>
      </trkpt>
      <trkpt lat="44.6237" lon="0.87628">
        <ele>180.87</ele>
        <time>2014-12-14T10:58:15Z</time>
      </trkpt>
      <trkpt lat="44.6232" lon="0.87673">
        <ele>178.94</ele>
        <time>2014-12-14T10:58:30Z</time>
      </trkpt>
      <trkpt lat="44.62264" lon="0.87732">
        <ele>175.58</ele>
        <time>2014-12-14T10:58:44Z</time>
      </trkpt>
      <trkpt lat="44.62167" lon="0.87833">
        <ele>170.77</ele>
        <time>2014-12-14T10:59:02Z</time>
      </trkpt>
      <trkpt lat="44.62107" lon="0.87882">
        <ele>168.37</ele>
        <time>2014-12-14T10:59:12Z</time>
      </trkpt>
      <trkpt lat="44.62101" lon="0.87883">
        <ele>167.89</ele>
        <time>2014-12-14T10:59:13Z</time>
      </trkpt>
      <trkpt lat="44.62094" lon="0.87884">
        <ele>167.41</ele>
        <time>2014-12-14T10:59:14Z</time>
      </trkpt>
      <trkpt lat="44.62074" lon="0.87883">
        <ele>166.45</ele>
        <time>2014-12-14T10:59:17Z</time>
      </trkpt>
      <trkpt lat="44.62067" lon="0.8788">
        <ele>165.96</ele>
        <time>2014-12-14T10:59:18Z</time>
      </trkpt>
      <trkpt lat="44.61992" lon="0.8785">
        <ele>163.56</ele>
        <time>2014-12-14T10:59:30Z</time>
      </trkpt>
      <trkpt lat="44.61988" lon="0.87851">
        <ele>163.56</ele>
        <time>2014-12-14T10:59:31Z</time>
      </trkpt>
      <trkpt lat="44.61986" lon="0.87854">
        <ele>163.08</ele>
        <time>2014-12-14T10:59:32Z</time>
      </trkpt>
      <trkpt lat="44.61986" lon="0.87863">
        <ele>162.6</ele>
        <time>2014-12-14T10:59:34Z</time>
      </trkpt>
      <trkpt lat="44.61987" lon="0.87868">
        <ele>162.6</ele>
        <time>2014-12-14T10:59:35Z</time>
      </trkpt>
      <trkpt lat="44.61989" lon="0.87873">
        <ele>163.08</ele>
        <time>2014-12-14T10:59:36Z</time>
      </trkpt>
      <trkpt lat="44.61992" lon="0.87879">
        <ele>163.08</ele>
        <time>2014-12-14T10:59:37Z</time>
      </trkpt>
      <trkpt lat="44.62009" lon="0.87921">
        <ele>164.52</ele>
        <time>2014-12-14T10:59:45Z</time>
      </trkpt>
      <trkpt lat="44.62032" lon="0.87988">
        <ele>168.85</ele>
        <time>2014-12-14T10:59:57Z</time>
      </trkpt>
      <trkpt lat="44.62041" lon="0.8805">
        <ele>173.66</ele>
        <time>2014-12-14T11:00:07Z</time>
      </trkpt>
      <trkpt lat="44.62055" lon="0.88069">
        <ele>175.1</ele>
        <time>2014-12-14T11:00:11Z</time>
      </trkpt>
      <trkpt lat="44.62072" lon="0.88106">
        <ele>176.54</ele>
        <time>2014-12-14T11:00:19Z</time>
      </trkpt>
      <trkpt lat="44.62088" lon="0.88137">
        <ele>176.54</ele>
        <time>2014-12-14T11:00:28Z</time>
      </trkpt>
      <trkpt lat="44.62109" lon="0.88198">
        <ele>178.46</ele>
        <time>2014-12-14T11:00:39Z</time>
      </trkpt>
      <trkpt lat="44.62125" lon="0.88253">
        <ele>177.98</ele>
        <time>2014-12-14T11:00:49Z</time>
      </trkpt>
      <trkpt lat="44.62125" lon="0.88259">
        <ele>177.5</ele>
        <time>2014-12-14T11:00:50Z</time>
      </trkpt>
      <trkpt lat="44.62126" lon="0.88271">
        <ele>177.5</ele>
        <time>2014-12-14T11:00:52Z</time>
      </trkpt>
      <trkpt lat="44.62142" lon="0.88299">
        <ele>177.02</ele>
        <time>2014-12-14T11:00:58Z</time>
      </trkpt>
      <trkpt lat="44.62177" lon="0.88316">
        <ele>176.54</ele>
        <time>2014-12-14T11:01:05Z</time>
      </trkpt>
      <trkpt lat="44.62216" lon="0.88311">
        <ele>176.06</ele>
        <time>2014-12-14T11:01:13Z</time>
      </trkpt>
      <trkpt lat="44.62225" lon="0.88314">
        <ele>176.06</ele>
        <time>2014-12-14T11:01:15Z</time>
      </trkpt>
      <trkpt lat="44.62236" lon="0.8832">
        <ele>175.58</ele>
        <time>2014-12-14T11:01:18Z</time>
      </trkpt>
      <trkpt lat="44.62264" lon="0.88302">
        <ele>171.25</ele>
        <time>2014-12-14T11:01:26Z</time>
      </trkpt>
      <trkpt lat="44.62287" lon="0.88294">
        <ele>169.33</ele>
        <time>2014-12-14T11:01:31Z</time>
      </trkpt>
      <trkpt lat="44.62345" lon="0.88288">
        <ele>169.33</ele>
        <time>2014-12-14T11:01:46Z</time>
      </trkpt>
      <trkpt lat="44.62348" lon="0.88285">
        <ele>169.33</ele>
        <time>2014-12-14T11:01:47Z</time>
      </trkpt>
      <trkpt lat="44.62357" lon="0.88266">
        <ele>169.33</ele>
        <time>2014-12-14T11:01:51Z</time>
      </trkpt>
      <trkpt lat="44.62392" lon="0.88202">
        <ele>173.17</ele>
        <time>2014-12-14T11:02:06Z</time>
      </trkpt>
      <trkpt lat="44.62401" lon="0.88193">
        <ele>174.62</ele>
        <time>2014-12-14T11:02:10Z</time>
      </trkpt>
      <trkpt lat="44.62408" lon="0.88208">
        <ele>175.58</ele>
        <time>2014-12-14T11:02:16Z</time>
      </trkpt>
      <trkpt lat="44.62433" lon="0.88239">
        <ele>174.62</ele>
        <time>2014-12-14T11:02:27Z</time>
      </trkpt>
      <trkpt lat="44.6246" lon="0.88226">
        <ele>174.62</ele>
        <time>2014-12-14T11:02:38Z</time>
      </trkpt>
      <trkpt lat="44.62476" lon="0.88199">
        <ele>176.54</ele>
        <time>2014-12-14T11:02:47Z</time>
      </trkpt>
      <trkpt lat="44.62493" lon="0.88202">
        <ele>177.98</ele>
        <time>2014-12-14T11:02:56Z</time>
      </trkpt>
      <trkpt lat="44.6252" lon="0.88219">
        <ele>183.27</ele>
        <time>2014-12-14T11:03:12Z</time>
      </trkpt>
      <trkpt lat="44.62543" lon="0.88225">
        <ele>185.67</ele>
        <time>2014-12-14T11:03:26Z</time>
      </trkpt>
      <trkpt lat="44.62566" lon="0.88214">
        <ele>187.11</ele>
        <time>2014-12-14T11:03:38Z</time>
      </trkpt>
      <trkpt lat="44.62593" lon="0.88198">
        <ele>188.08</ele>
        <time>2014-12-14T11:03:53Z</time>
      </trkpt>
      <trkpt lat="44.62617" lon="0.88182">
        <ele>191.44</ele>
        <time>2014-12-14T11:04:07Z</time>
      </trkpt>
      <trkpt lat="44.6264" lon="0.88163">
        <ele>193.36</ele>
        <time>2014-12-14T11:04:20Z</time>
      </trkpt>
      <trkpt lat="44.62658" lon="0.88131">
        <ele>196.25</ele>
        <time>2014-12-14T11:04:34Z</time>
      </trkpt>
      <trkpt lat="44.62671" lon="0.88091">
        <ele>198.17</ele>
        <time>2014-12-14T11:04:47Z</time>
      </trkpt>
      <trkpt lat="44.62684" lon="0.88057">
        <ele>197.69</ele>
        <time>2014-12-14T11:04:57Z</time>
      </trkpt>
      <trkpt lat="44.62721" lon="0.88015">
        <ele>194.8</ele>
        <time>2014-12-14T11:05:09Z</time>
      </trkpt>
      <trkpt lat="44.62725" lon="0.8801">
        <ele>194.32</ele>
        <time>2014-12-14T11:05:10Z</time>
      </trkpt>
      <trkpt lat="44.62736" lon="0.87996">
        <ele>193.36</ele>
        <time>2014-12-14T11:05:13Z</time>
      </trkpt>
      <trkpt lat="44.62786" lon="0.87934">
        <ele>190.48</ele>
        <time>2014-12-14T11:05:25Z</time>
      </trkpt>
      <trkpt lat="44.62817" lon="0.87886">
        <ele>194.32</ele>
        <time>2014-12-14T11:05:39Z</time>
      </trkpt>
      <trkpt lat="44.62827" lon="0.87877">
        <ele>195.77</ele>
        <time>2014-12-14T11:05:44Z</time>
      </trkpt>
      <trkpt lat="44.6285" lon="0.8789">
        <ele>197.69</ele>
        <time>2014-12-14T11:05:56Z</time>
      </trkpt>
      <trkpt lat="44.62868" lon="0.87903">
        <ele>199.13</ele>
        <time>2014-12-14T11:06:06Z</time>
      </trkpt>
      <trkpt lat="44.62877" lon="0.87901">
        <ele>201.05</ele>
        <time>2014-12-14T11:06:11Z</time>
      </trkpt>
      <trkpt lat="44.62883" lon="0.87899">
        <ele>200.57</ele>
        <time>2014-12-14T11:06:25Z</time>
      </trkpt>
      <trkpt lat="44.62884" lon="0.87899">
        <ele>200.57</ele>
        <time>2014-12-14T11:06:46Z</time>
      </trkpt>
      <trkpt lat="44.62885" lon="0.87899">
        <ele>200.57</ele>
        <time>2014-12-14T11:07:06Z</time>
      </trkpt>
      <trkpt lat="44.62887" lon="0.87898">
        <ele>202.98</ele>
        <time>2014-12-14T11:07:33Z</time>
      </trkpt>
      <trkpt lat="44.62887" lon="0.87898">
        <ele>202.49</ele>
        <time>2014-12-14T11:07:49Z</time>
      </trkpt>
      <trkpt lat="44.62904" lon="0.87887">
        <ele>202.49</ele>
        <time>2014-12-14T11:08:00Z</time>
      </trkpt>
      <trkpt lat="44.62945" lon="0.87856">
        <ele>202.49</ele>
        <time>2014-12-14T11:08:16Z</time>
      </trkpt>
      <trkpt lat="44.62956" lon="0.87827">
        <ele>201.05</ele>
        <time>2014-12-14T11:08:25Z</time>
      </trkpt>
      <trkpt lat="44.62959" lon="0.87826">
        <ele>201.05</ele>
        <time>2014-12-14T11:08:26Z</time>
      </trkpt>
      <trkpt lat="44.62963" lon="0.87826">
        <ele>201.53</ele>
        <time>2014-12-14T11:08:27Z</time>
      </trkpt>
      <trkpt lat="44.62966" lon="0.87826">
        <ele>201.53</ele>
        <time>2014-12-14T11:08:28Z</time>
      </trkpt>
      <trkpt lat="44.62969" lon="0.87827">
        <ele>202.01</ele>
        <time>2014-12-14T11:08:29Z</time>
      </trkpt>
      <trkpt lat="44.62972" lon="0.87827">
        <ele>202.49</ele>
        <time>2014-12-14T11:08:30Z</time>
      </trkpt>
      <trkpt lat="44.62975" lon="0.87827">
        <ele>202.49</ele>
        <time>2014-12-14T11:08:31Z</time>
      </trkpt>
      <trkpt lat="44.63009" lon="0.87814">
        <ele>204.9</ele>
        <time>2014-12-14T11:08:43Z</time>
      </trkpt>
      <trkpt lat="44.63025" lon="0.87812">
        <ele>205.86</ele>
        <time>2014-12-14T11:08:49Z</time>
      </trkpt>
      <trkpt lat="44.63028" lon="0.87813">
        <ele>206.34</ele>
        <time>2014-12-14T11:08:50Z</time>
      </trkpt>
      <trkpt lat="44.63046" lon="0.87816">
        <ele>208.26</ele>
        <time>2014-12-14T11:08:56Z</time>
      </trkpt>
      <trkpt lat="44.63048" lon="0.87813">
        <ele>208.26</ele>
        <time>2014-12-14T11:08:57Z</time>
      </trkpt>
      <trkpt lat="44.63051" lon="0.87812">
        <ele>207.78</ele>
        <time>2014-12-14T11:08:58Z</time>
      </trkpt>
      <trkpt lat="44.63054" lon="0.87811">
        <ele>207.78</ele>
        <time>2014-12-14T11:08:59Z</time>
      </trkpt>
      <trkpt lat="44.63056" lon="0.8781">
        <ele>208.26</ele>
        <time>2014-12-14T11:09:00Z</time>
      </trkpt>
      <trkpt lat="44.63059" lon="0.87811">
        <ele>208.26</ele>
        <time>2014-12-14T11:09:01Z</time>
      </trkpt>
      <trkpt lat="44.63062" lon="0.87811">
        <ele>208.74</ele>
        <time>2014-12-14T11:09:02Z</time>
      </trkpt>
      <trkpt lat="44.63073" lon="0.87814">
        <ele>209.7</ele>
        <time>2014-12-14T11:09:07Z</time>
      </trkpt>
      <trkpt lat="44.63075" lon="0.87814">
        <ele>209.7</ele>
        <time>2014-12-14T11:09:08Z</time>
      </trkpt>
      <trkpt lat="44.63076" lon="0.87812">
        <ele>209.7</ele>
        <time>2014-12-14T11:09:09Z</time>
      </trkpt>
      <trkpt lat="44.63077" lon="0.87812">
        <ele>209.7</ele>
        <time>2014-12-14T11:09:10Z</time>
      </trkpt>
      <trkpt lat="44.63079" lon="0.87812">
        <ele>210.19</ele>
        <time>2014-12-14T11:09:11Z</time>
      </trkpt>
      <trkpt lat="44.6308" lon="0.87811">
        <ele>210.19</ele>
        <time>2014-12-14T11:09:12Z</time>
      </trkpt>
      <trkpt lat="44.63084" lon="0.87809">
        <ele>210.67</ele>
        <time>2014-12-14T11:09:15Z</time>
      </trkpt>
      <trkpt lat="44.63085" lon="0.87807">
        <ele>210.67</ele>
        <time>2014-12-14T11:09:16Z</time>
      </trkpt>
    </trkseg>
  </trk>
</gpx>